Darstellungsparameter: Aktuell verwendete Einstellungen:
Skalierung der Graphiken ... ?
xyx+y,   Skalierungsfaktor:      Skalierung: Modus: x, Faktor: 1
Darstellungszeitraum ... ?
Vom - - bis: - -   Zeitraum: 23.02.2019 - 22.05.2019
Min/Max/Avg-Anzeige ... ?
Zeige MMA aktuell
Zeige MMA Monat
Zeige MMA alles
Zeige --A aktuell
Zeige --A Monat
Zeige --A alles
Keine MMA-Anzeige
MMA:
Minimum Maximum Average (ber die Originaldaten)
MMA-Basis: 23.02.2019 - 22.05.2019
Quicknavigation für Darstellung... ?
Tage:      1T, 2T, 3T, 5T -1T -2T -3T -5T +1T +2T +3T +5T
Wochen: 1W, 2W, 3W -1W -2W -3W +1W +2W +3W
Monate: 1M, 3M, 6M -1M -3M -6M +1M +3M +6M
Jahre:    1J, 3J, 5J, 10J -1J -3J -5J -10J +1J +3J +5J +10J
Nutze für die Darstellung ... ?
Originaldaten oder Mittelwerte auf ...
Stundenbasis Tagesbasis Wochenbasis
Monatsbasis Jahresbasis      Datenbasis: Original-Daten
Darstellen als:
Statistik (Auto) Statistik J:M      Darstellung:
Zur Graphik,    zurück zur Übersicht aller Sensoren.
 
Tabellarische Datenbersicht: ?
 
Sensor: Nr:Datum:Temp:Abs-Feuchte:Windchill:Wind:
Aussen-T/F 1 23-02-2019 00:00:00 5.7 C 6.55 g/m*3 5.7 C 3.2 km/h
2 23-02-2019 00:05:00 5.7 C 6.55 g/m*3 5.7 C 1.6 km/h
3 23-02-2019 00:10:00 5.6 C 6.5 g/m*3 5.6 C 0 km/h
4 23-02-2019 00:15:00 5.4 C 6.42 g/m*3 5.4 C 3.2 km/h
5 23-02-2019 00:20:00 5.3 C 6.38 g/m*3 5.3 C 1.6 km/h
6 23-02-2019 00:25:00 5.3 C 6.38 g/m*3 5.3 C 0 km/h
7 23-02-2019 00:30:00 5.2 C 6.33 g/m*3 5.2 C 0 km/h
8 23-02-2019 00:35:00 5.2 C 6.33 g/m*3 5.2 C 0 km/h
9 23-02-2019 00:40:00 5.2 C 6.4 g/m*3 5.2 C 0 km/h
10 23-02-2019 00:45:00 5.1 C 6.36 g/m*3 5.1 C 0 km/h
11 23-02-2019 00:50:00 5.1 C 6.36 g/m*3 5.1 C 0 km/h
12 23-02-2019 00:55:00 5 C 6.32 g/m*3 5 C 0 km/h
13 23-02-2019 01:00:00 4.9 C 6.28 g/m*3 4.9 C 0 km/h
14 23-02-2019 01:05:00 4.8 C 6.24 g/m*3 4.8 C 0 km/h
15 23-02-2019 01:10:00 4.8 C 6.24 g/m*3 4.8 C 0 km/h
16 23-02-2019 01:15:00 4.7 C 6.19 g/m*3 4.7 C 0 km/h
17 23-02-2019 01:20:00 4.7 C 6.19 g/m*3 4.7 C 0 km/h
18 23-02-2019 01:25:00 4.6 C 6.15 g/m*3 4.6 C 0 km/h
19 23-02-2019 01:30:00 4.4 C 6.07 g/m*3 4.4 C 0 km/h
20 23-02-2019 01:35:00 4.4 C 6.07 g/m*3 4.4 C 0 km/h
21 23-02-2019 01:40:00 4.4 C 6.07 g/m*3 4.4 C 0 km/h
22 23-02-2019 01:45:00 4.3 C 6.1 g/m*3 4.3 C 0 km/h
23 23-02-2019 01:50:00 4.3 C 6.1 g/m*3 4.3 C 0 km/h
24 23-02-2019 01:55:00 4.3 C 6.1 g/m*3 4.3 C 0 km/h
25 23-02-2019 02:00:00 4.3 C 6.1 g/m*3 4.3 C 0 km/h
Sensor: Nr:Datum:Temp:Abs-Feuchte:Windchill:Wind:
Aussen-T/F 26 23-02-2019 02:05:00 4.3 C 6.1 g/m*3 4.3 C 0 km/h
27 23-02-2019 02:10:00 4.4 C 6.14 g/m*3 4.4 C 0 km/h
28 23-02-2019 02:15:00 4.4 C 6.14 g/m*3 4.4 C 0 km/h
29 23-02-2019 02:20:00 4.3 C 6.1 g/m*3 4.3 C 0 km/h
30 23-02-2019 02:25:00 4.3 C 6.1 g/m*3 4.3 C 0 km/h
31 23-02-2019 02:30:00 4.2 C 6.06 g/m*3 4.2 C 0 km/h
32 23-02-2019 02:35:00 4.1 C 6.02 g/m*3 4.1 C 0 km/h
33 23-02-2019 02:40:00 4 C 5.98 g/m*3 4 C 0 km/h
34 23-02-2019 02:45:00 4 C 5.98 g/m*3 4 C 0 km/h
35 23-02-2019 02:50:00 4 C 5.98 g/m*3 4 C 0 km/h
36 23-02-2019 02:55:00 3.9 C 5.94 g/m*3 3.9 C 0 km/h
37 23-02-2019 03:00:00 3.8 C 5.9 g/m*3 3.8 C 0 km/h
38 23-02-2019 03:05:00 3.8 C 5.96 g/m*3 3.8 C 0 km/h
39 23-02-2019 03:10:00 3.8 C 5.96 g/m*3 3.8 C 0 km/h
40 23-02-2019 03:15:00 3.8 C 5.96 g/m*3 3.8 C 0 km/h
41 23-02-2019 03:20:00 3.9 C 6 g/m*3 3.9 C 0 km/h
42 23-02-2019 03:25:00 3.8 C 5.96 g/m*3 3.8 C 1.6 km/h
43 23-02-2019 03:30:00 3.7 C 5.92 g/m*3 3.7 C 0 km/h
44 23-02-2019 03:35:00 3.7 C 5.92 g/m*3 3.7 C 3.2 km/h
45 23-02-2019 03:40:00 3.8 C 5.96 g/m*3 3.8 C 0 km/h
46 23-02-2019 03:45:00 3.8 C 5.96 g/m*3 3.8 C 3.2 km/h
47 23-02-2019 03:50:00 3.9 C 6 g/m*3 3.9 C 1.6 km/h
48 23-02-2019 03:55:00 4 C 6.04 g/m*3 4 C 1.6 km/h
49 23-02-2019 04:00:00 4.1 C 6.08 g/m*3 4.1 C 3.2 km/h
50 23-02-2019 04:05:00 4.2 C 6.12 g/m*3 4.2 C 0 km/h
Sensor: Nr:Datum:Temp:Abs-Feuchte:Windchill:Wind:
Aussen-T/F 51 23-02-2019 04:10:00 4.2 C 6.12 g/m*3 4.2 C 0 km/h
52 23-02-2019 04:15:00 4.3 C 6.16 g/m*3 4.3 C 4.8 km/h
53 23-02-2019 04:20:00 4.3 C 6.16 g/m*3 4.3 C 4.8 km/h
54 23-02-2019 04:25:00 4.3 C 6.16 g/m*3 4.3 C 0 km/h
55 23-02-2019 04:30:00 4.4 C 6.2 g/m*3 4.4 C 3.2 km/h
56 23-02-2019 04:35:00 4.3 C 6.16 g/m*3 4.3 C 0 km/h
57 23-02-2019 04:40:00 4.3 C 6.16 g/m*3 4.3 C 0 km/h
58 23-02-2019 04:45:00 4.3 C 6.16 g/m*3 4.3 C 0 km/h
59 23-02-2019 04:50:00 4.3 C 6.16 g/m*3 4.3 C 0 km/h
60 23-02-2019 04:55:00 4.2 C 6.12 g/m*3 4.2 C 0 km/h
61 23-02-2019 05:00:00 4.2 C 6.12 g/m*3 4.2 C 0 km/h
62 23-02-2019 05:05:00 4.2 C 6.12 g/m*3 4.2 C 0 km/h
63 23-02-2019 05:10:00 4.3 C 6.16 g/m*3 4.3 C 0 km/h
64 23-02-2019 05:15:00 4.3 C 6.16 g/m*3 1.89 C 9.7 km/h
65 23-02-2019 05:20:00 4.5 C 6.18 g/m*3 2.13 C 9.7 km/h
66 23-02-2019 05:25:00 4.6 C 6.22 g/m*3 4.6 C 3.2 km/h
67 23-02-2019 05:30:00 4.6 C 6.15 g/m*3 4.6 C 3.2 km/h
68 23-02-2019 05:35:00 4.7 C 6.19 g/m*3 4.7 C 0 km/h
69 23-02-2019 05:40:00 4.7 C 6.19 g/m*3 4.7 C 3.2 km/h
70 23-02-2019 05:45:00 4.7 C 6.13 g/m*3 3.25 C 6.4 km/h
71 23-02-2019 05:50:00 4.7 C 6.13 g/m*3 4.7 C 4.8 km/h
72 23-02-2019 05:55:00 4.8 C 6.1 g/m*3 2.87 C 8.1 km/h
73 23-02-2019 06:00:00 4.8 C 6.1 g/m*3 4.8 C 3.2 km/h
74 23-02-2019 06:05:00 4.8 C 6.1 g/m*3 4.8 C 3.2 km/h
75 23-02-2019 06:10:00 4.9 C 6.08 g/m*3 4.9 C 1.6 km/h
Sensor: Nr:Datum:Temp:Abs-Feuchte:Windchill:Wind:
Aussen-T/F 76 23-02-2019 06:15:00 4.8 C 6.1 g/m*3 4.8 C 0 km/h
77 23-02-2019 06:20:00 4.8 C 6.1 g/m*3 4.8 C 0 km/h
78 23-02-2019 06:25:00 4.8 C 5.97 g/m*3 4.8 C 1.6 km/h
79 23-02-2019 06:30:00 4.8 C 5.97 g/m*3 4.8 C 0 km/h
80 23-02-2019 06:35:00 4.8 C 5.97 g/m*3 4.8 C 1.6 km/h
81 23-02-2019 06:40:00 4.9 C 6.01 g/m*3 4.9 C 0 km/h
82 23-02-2019 06:45:00 4.9 C 6.08 g/m*3 4.9 C 0 km/h
83 23-02-2019 06:50:00 4.9 C 6.01 g/m*3 4.9 C 0 km/h
84 23-02-2019 06:55:00 4.8 C 5.97 g/m*3 4.8 C 0 km/h
85 23-02-2019 07:00:00 4.8 C 5.9 g/m*3 4.8 C 0 km/h
86 23-02-2019 07:05:00 4.8 C 5.9 g/m*3 4.8 C 0 km/h
87 23-02-2019 07:10:00 4.8 C 5.9 g/m*3 4.8 C 1.6 km/h
88 23-02-2019 07:15:00 4.7 C 5.8 g/m*3 3.25 C 6.4 km/h
89 23-02-2019 07:20:00 4.8 C 5.83 g/m*3 4.8 C 4.8 km/h
90 23-02-2019 07:25:00 4.8 C 5.83 g/m*3 4.8 C 0 km/h
91 23-02-2019 07:30:00 4.8 C 5.83 g/m*3 4.8 C 0 km/h
92 23-02-2019 07:35:00 4.8 C 5.77 g/m*3 4.8 C 3.2 km/h
93 23-02-2019 07:40:00 4.8 C 5.77 g/m*3 4.8 C 3.2 km/h
94 23-02-2019 07:45:00 4.8 C 5.83 g/m*3 4.8 C 0 km/h
95 23-02-2019 07:50:00 4.8 C 5.77 g/m*3 4.8 C 0 km/h
96 23-02-2019 07:55:00 4.8 C 5.77 g/m*3 4.8 C 0 km/h
97 23-02-2019 08:00:00 4.8 C 5.77 g/m*3 4.8 C 1.6 km/h
98 23-02-2019 08:05:00 4.8 C 5.83 g/m*3 4.8 C 0 km/h
99 23-02-2019 08:10:00 4.8 C 5.77 g/m*3 4.8 C 3.2 km/h
100 23-02-2019 08:15:00 4.8 C 5.7 g/m*3 4.8 C 4.8 km/h
Sensor: Nr:Datum:Temp:Abs-Feuchte:Windchill:Wind:
Aussen-T/F 101 23-02-2019 08:20:00 4.8 C 5.7 g/m*3 4.8 C 3.2 km/h
102 23-02-2019 08:25:00 4.8 C 5.7 g/m*3 4.8 C 3.2 km/h
103 23-02-2019 08:30:00 4.9 C 5.74 g/m*3 4.9 C 1.6 km/h
104 23-02-2019 08:35:00 4.9 C 5.74 g/m*3 4.9 C 3.2 km/h
105 23-02-2019 08:40:00 4.9 C 5.67 g/m*3 3.48 C 6.4 km/h
106 23-02-2019 08:45:00 4.9 C 5.67 g/m*3 2.99 C 8.1 km/h
107 23-02-2019 08:50:00 4.9 C 5.67 g/m*3 3.48 C 6.4 km/h
108 23-02-2019 08:55:00 4.9 C 5.67 g/m*3 4.9 C 3.2 km/h
109 23-02-2019 09:00:00 4.9 C 5.67 g/m*3 2.61 C 9.7 km/h
110 23-02-2019 09:05:00 4.9 C 5.6 g/m*3 3.48 C 6.4 km/h
111 23-02-2019 09:10:00 4.8 C 5.57 g/m*3 2.49 C 9.7 km/h
112 23-02-2019 09:15:00 4.8 C 5.57 g/m*3 2.15 C 11.3 km/h
113 23-02-2019 09:20:00 4.8 C 5.63 g/m*3 2.87 C 8.1 km/h
114 23-02-2019 09:25:00 4.8 C 5.63 g/m*3 2.87 C 8.1 km/h
115 23-02-2019 09:30:00 4.8 C 5.63 g/m*3 2.15 C 11.3 km/h
116 23-02-2019 09:35:00 4.7 C 5.6 g/m*3 2.76 C 8.1 km/h
117 23-02-2019 09:40:00 4.7 C 5.53 g/m*3 2.76 C 8.1 km/h
118 23-02-2019 09:45:00 4.7 C 5.53 g/m*3 2.76 C 8.1 km/h
119 23-02-2019 09:50:00 4.7 C 5.53 g/m*3 2.37 C 9.7 km/h
120 23-02-2019 09:55:00 4.7 C 5.53 g/m*3 4.7 C 3.2 km/h
121 23-02-2019 10:00:00 4.7 C 5.53 g/m*3 4.7 C 1.6 km/h
122 23-02-2019 10:05:00 4.7 C 5.53 g/m*3 4.7 C 1.6 km/h
123 23-02-2019 10:10:00 4.7 C 5.53 g/m*3 3.25 C 6.4 km/h
124 23-02-2019 10:15:00 4.8 C 5.57 g/m*3 4.8 C 4.8 km/h
125 23-02-2019 10:20:00 4.8 C 5.5 g/m*3 3.36 C 6.4 km/h
Sensor: Nr:Datum:Temp:Abs-Feuchte:Windchill:Wind:
Aussen-T/F 126 23-02-2019 10:25:00 4.8 C 5.5 g/m*3 2.49 C 9.7 km/h
127 23-02-2019 10:30:00 4.9 C 5.54 g/m*3 3.48 C 6.4 km/h
128 23-02-2019 10:35:00 5 C 5.5 g/m*3 5 C 4.8 km/h
129 23-02-2019 10:40:00 5.1 C 5.54 g/m*3 3.71 C 6.4 km/h
130 23-02-2019 10:45:00 5.2 C 5.58 g/m*3 3.82 C 6.4 km/h
131 23-02-2019 10:50:00 5.3 C 5.61 g/m*3 5.3 C 3.2 km/h
132 23-02-2019 10:55:00 5.4 C 5.58 g/m*3 4.06 C 6.4 km/h
133 23-02-2019 11:00:00 5.4 C 5.65 g/m*3 5.4 C 4.8 km/h
134 23-02-2019 11:05:00 5.6 C 5.73 g/m*3 5.6 C 3.2 km/h
135 23-02-2019 11:10:00 5.7 C 5.69 g/m*3 3.93 C 8.1 km/h
136 23-02-2019 11:15:00 5.8 C 5.73 g/m*3 4.52 C 6.4 km/h
137 23-02-2019 11:20:00 5.9 C 5.77 g/m*3 5.9 C 3.2 km/h
138 23-02-2019 11:25:00 6.1 C 5.84 g/m*3 6.1 C 4.8 km/h
139 23-02-2019 11:30:00 6.2 C 5.81 g/m*3 4.98 C 6.4 km/h
140 23-02-2019 11:35:00 6.3 C 5.85 g/m*3 5.1 C 6.4 km/h
141 23-02-2019 11:40:00 6.4 C 5.81 g/m*3 5.21 C 6.4 km/h
142 23-02-2019 11:45:00 6.6 C 5.81 g/m*3 6.6 C 4.8 km/h
143 23-02-2019 11:50:00 6.7 C 5.85 g/m*3 5.11 C 8.1 km/h
144 23-02-2019 11:55:00 6.8 C 5.81 g/m*3 5.22 C 8.1 km/h
145 23-02-2019 12:00:00 6.9 C 5.85 g/m*3 5.34 C 8.1 km/h
146 23-02-2019 12:05:00 7.1 C 5.85 g/m*3 6.02 C 6.4 km/h
147 23-02-2019 12:10:00 7.2 C 5.81 g/m*3 5.69 C 8.1 km/h
148 23-02-2019 12:15:00 7.3 C 5.85 g/m*3 4.9 C 12.9 km/h
149 23-02-2019 12:20:00 7.5 C 5.84 g/m*3 6.05 C 8.1 km/h
150 23-02-2019 12:25:00 7.7 C 5.84 g/m*3 7.7 C 4.8 km/h
Sensor: Nr:Datum:Temp:Abs-Feuchte:Windchill:Wind:
Aussen-T/F 151 23-02-2019 12:30:00 7.8 C 5.79 g/m*3 6.06 C 9.7 km/h
152 23-02-2019 12:35:00 7.8 C 5.79 g/m*3 5.77 C 11.3 km/h
153 23-02-2019 12:40:00 7.9 C 5.75 g/m*3 6.52 C 8.1 km/h
154 23-02-2019 12:45:00 8 C 5.87 g/m*3 8 C 4.8 km/h
155 23-02-2019 12:50:00 8.1 C 5.82 g/m*3 6.75 C 8.1 km/h
156 23-02-2019 12:55:00 8.2 C 5.95 g/m*3 6.87 C 8.1 km/h
157 23-02-2019 13:00:00 8.3 C 5.82 g/m*3 6.66 C 9.7 km/h
158 23-02-2019 13:05:00 8.4 C 5.77 g/m*3 6.01 C 14.5 km/h
159 23-02-2019 13:10:00 8.4 C 5.85 g/m*3 6.49 C 11.3 km/h
160 23-02-2019 13:15:00 8.7 C 5.88 g/m*3 7.13 C 9.7 km/h
161 23-02-2019 13:20:00 8.9 C 5.96 g/m*3 7.37 C 9.7 km/h
162 23-02-2019 13:25:00 9.1 C 5.94 g/m*3 7.61 C 9.7 km/h
163 23-02-2019 13:30:00 9.3 C 5.93 g/m*3 7.33 C 12.9 km/h
164 23-02-2019 13:35:00 9.3 C 5.93 g/m*3 7.58 C 11.3 km/h
165 23-02-2019 13:40:00 9.4 C 6.06 g/m*3 9.4 C 3.2 km/h
166 23-02-2019 13:45:00 9.6 C 5.95 g/m*3 8.52 C 8.1 km/h
167 23-02-2019 13:50:00 9.6 C 5.95 g/m*3 8.52 C 8.1 km/h
168 23-02-2019 13:55:00 9.7 C 5.9 g/m*3 9.7 C 4.8 km/h
169 23-02-2019 14:00:00 9.7 C 5.9 g/m*3 9.02 C 6.4 km/h
170 23-02-2019 14:05:00 9.7 C 5.81 g/m*3 9.7 C 3.2 km/h
171 23-02-2019 14:10:00 9.7 C 5.9 g/m*3 9.7 C 4.8 km/h
172 23-02-2019 14:15:00 9.8 C 5.85 g/m*3 9.8 C 4.8 km/h
173 23-02-2019 14:20:00 9.8 C 5.75 g/m*3 9.14 C 6.4 km/h
174 23-02-2019 14:25:00 9.9 C 5.79 g/m*3 9.25 C 6.4 km/h
175 23-02-2019 14:30:00 10 C 5.73 g/m*3 8.99 C 8.1 km/h
Sensor: Nr:Datum:Temp:Abs-Feuchte:Windchill:Wind:
Aussen-T/F 176 23-02-2019 14:35:00 10.1 C 5.67 g/m*3 9.1 C 8.1 km/h
177 23-02-2019 14:40:00 10.2 C 5.61 g/m*3 9.22 C 8.1 km/h
178 23-02-2019 14:45:00 10.3 C 5.17 g/m*3 9.72 C 6.4 km/h
179 23-02-2019 14:50:00 10.4 C 5.01 g/m*3 10.4 C 4.8 km/h
180 23-02-2019 14:55:00 10.6 C 4.78 g/m*3 9.4 C 9.7 km/h
181 23-02-2019 15:00:00 10.6 C 4.59 g/m*3 10.06 C 6.4 km/h
182 23-02-2019 15:05:00 10.7 C 4.52 g/m*3 10.7 C 4.8 km/h
183 23-02-2019 15:10:00 10.8 C 4.74 g/m*3 10.8 C 0 km/h
184 23-02-2019 15:15:00 10.8 C 4.55 g/m*3 10.29 C 6.4 km/h
185 23-02-2019 15:20:00 10.8 C 4.55 g/m*3 10.8 C 4.8 km/h
186 23-02-2019 15:25:00 10.8 C 4.55 g/m*3 10.8 C 1.6 km/h
187 23-02-2019 15:30:00 10.8 C 4.45 g/m*3 10.8 C 4.8 km/h
188 23-02-2019 15:35:00 10.8 C 4.15 g/m*3 9.38 C 11.3 km/h
189 23-02-2019 15:40:00 10.8 C 4.15 g/m*3 10.8 C 4.8 km/h
190 23-02-2019 15:45:00 10.8 C 4.25 g/m*3 10.8 C 4.8 km/h
191 23-02-2019 15:50:00 10.8 C 4.15 g/m*3 9.64 C 9.7 km/h
192 23-02-2019 15:55:00 10.9 C 4.38 g/m*3 10.9 C 3.2 km/h
193 23-02-2019 16:00:00 10.9 C 4.28 g/m*3 10.41 C 6.4 km/h
194 23-02-2019 16:05:00 10.9 C 4.28 g/m*3 10.9 C 3.2 km/h
195 23-02-2019 16:10:00 11.1 C 4.63 g/m*3 11.1 C 4.8 km/h
196 23-02-2019 16:15:00 11.1 C 5.24 g/m*3 11.1 C 4.8 km/h
197 23-02-2019 16:20:00 11 C 4.3 g/m*3 11 C 4.8 km/h
198 23-02-2019 16:25:00 10.9 C 4.18 g/m*3 10.41 C 6.4 km/h
199 23-02-2019 16:30:00 10.8 C 4.35 g/m*3 10.8 C 3.2 km/h
200 23-02-2019 16:35:00 10.8 C 4.65 g/m*3 10.8 C 1.6 km/h
Sensor: Nr:Datum:Temp:Abs-Feuchte:Windchill:Wind:
Aussen-T/F 201 23-02-2019 16:40:00 10.6 C 4.49 g/m*3 10.6 C 1.6 km/h
202 23-02-2019 16:45:00 10.4 C 5.01 g/m*3 10.4 C 1.6 km/h
203 23-02-2019 16:50:00 10.2 C 5.04 g/m*3 10.2 C 0 km/h
204 23-02-2019 16:55:00 9.9 C 5.04 g/m*3 9.9 C 0 km/h
205 23-02-2019 17:00:00 9.6 C 5.13 g/m*3 9.6 C 0 km/h
206 23-02-2019 17:05:00 9.3 C 5.3 g/m*3 9.3 C 1.6 km/h
207 23-02-2019 17:10:00 8.9 C 5.34 g/m*3 8.9 C 1.6 km/h
208 23-02-2019 17:15:00 8.7 C 5.36 g/m*3 8.7 C 3.2 km/h
209 23-02-2019 17:20:00 8.3 C 5.23 g/m*3 8.3 C 3.2 km/h
210 23-02-2019 17:25:00 8 C 5.29 g/m*3 8 C 3.2 km/h
211 23-02-2019 17:30:00 7.8 C 5.22 g/m*3 7.8 C 3.2 km/h
212 23-02-2019 17:35:00 7.5 C 5.2 g/m*3 7.5 C 3.2 km/h
213 23-02-2019 17:40:00 7.3 C 5.14 g/m*3 7.3 C 3.2 km/h
214 23-02-2019 17:45:00 7.1 C 5.15 g/m*3 7.1 C 3.2 km/h
215 23-02-2019 17:50:00 6.8 C 5.12 g/m*3 6.8 C 0 km/h
216 23-02-2019 17:55:00 6.6 C 5.06 g/m*3 6.6 C 0 km/h
217 23-02-2019 18:00:00 6.4 C 5.14 g/m*3 6.4 C 0 km/h
218 23-02-2019 18:05:00 6.2 C 5.15 g/m*3 6.2 C 0 km/h
219 23-02-2019 18:10:00 5.9 C 5.05 g/m*3 5.9 C 0 km/h
220 23-02-2019 18:15:00 5.7 C 4.98 g/m*3 5.7 C 0 km/h
221 23-02-2019 18:20:00 5.6 C 5.02 g/m*3 5.6 C 0 km/h
222 23-02-2019 18:25:00 5.4 C 4.95 g/m*3 5.4 C 0 km/h
223 23-02-2019 18:30:00 5.3 C 4.92 g/m*3 5.3 C 0 km/h
224 23-02-2019 18:35:00 5.2 C 4.89 g/m*3 5.2 C 0 km/h
225 23-02-2019 18:40:00 5.1 C 4.92 g/m*3 5.1 C 0 km/h
Sensor: Nr:Datum:Temp:Abs-Feuchte:Windchill:Wind:
Aussen-T/F 226 23-02-2019 18:45:00 5 C 4.89 g/m*3 5 C 0 km/h
227 23-02-2019 18:50:00 4.9 C 4.86 g/m*3 4.9 C 0 km/h
228 23-02-2019 18:55:00 4.8 C 4.83 g/m*3 4.8 C 0 km/h
229 23-02-2019 19:00:00 4.7 C 4.86 g/m*3 4.7 C 0 km/h
230 23-02-2019 19:05:00 4.7 C 4.86 g/m*3 4.7 C 0 km/h
231 23-02-2019 19:10:00 4.6 C 4.83 g/m*3 4.6 C 0 km/h
232 23-02-2019 19:15:00 4.6 C 4.9 g/m*3 4.6 C 0 km/h
233 23-02-2019 19:20:00 4.5 C 4.86 g/m*3 4.5 C 0 km/h
234 23-02-2019 19:25:00 4.4 C 4.77 g/m*3 4.4 C 0 km/h
235 23-02-2019 19:30:00 4.3 C 4.8 g/m*3 4.3 C 0 km/h
236 23-02-2019 19:35:00 4.3 C 4.86 g/m*3 4.3 C 0 km/h
237 23-02-2019 19:40:00 4.2 C 4.83 g/m*3 4.2 C 0 km/h
238 23-02-2019 19:45:00 4.1 C 4.74 g/m*3 4.1 C 0 km/h
239 23-02-2019 19:50:00 4.1 C 4.8 g/m*3 4.1 C 0 km/h
240 23-02-2019 19:55:00 3.9 C 4.74 g/m*3 3.9 C 0 km/h
241 23-02-2019 20:00:00 3.9 C 4.74 g/m*3 3.9 C 0 km/h
242 23-02-2019 20:05:00 3.8 C 4.71 g/m*3 3.8 C 0 km/h
243 23-02-2019 20:10:00 3.7 C 4.67 g/m*3 3.7 C 0 km/h
244 23-02-2019 20:15:00 3.7 C 4.67 g/m*3 3.7 C 0 km/h
245 23-02-2019 20:20:00 3.6 C 4.64 g/m*3 3.6 C 0 km/h
246 23-02-2019 20:25:00 3.5 C 4.67 g/m*3 3.5 C 0 km/h
247 23-02-2019 20:30:00 3.4 C 4.64 g/m*3 3.4 C 0 km/h
248 23-02-2019 20:35:00 3.3 C 4.67 g/m*3 3.3 C 0 km/h
249 23-02-2019 20:40:00 3.2 C 4.64 g/m*3 3.2 C 0 km/h
250 23-02-2019 20:45:00 3 C 4.58 g/m*3 3 C 0 km/h
Sensor: Nr:Datum:Temp:Abs-Feuchte:Windchill:Wind:
Aussen-T/F 251 23-02-2019 20:50:00 2.8 C 4.52 g/m*3 2.8 C 0 km/h
252 23-02-2019 20:55:00 2.7 C 4.54 g/m*3 2.7 C 0 km/h
253 23-02-2019 21:00:00 2.6 C 4.51 g/m*3 2.6 C 0 km/h
254 23-02-2019 21:05:00 2.4 C 4.51 g/m*3 2.4 C 0 km/h
255 23-02-2019 21:10:00 2.3 C 4.42 g/m*3 2.3 C 0 km/h
256 23-02-2019 21:15:00 2.2 C 4.39 g/m*3 2.2 C 0 km/h
257 23-02-2019 21:20:00 2.2 C 4.45 g/m*3 2.2 C 0 km/h
258 23-02-2019 21:25:00 2.1 C 4.42 g/m*3 2.1 C 0 km/h
259 23-02-2019 21:30:00 2.1 C 4.48 g/m*3 2.1 C 0 km/h
260 23-02-2019 21:35:00 2 C 4.39 g/m*3 2 C 0 km/h
261 23-02-2019 21:40:00 1.8 C 4.39 g/m*3 1.8 C 0 km/h
262 23-02-2019 21:45:00 1.7 C 4.36 g/m*3 1.7 C 0 km/h
263 23-02-2019 21:50:00 1.6 C 4.38 g/m*3 1.6 C 0 km/h
264 23-02-2019 21:55:00 1.4 C 4.32 g/m*3 1.4 C 0 km/h
265 23-02-2019 22:00:00 1.3 C 4.29 g/m*3 1.3 C 0 km/h
266 23-02-2019 22:05:00 1.2 C 4.31 g/m*3 1.2 C 0 km/h
267 23-02-2019 22:10:00 1.2 C 4.31 g/m*3 1.2 C 0 km/h
268 23-02-2019 22:15:00 1.1 C 4.34 g/m*3 1.1 C 0 km/h
269 23-02-2019 22:20:00 1.1 C 4.39 g/m*3 1.1 C 0 km/h
270 23-02-2019 22:25:00 1.1 C 4.39 g/m*3 1.1 C 0 km/h
271 23-02-2019 22:30:00 1.1 C 4.34 g/m*3 1.1 C 0 km/h
272 23-02-2019 22:35:00 0.9 C 4.28 g/m*3 0.9 C 0 km/h
273 23-02-2019 22:40:00 0.8 C 4.25 g/m*3 0.8 C 0 km/h
274 23-02-2019 22:45:00 0.7 C 4.22 g/m*3 0.7 C 0 km/h
275 23-02-2019 22:50:00 0.7 C 4.22 g/m*3 0.7 C 0 km/h
Sensor: Nr:Datum:Temp:Abs-Feuchte:Windchill:Wind:
Aussen-T/F 276 23-02-2019 22:55:00 0.6 C 4.19 g/m*3 0.6 C 0 km/h
277 23-02-2019 23:00:00 0.6 C 4.24 g/m*3 0.6 C 0 km/h
278 23-02-2019 23:05:00 0.6 C 4.24 g/m*3 0.6 C 0 km/h
279 23-02-2019 23:10:00 0.5 C 4.16 g/m*3 0.5 C 0 km/h
280 23-02-2019 23:15:00 0.4 C 4.13 g/m*3 0.4 C 0 km/h
281 23-02-2019 23:20:00 0.4 C 4.18 g/m*3 0.4 C 0 km/h
282 23-02-2019 23:25:00 0.5 C 4.16 g/m*3 0.5 C 0 km/h
283 23-02-2019 23:30:00 0.4 C 4.13 g/m*3 0.4 C 0 km/h
284 23-02-2019 23:35:00 0.5 C 4.16 g/m*3 0.5 C 0 km/h
285 23-02-2019 23:40:00 0.4 C 4.13 g/m*3 0.4 C 0 km/h
286 23-02-2019 23:45:00 0.4 C 4.18 g/m*3 0.4 C 0 km/h
287 23-02-2019 23:50:00 0.4 C 4.18 g/m*3 0.4 C 0 km/h
288 23-02-2019 23:55:00 0.4 C 4.18 g/m*3 0.4 C 0 km/h
289 24-02-2019 00:00:00 0.2 C 4.13 g/m*3 0.2 C 0 km/h
290 24-02-2019 00:05:00 0.1 C 4.1 g/m*3 0.1 C 0 km/h
291 24-02-2019 00:10:00 -0.1 C 4.04 g/m*3 -0.1 C 0 km/h
292 24-02-2019 00:15:00 -0.2 C 4.06 g/m*3 -0.2 C 0 km/h
293 24-02-2019 00:20:00 -0.3 C 4.03 g/m*3 -0.3 C 0 km/h
294 24-02-2019 00:25:00 -0.3 C 4.03 g/m*3 -0.3 C 0 km/h
295 24-02-2019 00:30:00 -0.3 C 4.08 g/m*3 -0.3 C 0 km/h
296 24-02-2019 00:35:00 -0.3 C 4.08 g/m*3 -0.3 C 0 km/h
297 24-02-2019 00:40:00 -0.4 C 4.05 g/m*3 -0.4 C 0 km/h
298 24-02-2019 00:45:00 -0.4 C 4.05 g/m*3 -0.4 C 0 km/h
299 24-02-2019 00:50:00 -0.5 C 4.07 g/m*3 -0.5 C 0 km/h
300 24-02-2019 00:55:00 -0.6 C 4.04 g/m*3 -0.6 C 0 km/h
Sensor: Nr:Datum:Temp:Abs-Feuchte:Windchill:Wind:
Aussen-T/F 301 24-02-2019 01:00:00 -0.6 C 4.04 g/m*3 -0.6 C 0 km/h
302 24-02-2019 01:05:00 -0.6 C 4.04 g/m*3 -0.6 C 0 km/h
303 24-02-2019 01:10:00 -0.6 C 4.04 g/m*3 -0.6 C 0 km/h
304 24-02-2019 01:15:00 -0.6 C 4.04 g/m*3 -0.6 C 0 km/h
305 24-02-2019 01:20:00 -0.6 C 4.04 g/m*3 -0.6 C 0 km/h
306 24-02-2019 01:25:00 -0.6 C 4.04 g/m*3 -0.6 C 0 km/h
307 24-02-2019 01:30:00 -0.7 C 4.02 g/m*3 -0.7 C 0 km/h
308 24-02-2019 01:35:00 -0.7 C 4.02 g/m*3 -0.7 C 0 km/h
309 24-02-2019 01:40:00 -0.7 C 4.02 g/m*3 -0.7 C 0 km/h
310 24-02-2019 01:45:00 -0.7 C 4.02 g/m*3 -0.7 C 0 km/h
311 24-02-2019 01:50:00 -0.8 C 3.99 g/m*3 -0.8 C 0 km/h
312 24-02-2019 01:55:00 -0.8 C 3.99 g/m*3 -0.8 C 0 km/h
313 24-02-2019 02:00:00 -0.9 C 3.96 g/m*3 -0.9 C 0 km/h
314 24-02-2019 02:05:00 -1 C 3.93 g/m*3 -1 C 0 km/h
315 24-02-2019 02:10:00 -1.1 C 3.95 g/m*3 -1.1 C 0 km/h
316 24-02-2019 02:15:00 -1.1 C 3.95 g/m*3 -1.1 C 0 km/h
317 24-02-2019 02:20:00 -1.1 C 3.95 g/m*3 -1.1 C 0 km/h
318 24-02-2019 02:25:00 -1.2 C 3.92 g/m*3 -1.2 C 0 km/h
319 24-02-2019 02:30:00 -1.2 C 3.92 g/m*3 -1.2 C 0 km/h
320 24-02-2019 02:35:00 -1.2 C 3.92 g/m*3 -1.2 C 0 km/h
321 24-02-2019 02:40:00 -1.3 C 3.9 g/m*3 -1.3 C 0 km/h
322 24-02-2019 02:45:00 -1.3 C 3.9 g/m*3 -1.3 C 0 km/h
323 24-02-2019 02:50:00 -1.3 C 3.9 g/m*3 -1.3 C 0 km/h
324 24-02-2019 02:55:00 -1.3 C 3.94 g/m*3 -1.3 C 0 km/h
325 24-02-2019 03:00:00 -1.3 C 3.94 g/m*3 -1.3 C 0 km/h
Sensor: Nr:Datum:Temp:Abs-Feuchte:Windchill:Wind:
Aussen-T/F 326 24-02-2019 03:05:00 -1.4 C 3.91 g/m*3 -1.4 C 0 km/h
327 24-02-2019 03:10:00 -1.4 C 3.91 g/m*3 -1.4 C 0 km/h
328 24-02-2019 03:15:00 -1.4 C 3.91 g/m*3 -1.4 C 0 km/h
329 24-02-2019 03:20:00 -1.4 C 3.91 g/m*3 -1.4 C 0 km/h
330 24-02-2019 03:25:00 -1.5 C 3.89 g/m*3 -1.5 C 0 km/h
331 24-02-2019 03:30:00 -1.5 C 3.89 g/m*3 -1.5 C 0 km/h
332 24-02-2019 03:35:00 -1.6 C 3.86 g/m*3 -1.6 C 0 km/h
333 24-02-2019 03:40:00 -1.6 C 3.86 g/m*3 -1.6 C 0 km/h
334 24-02-2019 03:45:00 -1.6 C 3.86 g/m*3 -1.6 C 0 km/h
335 24-02-2019 03:50:00 -1.6 C 3.9 g/m*3 -1.6 C 0 km/h
336 24-02-2019 03:55:00 -1.7 C 3.87 g/m*3 -1.7 C 0 km/h
337 24-02-2019 04:00:00 -1.7 C 3.87 g/m*3 -1.7 C 0 km/h
338 24-02-2019 04:05:00 -1.7 C 3.87 g/m*3 -1.7 C 0 km/h
339 24-02-2019 04:10:00 -1.7 C 3.87 g/m*3 -1.7 C 0 km/h
340 24-02-2019 04:15:00 -1.6 C 3.9 g/m*3 -1.6 C 0 km/h
341 24-02-2019 04:20:00 -1.7 C 3.87 g/m*3 -1.7 C 0 km/h
342 24-02-2019 04:25:00 -1.7 C 3.87 g/m*3 -1.7 C 0 km/h
343 24-02-2019 04:30:00 -1.7 C 3.87 g/m*3 -1.7 C 0 km/h
344 24-02-2019 04:35:00 -1.8 C 3.85 g/m*3 -1.8 C 0 km/h
345 24-02-2019 04:40:00 -1.8 C 3.85 g/m*3 -1.8 C 0 km/h
346 24-02-2019 04:45:00 -1.8 C 3.85 g/m*3 -1.8 C 0 km/h
347 24-02-2019 04:50:00 -1.8 C 3.85 g/m*3 -1.8 C 0 km/h
348 24-02-2019 04:55:00 -1.8 C 3.85 g/m*3 -1.8 C 0 km/h
349 24-02-2019 05:00:00 -1.8 C 3.85 g/m*3 -1.8 C 0 km/h
350 24-02-2019 05:05:00 -1.8 C 3.85 g/m*3 -1.8 C 0 km/h
Sensor: Nr:Datum:Temp:Abs-Feuchte:Windchill:Wind:
Aussen-T/F 351 24-02-2019 05:10:00 -1.8 C 3.85 g/m*3 -1.8 C 0 km/h
352 24-02-2019 05:15:00 -1.8 C 3.85 g/m*3 -1.8 C 0 km/h
353 24-02-2019 05:20:00 -1.8 C 3.85 g/m*3 -1.8 C 0 km/h
354 24-02-2019 05:25:00 -1.9 C 3.82 g/m*3 -1.9 C 0 km/h
355 24-02-2019 05:30:00 -1.9 C 3.82 g/m*3 -1.9 C 0 km/h
356 24-02-2019 05:35:00 -1.9 C 3.82 g/m*3 -1.9 C 0 km/h
357 24-02-2019 05:40:00 -2 C 3.79 g/m*3 -2 C 0 km/h
358 24-02-2019 05:45:00 -2 C 3.79 g/m*3 -2 C 0 km/h
359 24-02-2019 05:50:00 -1.9 C 3.82 g/m*3 -1.9 C 0 km/h
360 24-02-2019 05:55:00 -1.9 C 3.82 g/m*3 -1.9 C 0 km/h
361 24-02-2019 06:00:00 -1.9 C 3.82 g/m*3 -1.9 C 0 km/h
362 24-02-2019 06:05:00 -1.9 C 3.82 g/m*3 -1.9 C 0 km/h
363 24-02-2019 06:10:00 -2 C 3.79 g/m*3 -2 C 0 km/h
364 24-02-2019 06:15:00 -2 C 3.79 g/m*3 -2 C 0 km/h
365 24-02-2019 06:20:00 -2.1 C 3.77 g/m*3 -2.1 C 0 km/h
366 24-02-2019 06:25:00 -2.1 C 3.77 g/m*3 -2.1 C 0 km/h
367 24-02-2019 06:30:00 -2.1 C 3.81 g/m*3 -2.1 C 0 km/h
368 24-02-2019 06:35:00 -2.1 C 3.81 g/m*3 -2.1 C 0 km/h
369 24-02-2019 06:40:00 -2.1 C 3.81 g/m*3 -2.1 C 0 km/h
370 24-02-2019 06:45:00 -2.1 C 3.81 g/m*3 -2.1 C 0 km/h
371 24-02-2019 06:50:00 -2.2 C 3.78 g/m*3 -2.2 C 0 km/h
372 24-02-2019 06:55:00 -2.2 C 3.78 g/m*3 -2.2 C 0 km/h
373 24-02-2019 07:00:00 -2.2 C 3.78 g/m*3 -2.2 C 0 km/h
374 24-02-2019 07:05:00 -2.3 C 3.76 g/m*3 -2.3 C 0 km/h
375 24-02-2019 07:10:00 -2.3 C 3.76 g/m*3 -2.3 C 0 km/h
Sensor: Nr:Datum:Temp:Abs-Feuchte:Windchill:Wind:
Aussen-T/F 376 24-02-2019 07:15:00 -2.3 C 3.76 g/m*3 -2.3 C 0 km/h
377 24-02-2019 07:20:00 -2.4 C 3.73 g/m*3 -2.4 C 0 km/h
378 24-02-2019 07:25:00 -2.4 C 3.73 g/m*3 -2.4 C 0 km/h
379 24-02-2019 07:30:00 -2.4 C 3.73 g/m*3 -2.4 C 0 km/h
380 24-02-2019 07:35:00 -2.4 C 3.73 g/m*3 -2.4 C 0 km/h
381 24-02-2019 07:40:00 -2.4 C 3.73 g/m*3 -2.4 C 0 km/h
382 24-02-2019 07:45:00 -2.4 C 3.77 g/m*3 -2.4 C 0 km/h
383 24-02-2019 07:50:00 -2.4 C 3.77 g/m*3 -2.4 C 0 km/h
384 24-02-2019 07:55:00 -2.4 C 3.77 g/m*3 -2.4 C 0 km/h
385 24-02-2019 08:00:00 -2.3 C 3.8 g/m*3 -2.3 C 0 km/h
386 24-02-2019 08:05:00 -2.3 C 3.8 g/m*3 -2.3 C 0 km/h
387 24-02-2019 08:10:00 -2.2 C 3.82 g/m*3 -2.2 C 0 km/h
388 24-02-2019 08:15:00 -2.2 C 3.82 g/m*3 -2.2 C 0 km/h
389 24-02-2019 08:20:00 -2.2 C 3.82 g/m*3 -2.2 C 0 km/h
390 24-02-2019 08:25:00 -2.1 C 3.85 g/m*3 -2.1 C 0 km/h
391 24-02-2019 08:30:00 -2.1 C 3.85 g/m*3 -2.1 C 0 km/h
392 24-02-2019 08:35:00 -2 C 3.88 g/m*3 -2 C 0 km/h
393 24-02-2019 08:40:00 -2 C 3.88 g/m*3 -2 C 0 km/h
394 24-02-2019 08:45:00 -2 C 3.88 g/m*3 -2 C 0 km/h
395 24-02-2019 08:50:00 -2 C 3.88 g/m*3 -2 C 0 km/h
396 24-02-2019 08:55:00 -1.9 C 3.91 g/m*3 -1.9 C 0 km/h
397 24-02-2019 09:00:00 -1.9 C 3.91 g/m*3 -1.9 C 0 km/h
398 24-02-2019 09:05:00 -1.8 C 3.93 g/m*3 -1.8 C 0 km/h
399 24-02-2019 09:10:00 -1.8 C 3.93 g/m*3 -1.8 C 0 km/h
400 24-02-2019 09:15:00 -1.7 C 3.96 g/m*3 -1.7 C 0 km/h
Sensor: Nr:Datum:Temp:Abs-Feuchte:Windchill:Wind:
Aussen-T/F 401 24-02-2019 09:20:00 -1.6 C 3.99 g/m*3 -1.6 C 0 km/h
402 24-02-2019 09:25:00 -1.6 C 3.99 g/m*3 -1.6 C 0 km/h
403 24-02-2019 09:30:00 -1.5 C 4.02 g/m*3 -1.5 C 0 km/h
404 24-02-2019 09:35:00 -1.4 C 4.04 g/m*3 -1.4 C 0 km/h
405 24-02-2019 09:40:00 -1.3 C 4.07 g/m*3 -1.3 C 0 km/h
406 24-02-2019 09:45:00 -1.2 C 4.1 g/m*3 -1.2 C 0 km/h
407 24-02-2019 09:50:00 -1.1 C 4.13 g/m*3 -1.1 C 0 km/h
408 24-02-2019 09:55:00 -1 C 4.11 g/m*3 -1 C 0 km/h
409 24-02-2019 10:00:00 -0.9 C 4.14 g/m*3 -0.9 C 0 km/h
410 24-02-2019 10:05:00 -0.8 C 4.17 g/m*3 -0.8 C 0 km/h
411 24-02-2019 10:10:00 -0.6 C 4.18 g/m*3 -0.6 C 0 km/h
412 24-02-2019 10:15:00 -0.4 C 4.24 g/m*3 -0.4 C 0 km/h
413 24-02-2019 10:20:00 -0.2 C 4.3 g/m*3 -0.2 C 0 km/h
414 24-02-2019 10:25:00 0 C 4.31 g/m*3 0 C 0 km/h
415 24-02-2019 10:30:00 0.3 C 4.4 g/m*3 0.3 C 0 km/h
416 24-02-2019 10:35:00 0.7 C 4.47 g/m*3 0.7 C 0 km/h
417 24-02-2019 10:40:00 1 C 4.57 g/m*3 1 C 0 km/h
418 24-02-2019 10:45:00 1.4 C 4.64 g/m*3 1.4 C 0 km/h
419 24-02-2019 10:50:00 1.7 C 4.68 g/m*3 1.7 C 0 km/h
420 24-02-2019 10:55:00 2.2 C 4.79 g/m*3 2.2 C 0 km/h
421 24-02-2019 11:00:00 2.6 C 4.8 g/m*3 2.6 C 0 km/h
422 24-02-2019 11:05:00 2.9 C 4.84 g/m*3 2.9 C 0 km/h
423 24-02-2019 11:10:00 3.2 C 4.94 g/m*3 3.2 C 0 km/h
424 24-02-2019 11:15:00 3.4 C 4.95 g/m*3 3.4 C 0 km/h
425 24-02-2019 11:20:00 3.7 C 4.99 g/m*3 3.7 C 0 km/h
Sensor: Nr:Datum:Temp:Abs-Feuchte:Windchill:Wind:
Aussen-T/F 426 24-02-2019 11:25:00 3.9 C 4.99 g/m*3 3.9 C 0 km/h
427 24-02-2019 11:30:00 4.2 C 4.9 g/m*3 4.2 C 0 km/h
428 24-02-2019 11:35:00 4.6 C 4.96 g/m*3 4.6 C 0 km/h
429 24-02-2019 11:40:00 4.8 C 5.1 g/m*3 4.8 C 0 km/h
430 24-02-2019 11:45:00 5.1 C 5.06 g/m*3 5.1 C 0 km/h
431 24-02-2019 11:50:00 5.3 C 5.13 g/m*3 5.3 C 0 km/h
432 24-02-2019 11:55:00 5.4 C 5.09 g/m*3 5.4 C 0 km/h
433 24-02-2019 12:00:00 5.6 C 5.16 g/m*3 5.6 C 0 km/h
434 24-02-2019 12:05:00 5.7 C 5.12 g/m*3 5.7 C 0 km/h
435 24-02-2019 12:10:00 5.9 C 5.19 g/m*3 5.9 C 0 km/h
436 24-02-2019 12:15:00 6.3 C 5.18 g/m*3 6.3 C 0 km/h
437 24-02-2019 12:20:00 6.6 C 5.21 g/m*3 6.6 C 0 km/h
438 24-02-2019 12:25:00 6.9 C 5.23 g/m*3 6.9 C 0 km/h
439 24-02-2019 12:30:00 7.4 C 5.33 g/m*3 7.4 C 0 km/h
440 24-02-2019 12:35:00 8.1 C 5.49 g/m*3 8.1 C 0 km/h
441 24-02-2019 12:40:00 8.6 C 5.41 g/m*3 8.6 C 0 km/h
442 24-02-2019 12:45:00 8.8 C 5.05 g/m*3 8.8 C 0 km/h
443 24-02-2019 12:50:00 9.1 C 5.15 g/m*3 9.1 C 0 km/h
444 24-02-2019 12:55:00 9.2 C 5.09 g/m*3 9.2 C 0 km/h
445 24-02-2019 13:00:00 9.2 C 4.91 g/m*3 9.2 C 0 km/h
446 24-02-2019 13:05:00 9.3 C 4.4 g/m*3 8.56 C 6.4 km/h
447 24-02-2019 13:10:00 9.4 C 4.34 g/m*3 9.4 C 4.8 km/h
448 24-02-2019 13:15:00 9.7 C 4.24 g/m*3 8.06 C 11.3 km/h
449 24-02-2019 13:20:00 9.9 C 3.92 g/m*3 9.9 C 3.2 km/h
450 24-02-2019 13:25:00 10.3 C 4.31 g/m*3 10.3 C 4.8 km/h
Sensor: Nr:Datum:Temp:Abs-Feuchte:Windchill:Wind:
Aussen-T/F 451 24-02-2019 13:30:00 10.6 C 4.29 g/m*3 10.06 C 6.4 km/h
452 24-02-2019 13:35:00 10.9 C 4.38 g/m*3 10.9 C 3.2 km/h
453 24-02-2019 13:40:00 11.2 C 4.05 g/m*3 11.2 C 1.6 km/h
454 24-02-2019 13:45:00 11.4 C 4.11 g/m*3 11.4 C 3.2 km/h
455 24-02-2019 13:50:00 11.7 C 4.18 g/m*3 11.7 C 3.2 km/h
456 24-02-2019 13:55:00 11.9 C 3.92 g/m*3 11.9 C 4.8 km/h
457 24-02-2019 14:00:00 11.9 C 3.71 g/m*3 11.9 C 9.7 km/h
458 24-02-2019 14:05:00 11.9 C 3.81 g/m*3 11.9 C 8.1 km/h
459 24-02-2019 14:10:00 11.9 C 3.81 g/m*3 11.9 C 8.1 km/h
460 24-02-2019 14:15:00 11.9 C 3.81 g/m*3 11.9 C 6.4 km/h
461 24-02-2019 14:20:00 11.9 C 4.02 g/m*3 11.9 C 6.4 km/h
462 24-02-2019 14:25:00 11.8 C 3.89 g/m*3 11.8 C 8.1 km/h
463 24-02-2019 14:30:00 11.8 C 3.89 g/m*3 11.8 C 4.8 km/h
464 24-02-2019 14:35:00 11.8 C 4 g/m*3 11.8 C 4.8 km/h
465 24-02-2019 14:40:00 11.8 C 4.21 g/m*3 11.8 C 6.4 km/h
466 24-02-2019 14:45:00 11.9 C 3.81 g/m*3 11.9 C 6.4 km/h
467 24-02-2019 14:50:00 12 C 3.73 g/m*3 12 C 6.4 km/h
468 24-02-2019 14:55:00 12.1 C 3.65 g/m*3 12.1 C 4.8 km/h
469 24-02-2019 15:00:00 12.2 C 3.88 g/m*3 12.2 C 3.2 km/h
470 24-02-2019 15:05:00 12.3 C 3.8 g/m*3 12.3 C 6.4 km/h
471 24-02-2019 15:10:00 12.4 C 3.82 g/m*3 12.4 C 4.8 km/h
472 24-02-2019 15:15:00 12.4 C 3.82 g/m*3 12.4 C 4.8 km/h
473 24-02-2019 15:20:00 12.5 C 3.74 g/m*3 12.5 C 4.8 km/h
474 24-02-2019 15:25:00 12.6 C 3.98 g/m*3 12.6 C 3.2 km/h
475 24-02-2019 15:30:00 12.6 C 4.31 g/m*3 12.6 C 1.6 km/h
Sensor: Nr:Datum:Temp:Abs-Feuchte:Windchill:Wind:
Aussen-T/F 476 24-02-2019 15:35:00 12.6 C 4.87 g/m*3 12.6 C 1.6 km/h
477 24-02-2019 15:40:00 12.4 C 4.59 g/m*3 12.4 C 1.6 km/h
478 24-02-2019 15:45:00 12.4 C 4.81 g/m*3 12.4 C 1.6 km/h
479 24-02-2019 15:50:00 12.3 C 4.78 g/m*3 12.3 C 0 km/h
480 24-02-2019 15:55:00 12.3 C 4.78 g/m*3 12.3 C 0 km/h
481 24-02-2019 16:00:00 12.3 C 4.89 g/m*3 12.3 C 1.6 km/h
482 24-02-2019 16:05:00 12.2 C 4.96 g/m*3 12.2 C 3.2 km/h
483 24-02-2019 16:10:00 12.3 C 4.45 g/m*3 12.3 C 4.8 km/h
484 24-02-2019 16:15:00 12.4 C 4.81 g/m*3 12.4 C 4.8 km/h
485 24-02-2019 16:20:00 12.3 C 4.89 g/m*3 12.3 C 1.6 km/h
486 24-02-2019 16:25:00 12.2 C 4.75 g/m*3 12.2 C 0 km/h
487 24-02-2019 16:30:00 11.9 C 4.87 g/m*3 11.9 C 3.2 km/h
488 24-02-2019 16:35:00 11.6 C 4.89 g/m*3 11.6 C 3.2 km/h
489 24-02-2019 16:40:00 11.3 C 4.9 g/m*3 11.3 C 3.2 km/h
490 24-02-2019 16:45:00 11.2 C 5.07 g/m*3 11.2 C 3.2 km/h
491 24-02-2019 16:50:00 11.1 C 5.14 g/m*3 11.1 C 4.8 km/h
492 24-02-2019 16:55:00 10.9 C 5.07 g/m*3 10.9 C 4.8 km/h
493 24-02-2019 17:00:00 10.8 C 5.14 g/m*3 10.8 C 4.8 km/h
494 24-02-2019 17:05:00 10.7 C 5.11 g/m*3 10.7 C 0 km/h
495 24-02-2019 17:10:00 10.7 C 5.11 g/m*3 10.7 C 0 km/h
496 24-02-2019 17:15:00 10.5 C 5.04 g/m*3 10.5 C 0 km/h
497 24-02-2019 17:20:00 10.4 C 5.01 g/m*3 10.4 C 0 km/h
498 24-02-2019 17:25:00 10.3 C 4.98 g/m*3 10.3 C 0 km/h
499 24-02-2019 17:30:00 10.3 C 4.98 g/m*3 10.3 C 0 km/h
500 24-02-2019 17:35:00 10.3 C 4.98 g/m*3 10.3 C 0 km/h
Sensor: Nr:Datum:Temp:Abs-Feuchte:Windchill:Wind:
Aussen-T/F 501 24-02-2019 17:40:00 10.2 C 5.04 g/m*3 10.2 C 0 km/h
502 24-02-2019 17:45:00 10 C 4.98 g/m*3 10 C 0 km/h
503 24-02-2019 17:50:00 9.8 C 4.92 g/m*3 9.8 C 0 km/h
504 24-02-2019 17:55:00 9.6 C 4.95 g/m*3 9.6 C 0 km/h
505 24-02-2019 18:00:00 9.3 C 4.94 g/m*3 8.56 C 6.4 km/h
506 24-02-2019 18:05:00 9.1 C 4.97 g/m*3 8.33 C 6.4 km/h
507 24-02-2019 18:10:00 8.8 C 4.87 g/m*3 8.8 C 4.8 km/h
508 24-02-2019 18:15:00 8.7 C 4.84 g/m*3 7.87 C 6.4 km/h
509 24-02-2019 18:20:00 8.6 C 4.81 g/m*3 7.75 C 6.4 km/h
510 24-02-2019 18:25:00 8.4 C 4.75 g/m*3 8.4 C 0 km/h
511 24-02-2019 18:30:00 8.4 C 4.84 g/m*3 8.4 C 0 km/h
512 24-02-2019 18:35:00 8.3 C 4.72 g/m*3 8.3 C 0 km/h
513 24-02-2019 18:40:00 8.2 C 4.77 g/m*3 7.29 C 6.4 km/h
514 24-02-2019 18:45:00 8 C 4.8 g/m*3 8 C 4.8 km/h
515 24-02-2019 18:50:00 7.8 C 4.82 g/m*3 7.8 C 4.8 km/h
516 24-02-2019 18:55:00 7.7 C 4.7 g/m*3 7.7 C 1.6 km/h
517 24-02-2019 19:00:00 7.6 C 4.75 g/m*3 7.6 C 0 km/h
518 24-02-2019 19:05:00 7.4 C 4.69 g/m*3 7.4 C 4.8 km/h
519 24-02-2019 19:10:00 7.2 C 4.71 g/m*3 6.13 C 6.4 km/h
520 24-02-2019 19:15:00 7.2 C 4.71 g/m*3 6.13 C 6.4 km/h
521 24-02-2019 19:20:00 7.1 C 4.6 g/m*3 6.02 C 6.4 km/h
522 24-02-2019 19:25:00 7 C 4.8 g/m*3 7 C 3.2 km/h
523 24-02-2019 19:30:00 6.8 C 4.67 g/m*3 6.8 C 4.8 km/h
524 24-02-2019 19:35:00 6.7 C 4.64 g/m*3 6.7 C 4.8 km/h
525 24-02-2019 19:40:00 6.6 C 4.68 g/m*3 6.6 C 4.8 km/h
Sensor: Nr:Datum:Temp:Abs-Feuchte:Windchill:Wind:
Aussen-T/F 526 24-02-2019 19:45:00 6.4 C 4.62 g/m*3 6.4 C 3.2 km/h
527 24-02-2019 19:50:00 6.3 C 4.74 g/m*3 6.3 C 0 km/h
528 24-02-2019 19:55:00 6.1 C 4.68 g/m*3 6.1 C 0 km/h
529 24-02-2019 20:00:00 5.9 C 4.47 g/m*3 5.9 C 0 km/h
530 24-02-2019 20:05:00 5.8 C 4.66 g/m*3 5.8 C 0 km/h
531 24-02-2019 20:10:00 5.7 C 4.55 g/m*3 5.7 C 3.2 km/h
532 24-02-2019 20:15:00 5.5 C 4.49 g/m*3 5.5 C 0 km/h
533 24-02-2019 20:20:00 5.2 C 4.48 g/m*3 5.2 C 0 km/h
534 24-02-2019 20:25:00 4.9 C 4.52 g/m*3 4.9 C 0 km/h
535 24-02-2019 20:30:00 4.6 C 4.57 g/m*3 4.6 C 0 km/h
536 24-02-2019 20:35:00 4.4 C 4.44 g/m*3 4.4 C 0 km/h
537 24-02-2019 20:40:00 4.3 C 4.35 g/m*3 4.3 C 0 km/h
538 24-02-2019 20:45:00 4.4 C 4.44 g/m*3 4.4 C 0 km/h
539 24-02-2019 20:50:00 4.3 C 4.41 g/m*3 4.3 C 0 km/h
540 24-02-2019 20:55:00 4.2 C 4.51 g/m*3 4.2 C 0 km/h
541 24-02-2019 21:00:00 4.1 C 4.54 g/m*3 4.1 C 0 km/h
542 24-02-2019 21:05:00 3.9 C 4.42 g/m*3 3.9 C 0 km/h
543 24-02-2019 21:10:00 3.8 C 4.45 g/m*3 3.8 C 0 km/h
544 24-02-2019 21:15:00 3.7 C 4.42 g/m*3 3.7 C 0 km/h
545 24-02-2019 21:20:00 3.7 C 4.42 g/m*3 3.7 C 0 km/h
546 24-02-2019 21:25:00 3.5 C 4.43 g/m*3 3.5 C 0 km/h
547 24-02-2019 21:30:00 3.3 C 4.31 g/m*3 3.3 C 0 km/h
548 24-02-2019 21:35:00 3.1 C 4.31 g/m*3 3.1 C 0 km/h
549 24-02-2019 21:40:00 2.9 C 4.31 g/m*3 2.9 C 0 km/h
550 24-02-2019 21:45:00 2.8 C 4.28 g/m*3 2.8 C 0 km/h
Sensor: Nr:Datum:Temp:Abs-Feuchte:Windchill:Wind:
Aussen-T/F 551 24-02-2019 21:50:00 2.8 C 4.22 g/m*3 2.8 C 0 km/h
552 24-02-2019 21:55:00 2.8 C 4.16 g/m*3 2.8 C 0 km/h
553 24-02-2019 22:00:00 2.8 C 4.16 g/m*3 2.8 C 0 km/h
554 24-02-2019 22:05:00 2.8 C 4.34 g/m*3 2.8 C 0 km/h
555 24-02-2019 22:10:00 2.6 C 4.4 g/m*3 2.6 C 0 km/h
556 24-02-2019 22:15:00 2.5 C 4.43 g/m*3 2.5 C 0 km/h
557 24-02-2019 22:20:00 2.4 C 4.34 g/m*3 2.4 C 0 km/h
558 24-02-2019 22:25:00 2.4 C 4.34 g/m*3 2.4 C 0 km/h
559 24-02-2019 22:30:00 2.4 C 4.23 g/m*3 2.4 C 0 km/h
560 24-02-2019 22:35:00 2.5 C 4.25 g/m*3 2.5 C 0 km/h
561 24-02-2019 22:40:00 2.6 C 4.28 g/m*3 2.6 C 0 km/h
562 24-02-2019 22:45:00 2.6 C 4.28 g/m*3 2.6 C 0 km/h
563 24-02-2019 22:50:00 2.5 C 4.25 g/m*3 2.5 C 0 km/h
564 24-02-2019 22:55:00 2.4 C 4.23 g/m*3 2.4 C 0 km/h
565 24-02-2019 23:00:00 2.2 C 4.22 g/m*3 2.2 C 0 km/h
566 24-02-2019 23:05:00 2.1 C 4.25 g/m*3 2.1 C 0 km/h
567 24-02-2019 23:10:00 1.9 C 4.25 g/m*3 1.9 C 0 km/h
568 24-02-2019 23:15:00 1.7 C 4.25 g/m*3 1.7 C 0 km/h
569 24-02-2019 23:20:00 1.6 C 4.27 g/m*3 1.6 C 0 km/h
570 24-02-2019 23:25:00 1.5 C 4.24 g/m*3 1.5 C 0 km/h
571 24-02-2019 23:30:00 1.6 C 4.22 g/m*3 1.6 C 0 km/h
572 24-02-2019 23:35:00 1.7 C 4.19 g/m*3 1.7 C 0 km/h
573 24-02-2019 23:40:00 1.8 C 4.22 g/m*3 1.8 C 0 km/h
574 24-02-2019 23:45:00 1.8 C 4.22 g/m*3 1.8 C 0 km/h
575 24-02-2019 23:50:00 1.9 C 4.25 g/m*3 1.9 C 0 km/h
Sensor: Nr:Datum:Temp:Abs-Feuchte:Windchill:Wind:
Aussen-T/F 576 24-02-2019 23:55:00 2 C 4.22 g/m*3 2 C 0 km/h
577 25-02-2019 00:00:00 1.8 C 4.17 g/m*3 1.8 C 0 km/h
578 25-02-2019 00:05:00 1.8 C 4.22 g/m*3 1.8 C 0 km/h
579 25-02-2019 00:10:00 1.7 C 4.19 g/m*3 1.7 C 0 km/h
580 25-02-2019 00:15:00 1.4 C 4.11 g/m*3 1.4 C 0 km/h
581 25-02-2019 00:20:00 1.3 C 4.13 g/m*3 1.3 C 0 km/h
582 25-02-2019 00:25:00 1.2 C 4.16 g/m*3 1.2 C 0 km/h
583 25-02-2019 00:30:00 1.1 C 4.18 g/m*3 1.1 C 0 km/h
584 25-02-2019 00:35:00 0.9 C 4.12 g/m*3 0.9 C 0 km/h
585 25-02-2019 00:40:00 0.8 C 4.1 g/m*3 0.8 C 0 km/h
586 25-02-2019 00:45:00 0.7 C 4.12 g/m*3 0.7 C 0 km/h
587 25-02-2019 00:50:00 0.7 C 4.12 g/m*3 0.7 C 0 km/h
588 25-02-2019 00:55:00 0.7 C 4.12 g/m*3 0.7 C 0 km/h
589 25-02-2019 01:00:00 1 C 4.2 g/m*3 1 C 0 km/h
590 25-02-2019 01:05:00 1.2 C 4.21 g/m*3 1.2 C 0 km/h
591 25-02-2019 01:10:00 1.3 C 4.24 g/m*3 1.3 C 0 km/h
592 25-02-2019 01:15:00 1.1 C 4.18 g/m*3 1.1 C 0 km/h
593 25-02-2019 01:20:00 0.9 C 4.18 g/m*3 0.9 C 0 km/h
594 25-02-2019 01:25:00 0.9 C 4.18 g/m*3 0.9 C 0 km/h
595 25-02-2019 01:30:00 0.9 C 4.18 g/m*3 0.9 C 0 km/h
596 25-02-2019 01:35:00 1 C 4.2 g/m*3 1 C 0 km/h
597 25-02-2019 01:40:00 0.9 C 4.18 g/m*3 0.9 C 0 km/h
598 25-02-2019 01:45:00 0.7 C 4.12 g/m*3 0.7 C 0 km/h
599 25-02-2019 01:50:00 0.6 C 4.14 g/m*3 0.6 C 0 km/h
600 25-02-2019 01:55:00 0.6 C 4.19 g/m*3 0.6 C 0 km/h
Sensor: Nr:Datum:Temp:Abs-Feuchte:Windchill:Wind:
Aussen-T/F 601 25-02-2019 02:00:00 0.7 C 4.22 g/m*3 0.7 C 0 km/h
602 25-02-2019 02:05:00 0.6 C 4.14 g/m*3 0.6 C 0 km/h
603 25-02-2019 02:10:00 0.4 C 4.08 g/m*3 0.4 C 0 km/h
604 25-02-2019 02:15:00 0.3 C 4.11 g/m*3 0.3 C 0 km/h
605 25-02-2019 02:20:00 0.2 C 4.08 g/m*3 0.2 C 0 km/h
606 25-02-2019 02:25:00 0 C 4.02 g/m*3 0 C 0 km/h
607 25-02-2019 02:30:00 -0.1 C 4.04 g/m*3 -0.1 C 0 km/h
608 25-02-2019 02:35:00 -0.1 C 4.04 g/m*3 -0.1 C 0 km/h
609 25-02-2019 02:40:00 -0.2 C 4.06 g/m*3 -0.2 C 0 km/h
610 25-02-2019 02:45:00 -0.2 C 4.06 g/m*3 -0.2 C 0 km/h
611 25-02-2019 02:50:00 -0.1 C 4.09 g/m*3 -0.1 C 0 km/h
612 25-02-2019 02:55:00 0.1 C 4.15 g/m*3 0.1 C 0 km/h
613 25-02-2019 03:00:00 0.2 C 4.13 g/m*3 0.2 C 0 km/h
614 25-02-2019 03:05:00 0.3 C 4.16 g/m*3 0.3 C 0 km/h
615 25-02-2019 03:10:00 0.3 C 4.16 g/m*3 0.3 C 0 km/h
616 25-02-2019 03:15:00 0.3 C 4.11 g/m*3 0.3 C 0 km/h
617 25-02-2019 03:20:00 0.2 C 4.08 g/m*3 0.2 C 0 km/h
618 25-02-2019 03:25:00 0.1 C 4.05 g/m*3 0.1 C 0 km/h
619 25-02-2019 03:30:00 -0.1 C 3.99 g/m*3 -0.1 C 0 km/h
620 25-02-2019 03:35:00 -0.2 C 4.01 g/m*3 -0.2 C 0 km/h
621 25-02-2019 03:40:00 -0.2 C 4.06 g/m*3 -0.2 C 0 km/h
622 25-02-2019 03:45:00 -0.3 C 4.03 g/m*3 -0.3 C 0 km/h
623 25-02-2019 03:50:00 -0.3 C 4.03 g/m*3 -0.3 C 0 km/h
624 25-02-2019 03:55:00 -0.4 C 4.01 g/m*3 -0.4 C 0 km/h
625 25-02-2019 04:00:00 -0.5 C 3.98 g/m*3 -0.5 C 0 km/h
Sensor: Nr:Datum:Temp:Abs-Feuchte:Windchill:Wind:
Aussen-T/F 626 25-02-2019 04:05:00 -0.5 C 4.03 g/m*3 -0.5 C 0 km/h
627 25-02-2019 04:10:00 -0.5 C 4.03 g/m*3 -0.5 C 0 km/h
628 25-02-2019 04:15:00 -0.5 C 4.03 g/m*3 -0.5 C 0 km/h
629 25-02-2019 04:20:00 -0.6 C 4 g/m*3 -0.6 C 0 km/h
630 25-02-2019 04:25:00 -0.6 C 4 g/m*3 -0.6 C 0 km/h
631 25-02-2019 04:30:00 -0.6 C 4 g/m*3 -0.6 C 0 km/h
632 25-02-2019 04:35:00 -0.6 C 4 g/m*3 -0.6 C 0 km/h
633 25-02-2019 04:40:00 -0.6 C 4 g/m*3 -0.6 C 0 km/h
634 25-02-2019 04:45:00 -0.7 C 3.97 g/m*3 -0.7 C 0 km/h
635 25-02-2019 04:50:00 -0.7 C 4.02 g/m*3 -0.7 C 0 km/h
636 25-02-2019 04:55:00 -0.6 C 4.04 g/m*3 -0.6 C 0 km/h
637 25-02-2019 05:00:00 -0.6 C 4.04 g/m*3 -0.6 C 0 km/h
638 25-02-2019 05:05:00 -0.6 C 4.04 g/m*3 -0.6 C 0 km/h
639 25-02-2019 05:10:00 -0.6 C 4.04 g/m*3 -0.6 C 0 km/h
640 25-02-2019 05:15:00 -0.6 C 4.04 g/m*3 -0.6 C 0 km/h
641 25-02-2019 05:20:00 -0.7 C 4.02 g/m*3 -0.7 C 0 km/h
642 25-02-2019 05:25:00 -0.8 C 3.99 g/m*3 -0.8 C 0 km/h
643 25-02-2019 05:30:00 -0.8 C 3.99 g/m*3 -0.8 C 0 km/h
644 25-02-2019 05:35:00 -0.8 C 3.99 g/m*3 -0.8 C 0 km/h
645 25-02-2019 05:40:00 -0.9 C 3.96 g/m*3 -0.9 C 0 km/h
646 25-02-2019 05:45:00 -0.8 C 4.03 g/m*3 -0.8 C 3.2 km/h
647 25-02-2019 05:50:00 -0.7 C 4.06 g/m*3 -0.7 C 3.2 km/h
648 25-02-2019 05:55:00 -0.6 C 4.09 g/m*3 -0.6 C 1.6 km/h
649 25-02-2019 06:00:00 -0.6 C 4.09 g/m*3 -0.6 C 0 km/h
650 25-02-2019 06:05:00 -0.6 C 4.04 g/m*3 -0.6 C 0 km/h
Sensor: Nr:Datum:Temp:Abs-Feuchte:Windchill:Wind:
Aussen-T/F 651 25-02-2019 06:10:00 -0.7 C 4.02 g/m*3 -0.7 C 0 km/h
652 25-02-2019 06:15:00 -0.8 C 3.99 g/m*3 -0.8 C 0 km/h
653 25-02-2019 06:20:00 -0.8 C 4.03 g/m*3 -0.8 C 0 km/h
654 25-02-2019 06:25:00 -0.8 C 4.03 g/m*3 -0.8 C 0 km/h
655 25-02-2019 06:30:00 -0.9 C 4.01 g/m*3 -0.9 C 0 km/h
656 25-02-2019 06:35:00 -1 C 3.98 g/m*3 -1 C 0 km/h
657 25-02-2019 06:40:00 -1.1 C 3.95 g/m*3 -1.1 C 0 km/h
658 25-02-2019 06:45:00 -1.1 C 3.95 g/m*3 -1.1 C 0 km/h
659 25-02-2019 06:50:00 -1.1 C 4 g/m*3 -1.1 C 1.6 km/h
660 25-02-2019 06:55:00 -0.9 C 4.05 g/m*3 -0.9 C 0 km/h
661 25-02-2019 07:00:00 -0.9 C 4.01 g/m*3 -0.9 C 0 km/h
662 25-02-2019 07:05:00 -1 C 3.98 g/m*3 -1 C 0 km/h
663 25-02-2019 07:10:00 -1.1 C 3.95 g/m*3 -1.1 C 0 km/h
664 25-02-2019 07:15:00 -1.1 C 3.95 g/m*3 -1.1 C 0 km/h
665 25-02-2019 07:20:00 -1.2 C 3.92 g/m*3 -1.2 C 0 km/h
666 25-02-2019 07:25:00 -1.2 C 3.92 g/m*3 -1.2 C 0 km/h
667 25-02-2019 07:30:00 -1.3 C 3.9 g/m*3 -1.3 C 0 km/h
668 25-02-2019 07:35:00 -1.3 C 3.9 g/m*3 -1.3 C 0 km/h
669 25-02-2019 07:40:00 -1.3 C 3.9 g/m*3 -1.3 C 0 km/h
670 25-02-2019 07:45:00 -1.4 C 3.87 g/m*3 -1.4 C 0 km/h
671 25-02-2019 07:50:00 -1.4 C 3.91 g/m*3 -1.4 C 0 km/h
672 25-02-2019 07:55:00 -1.4 C 3.91 g/m*3 -1.4 C 0 km/h
673 25-02-2019 08:00:00 -1.4 C 3.91 g/m*3 -1.4 C 0 km/h
674 25-02-2019 08:05:00 -1.3 C 3.98 g/m*3 -1.3 C 0 km/h
675 25-02-2019 08:10:00 -1.2 C 4.01 g/m*3 -1.2 C 0 km/h
Sensor: Nr:Datum:Temp:Abs-Feuchte:Windchill:Wind:
Aussen-T/F 676 25-02-2019 08:15:00 -1.2 C 4.01 g/m*3 -1.2 C 0 km/h
677 25-02-2019 08:20:00 -1.2 C 3.97 g/m*3 -1.2 C 0 km/h
678 25-02-2019 08:25:00 -1.3 C 3.94 g/m*3 -1.3 C 0 km/h
679 25-02-2019 08:30:00 -1.2 C 4.01 g/m*3 -1.2 C 0 km/h
680 25-02-2019 08:35:00 -1.2 C 4.01 g/m*3 -1.2 C 0 km/h
681 25-02-2019 08:40:00 -1.1 C 4.04 g/m*3 -1.1 C 0 km/h
682 25-02-2019 08:45:00 -1.1 C 4.04 g/m*3 -1.1 C 0 km/h
683 25-02-2019 08:50:00 -1.1 C 4.04 g/m*3 -1.1 C 0 km/h
684 25-02-2019 08:55:00 -1.1 C 4.04 g/m*3 -1.1 C 0 km/h
685 25-02-2019 09:00:00 -0.9 C 4.1 g/m*3 -0.9 C 0 km/h
686 25-02-2019 09:05:00 -0.9 C 4.05 g/m*3 -0.9 C 0 km/h
687 25-02-2019 09:10:00 -0.9 C 4.05 g/m*3 -0.9 C 0 km/h
688 25-02-2019 09:15:00 -0.9 C 4.05 g/m*3 -0.9 C 0 km/h
689 25-02-2019 09:20:00 -0.8 C 4.08 g/m*3 -0.8 C 0 km/h
690 25-02-2019 09:25:00 -0.8 C 4.08 g/m*3 -0.8 C 0 km/h
691 25-02-2019 09:30:00 -0.7 C 4.11 g/m*3 -0.7 C 0 km/h
692 25-02-2019 09:35:00 -0.6 C 4.14 g/m*3 -0.6 C 0 km/h
693 25-02-2019 09:40:00 -0.6 C 4.14 g/m*3 -0.6 C 0 km/h
694 25-02-2019 09:45:00 -0.5 C 4.12 g/m*3 -0.5 C 0 km/h
695 25-02-2019 09:50:00 -0.4 C 4.15 g/m*3 -0.4 C 0 km/h
696 25-02-2019 09:55:00 -0.3 C 4.18 g/m*3 -0.3 C 0 km/h
697 25-02-2019 10:00:00 -0.3 C 4.18 g/m*3 -0.3 C 0 km/h
698 25-02-2019 10:05:00 -0.2 C 4.21 g/m*3 -0.2 C 0 km/h
699 25-02-2019 10:10:00 0 C 4.26 g/m*3 0 C 0 km/h
700 25-02-2019 10:15:00 0.1 C 4.24 g/m*3 0.1 C 0 km/h
Sensor: Nr:Datum:Temp:Abs-Feuchte:Windchill:Wind:
Aussen-T/F 701 25-02-2019 10:20:00 0.3 C 4.3 g/m*3 0.3 C 0 km/h
702 25-02-2019 10:25:00 0.5 C 4.36 g/m*3 0.5 C 0 km/h
703 25-02-2019 10:30:00 0.7 C 4.47 g/m*3 0.7 C 0 km/h
704 25-02-2019 10:35:00 1 C 4.52 g/m*3 1 C 0 km/h
705 25-02-2019 10:40:00 1.3 C 4.61 g/m*3 1.3 C 0 km/h
706 25-02-2019 10:45:00 1.7 C 4.74 g/m*3 1.7 C 0 km/h
707 25-02-2019 10:50:00 2.1 C 4.81 g/m*3 2.1 C 0 km/h
708 25-02-2019 10:55:00 2.6 C 4.92 g/m*3 2.6 C 0 km/h
709 25-02-2019 11:00:00 2.9 C 4.84 g/m*3 2.9 C 0 km/h
710 25-02-2019 11:05:00 3.3 C 4.91 g/m*3 3.3 C 1.6 km/h
711 25-02-2019 11:10:00 3.7 C 5.11 g/m*3 3.7 C 0 km/h
712 25-02-2019 11:15:00 3.9 C 4.99 g/m*3 3.9 C 0 km/h
713 25-02-2019 11:20:00 4.3 C 5.06 g/m*3 4.3 C 0 km/h
714 25-02-2019 11:25:00 4.6 C 5.1 g/m*3 4.6 C 1.6 km/h
715 25-02-2019 11:30:00 4.9 C 5.27 g/m*3 4.9 C 0 km/h
716 25-02-2019 11:35:00 5.1 C 5.27 g/m*3 5.1 C 3.2 km/h
717 25-02-2019 11:40:00 5.4 C 5.37 g/m*3 5.4 C 1.6 km/h
718 25-02-2019 11:45:00 5.8 C 5.44 g/m*3 5.8 C 3.2 km/h
719 25-02-2019 11:50:00 6 C 5.37 g/m*3 6 C 1.6 km/h
720 25-02-2019 11:55:00 6.2 C 5.29 g/m*3 6.2 C 0 km/h
721 25-02-2019 12:00:00 6.5 C 5.4 g/m*3 6.5 C 0 km/h
722 25-02-2019 12:05:00 6.8 C 5.51 g/m*3 6.8 C 1.6 km/h
723 25-02-2019 12:10:00 7.3 C 5.61 g/m*3 7.3 C 3.2 km/h
724 25-02-2019 12:15:00 7.7 C 5.68 g/m*3 7.7 C 3.2 km/h
725 25-02-2019 12:20:00 8.1 C 5.74 g/m*3 8.1 C 3.2 km/h
Sensor: Nr:Datum:Temp:Abs-Feuchte:Windchill:Wind:
Aussen-T/F 726 25-02-2019 12:25:00 8.4 C 5.85 g/m*3 8.4 C 1.6 km/h
727 25-02-2019 12:30:00 8.9 C 5.96 g/m*3 8.9 C 0 km/h
728 25-02-2019 12:35:00 9.5 C 6.01 g/m*3 9.5 C 0 km/h
729 25-02-2019 12:40:00 9.9 C 5.98 g/m*3 9.9 C 0 km/h
730 25-02-2019 12:45:00 10.3 C 5.94 g/m*3 10.3 C 0 km/h
731 25-02-2019 12:50:00 10.5 C 6.01 g/m*3 10.5 C 0 km/h
732 25-02-2019 12:55:00 10.6 C 5.95 g/m*3 10.6 C 0 km/h
733 25-02-2019 13:00:00 10.7 C 5.99 g/m*3 10.7 C 0 km/h
734 25-02-2019 13:05:00 11 C 6.21 g/m*3 11 C 0 km/h
735 25-02-2019 13:10:00 11.3 C 6.12 g/m*3 11.3 C 0 km/h
736 25-02-2019 13:15:00 11.6 C 5.51 g/m*3 11.6 C 0 km/h
737 25-02-2019 13:20:00 11.9 C 5.72 g/m*3 11.9 C 0 km/h
738 25-02-2019 13:25:00 12.3 C 5.1 g/m*3 12.3 C 0 km/h
739 25-02-2019 13:30:00 12.7 C 5.68 g/m*3 12.7 C 0 km/h
740 25-02-2019 13:35:00 13.1 C 5.71 g/m*3 13.1 C 0 km/h
741 25-02-2019 13:40:00 13.4 C 6.16 g/m*3 13.4 C 0 km/h
742 25-02-2019 13:45:00 13.8 C 6.08 g/m*3 13.8 C 0 km/h
743 25-02-2019 13:50:00 14.2 C 6.11 g/m*3 14.2 C 3.2 km/h
744 25-02-2019 13:55:00 14.6 C 6.01 g/m*3 14.6 C 0 km/h
745 25-02-2019 14:00:00 14.8 C 6.21 g/m*3 14.8 C 1.6 km/h
746 25-02-2019 14:05:00 14.9 C 6.12 g/m*3 14.9 C 1.6 km/h
747 25-02-2019 14:10:00 15 C 6.28 g/m*3 15 C 0 km/h
748 25-02-2019 14:15:00 15.1 C 6.19 g/m*3 15.1 C 1.6 km/h
749 25-02-2019 14:20:00 15 C 5.77 g/m*3 15 C 1.6 km/h
750 25-02-2019 14:25:00 14.9 C 5.74 g/m*3 14.9 C 3.2 km/h
Sensor: Nr:Datum:Temp:Abs-Feuchte:Windchill:Wind:
Aussen-T/F 751 25-02-2019 14:30:00 14.7 C 5.79 g/m*3 14.7 C 1.6 km/h
752 25-02-2019 14:35:00 14.6 C 5.76 g/m*3 14.6 C 0 km/h
753 25-02-2019 14:40:00 14.4 C 5.44 g/m*3 14.4 C 6.4 km/h
754 25-02-2019 14:45:00 14.4 C 5.69 g/m*3 14.4 C 0 km/h
755 25-02-2019 14:50:00 14.5 C 5.72 g/m*3 14.5 C 3.2 km/h
756 25-02-2019 14:55:00 14.6 C 6.01 g/m*3 14.6 C 1.6 km/h
757 25-02-2019 15:00:00 14.5 C 5.97 g/m*3 14.5 C 3.2 km/h
758 25-02-2019 15:05:00 14.5 C 5.72 g/m*3 14.5 C 4.8 km/h
759 25-02-2019 15:10:00 14.5 C 5.85 g/m*3 14.5 C 3.2 km/h
760 25-02-2019 15:15:00 14.4 C 6.18 g/m*3 14.4 C 1.6 km/h
761 25-02-2019 15:20:00 14.4 C 5.81 g/m*3 14.4 C 3.2 km/h
762 25-02-2019 15:25:00 14.3 C 6.02 g/m*3 14.3 C 1.6 km/h
763 25-02-2019 15:30:00 14.2 C 6.11 g/m*3 14.2 C 3.2 km/h
764 25-02-2019 15:35:00 14 C 6.15 g/m*3 14 C 0 km/h
765 25-02-2019 15:40:00 13.9 C 6.23 g/m*3 13.9 C 0 km/h
766 25-02-2019 15:45:00 13.8 C 6.2 g/m*3 13.8 C 0 km/h
767 25-02-2019 15:50:00 13.8 C 6.2 g/m*3 13.8 C 0 km/h
768 25-02-2019 15:55:00 13.8 C 6.08 g/m*3 13.8 C 0 km/h
769 25-02-2019 16:00:00 13.9 C 6.11 g/m*3 13.9 C 0 km/h
770 25-02-2019 16:05:00 13.9 C 6.11 g/m*3 13.9 C 0 km/h
771 25-02-2019 16:10:00 14.1 C 6.19 g/m*3 14.1 C 1.6 km/h
772 25-02-2019 16:15:00 14.1 C 5.58 g/m*3 14.1 C 4.8 km/h
773 25-02-2019 16:20:00 14.3 C 6.27 g/m*3 14.3 C 6.4 km/h
774 25-02-2019 16:25:00 14.5 C 5.97 g/m*3 14.5 C 4.8 km/h
775 25-02-2019 16:30:00 14.7 C 6.3 g/m*3 14.7 C 0 km/h
Sensor: Nr:Datum:Temp:Abs-Feuchte:Windchill:Wind:
Aussen-T/F 776 25-02-2019 16:35:00 14.7 C 6.3 g/m*3 14.7 C 0 km/h
777 25-02-2019 16:40:00 14.6 C 6.01 g/m*3 14.6 C 0 km/h
778 25-02-2019 16:45:00 14.6 C 6.13 g/m*3 14.6 C 3.2 km/h
779 25-02-2019 16:50:00 14.6 C 6.26 g/m*3 14.6 C 0 km/h
780 25-02-2019 16:55:00 14.5 C 6.22 g/m*3 14.5 C 4.8 km/h
781 25-02-2019 17:00:00 14.4 C 6.3 g/m*3 14.4 C 4.8 km/h
782 25-02-2019 17:05:00 14.2 C 6.23 g/m*3 14.2 C 3.2 km/h
783 25-02-2019 17:10:00 14.1 C 6.31 g/m*3 14.1 C 3.2 km/h
784 25-02-2019 17:15:00 13.9 C 6.23 g/m*3 13.9 C 4.8 km/h
785 25-02-2019 17:20:00 13.7 C 6.28 g/m*3 13.7 C 6.4 km/h
786 25-02-2019 17:25:00 13.6 C 6.24 g/m*3 13.6 C 6.4 km/h
787 25-02-2019 17:30:00 13.6 C 6.36 g/m*3 13.6 C 6.4 km/h
788 25-02-2019 17:35:00 13.6 C 6.24 g/m*3 13.6 C 6.4 km/h
789 25-02-2019 17:40:00 13.4 C 6.16 g/m*3 13.4 C 6.4 km/h
790 25-02-2019 17:45:00 13.3 C 6.24 g/m*3 13.3 C 6.4 km/h
791 25-02-2019 17:50:00 13.1 C 6.16 g/m*3 13.1 C 6.4 km/h
792 25-02-2019 17:55:00 12.8 C 6.16 g/m*3 12.8 C 6.4 km/h
793 25-02-2019 18:00:00 12.6 C 6.2 g/m*3 12.6 C 4.8 km/h
794 25-02-2019 18:05:00 12.2 C 6.04 g/m*3 12.2 C 6.4 km/h
795 25-02-2019 18:10:00 11.8 C 6.1 g/m*3 11.8 C 6.4 km/h
796 25-02-2019 18:15:00 11.4 C 5.95 g/m*3 11.4 C 6.4 km/h
797 25-02-2019 18:20:00 11.2 C 5.98 g/m*3 11.2 C 6.4 km/h
798 25-02-2019 18:25:00 11 C 6.01 g/m*3 10.52 C 6.4 km/h
799 25-02-2019 18:30:00 10.8 C 5.93 g/m*3 10.29 C 6.4 km/h
800 25-02-2019 18:35:00 10.7 C 5.99 g/m*3 10.18 C 6.4 km/h
Sensor: Nr:Datum:Temp:Abs-Feuchte:Windchill:Wind:
Aussen-T/F 801 25-02-2019 18:40:00 10.6 C 6.05 g/m*3 10.06 C 6.4 km/h
802 25-02-2019 18:45:00 10.4 C 5.98 g/m*3 10.4 C 4.8 km/h
803 25-02-2019 18:50:00 10.3 C 6.03 g/m*3 10.3 C 3.2 km/h
804 25-02-2019 18:55:00 10.2 C 6 g/m*3 10.2 C 3.2 km/h
805 25-02-2019 19:00:00 10 C 5.92 g/m*3 10 C 3.2 km/h
806 25-02-2019 19:05:00 9.8 C 5.94 g/m*3 9.8 C 1.6 km/h
807 25-02-2019 19:10:00 9.6 C 5.95 g/m*3 9.6 C 0 km/h
808 25-02-2019 19:15:00 9.4 C 5.97 g/m*3 9.4 C 0 km/h
809 25-02-2019 19:20:00 9.2 C 5.98 g/m*3 9.2 C 0 km/h
810 25-02-2019 19:25:00 8.9 C 5.96 g/m*3 8.9 C 0 km/h
811 25-02-2019 19:30:00 8.8 C 5.92 g/m*3 8.8 C 0 km/h
812 25-02-2019 19:35:00 8.8 C 5.92 g/m*3 8.8 C 0 km/h
813 25-02-2019 19:40:00 8.8 C 5.92 g/m*3 8.8 C 0 km/h
814 25-02-2019 19:45:00 8.7 C 5.88 g/m*3 8.7 C 0 km/h
815 25-02-2019 19:50:00 8.6 C 5.84 g/m*3 8.6 C 0 km/h
816 25-02-2019 19:55:00 8.3 C 5.82 g/m*3 8.3 C 0 km/h
817 25-02-2019 20:00:00 8.1 C 5.82 g/m*3 8.1 C 0 km/h
818 25-02-2019 20:05:00 8 C 5.87 g/m*3 8 C 0 km/h
819 25-02-2019 20:10:00 7.8 C 5.79 g/m*3 7.8 C 0 km/h
820 25-02-2019 20:15:00 7.4 C 5.73 g/m*3 7.4 C 0 km/h
821 25-02-2019 20:20:00 7.1 C 5.62 g/m*3 7.1 C 0 km/h
822 25-02-2019 20:25:00 6.9 C 5.62 g/m*3 6.9 C 0 km/h
823 25-02-2019 20:30:00 6.8 C 5.66 g/m*3 6.8 C 0 km/h
824 25-02-2019 20:35:00 6.8 C 5.74 g/m*3 6.8 C 0 km/h
825 25-02-2019 20:40:00 6.6 C 5.59 g/m*3 6.6 C 0 km/h
Sensor: Nr:Datum:Temp:Abs-Feuchte:Windchill:Wind:
Aussen-T/F 826 25-02-2019 20:45:00 6.4 C 5.51 g/m*3 6.4 C 0 km/h
827 25-02-2019 20:50:00 6.3 C 5.48 g/m*3 6.3 C 0 km/h
828 25-02-2019 20:55:00 6.3 C 5.55 g/m*3 6.3 C 0 km/h
829 25-02-2019 21:00:00 6.3 C 5.55 g/m*3 6.3 C 0 km/h
830 25-02-2019 21:05:00 6.1 C 5.48 g/m*3 6.1 C 0 km/h
831 25-02-2019 21:10:00 5.9 C 5.41 g/m*3 5.9 C 0 km/h
832 25-02-2019 21:15:00 5.9 C 5.41 g/m*3 5.9 C 0 km/h
833 25-02-2019 21:20:00 5.8 C 5.37 g/m*3 5.8 C 0 km/h
834 25-02-2019 21:25:00 5.6 C 5.37 g/m*3 5.6 C 0 km/h
835 25-02-2019 21:30:00 5.4 C 5.37 g/m*3 5.4 C 0 km/h
836 25-02-2019 21:35:00 5.3 C 5.34 g/m*3 5.3 C 0 km/h
837 25-02-2019 21:40:00 5.2 C 5.37 g/m*3 5.2 C 0 km/h
838 25-02-2019 21:45:00 5.2 C 5.37 g/m*3 5.2 C 0 km/h
839 25-02-2019 21:50:00 5.1 C 5.4 g/m*3 5.1 C 0 km/h
840 25-02-2019 21:55:00 5.1 C 5.4 g/m*3 5.1 C 0 km/h
841 25-02-2019 22:00:00 5 C 5.37 g/m*3 5 C 0 km/h
842 25-02-2019 22:05:00 5 C 5.3 g/m*3 5 C 0 km/h
843 25-02-2019 22:10:00 4.9 C 5.27 g/m*3 4.9 C 0 km/h
844 25-02-2019 22:15:00 4.8 C 5.3 g/m*3 4.8 C 0 km/h
845 25-02-2019 22:20:00 4.8 C 5.3 g/m*3 4.8 C 0 km/h
846 25-02-2019 22:25:00 4.7 C 5.26 g/m*3 4.7 C 0 km/h
847 25-02-2019 22:30:00 4.5 C 5.19 g/m*3 4.5 C 0 km/h
848 25-02-2019 22:35:00 4.4 C 5.22 g/m*3 4.4 C 0 km/h
849 25-02-2019 22:40:00 4.2 C 5.15 g/m*3 4.2 C 0 km/h
850 25-02-2019 22:45:00 4.2 C 5.15 g/m*3 4.2 C 0 km/h
Sensor: Nr:Datum:Temp:Abs-Feuchte:Windchill:Wind:
Aussen-T/F 851 25-02-2019 22:50:00 4.1 C 5.12 g/m*3 4.1 C 0 km/h
852 25-02-2019 22:55:00 4 C 5.21 g/m*3 4 C 0 km/h
853 25-02-2019 23:00:00 3.9 C 5.18 g/m*3 3.9 C 0 km/h
854 25-02-2019 23:05:00 3.8 C 5.21 g/m*3 3.8 C 0 km/h
855 25-02-2019 23:10:00 3.8 C 5.21 g/m*3 3.8 C 0 km/h
856 25-02-2019 23:15:00 3.7 C 5.11 g/m*3 3.7 C 0 km/h
857 25-02-2019 23:20:00 3.4 C 5.01 g/m*3 3.4 C 0 km/h
858 25-02-2019 23:25:00 3.2 C 5 g/m*3 3.2 C 0 km/h
859 25-02-2019 23:30:00 3.1 C 5.03 g/m*3 3.1 C 0 km/h
860 25-02-2019 23:35:00 3 C 4.99 g/m*3 3 C 0 km/h
861 25-02-2019 23:40:00 2.8 C 4.93 g/m*3 2.8 C 0 km/h
862 25-02-2019 23:45:00 2.7 C 4.95 g/m*3 2.7 C 0 km/h
863 25-02-2019 23:50:00 2.8 C 5.04 g/m*3 2.8 C 0 km/h
864 25-02-2019 23:55:00 2.8 C 4.99 g/m*3 2.8 C 0 km/h
865 26-02-2019 00:00:00 2.7 C 4.95 g/m*3 2.7 C 0 km/h
866 26-02-2019 00:05:00 2.8 C 5.04 g/m*3 2.8 C 0 km/h
867 26-02-2019 00:10:00 2.7 C 4.95 g/m*3 2.7 C 0 km/h
868 26-02-2019 00:15:00 2.6 C 4.98 g/m*3 2.6 C 0 km/h
869 26-02-2019 00:20:00 2.6 C 4.98 g/m*3 2.6 C 0 km/h
870 26-02-2019 00:25:00 2.6 C 4.98 g/m*3 2.6 C 0 km/h
871 26-02-2019 00:30:00 2.6 C 5.03 g/m*3 2.6 C 0 km/h
872 26-02-2019 00:35:00 2.5 C 4.94 g/m*3 2.5 C 0 km/h
873 26-02-2019 00:40:00 2.3 C 4.82 g/m*3 2.3 C 0 km/h
874 26-02-2019 00:45:00 2 C 4.78 g/m*3 2 C 0 km/h
875 26-02-2019 00:50:00 1.9 C 4.8 g/m*3 1.9 C 0 km/h
Sensor: Nr:Datum:Temp:Abs-Feuchte:Windchill:Wind:
Aussen-T/F 876 26-02-2019 00:55:00 1.8 C 4.82 g/m*3 1.8 C 0 km/h
877 26-02-2019 01:00:00 1.8 C 4.88 g/m*3 1.8 C 0 km/h
878 26-02-2019 01:05:00 1.9 C 4.91 g/m*3 1.9 C 0 km/h
879 26-02-2019 01:10:00 1.9 C 4.91 g/m*3 1.9 C 0 km/h
880 26-02-2019 01:15:00 1.9 C 4.86 g/m*3 1.9 C 0 km/h
881 26-02-2019 01:20:00 1.8 C 4.88 g/m*3 1.8 C 0 km/h
882 26-02-2019 01:25:00 1.9 C 4.91 g/m*3 1.9 C 0 km/h
883 26-02-2019 01:30:00 1.9 C 4.91 g/m*3 1.9 C 0 km/h
884 26-02-2019 01:35:00 2.1 C 5.04 g/m*3 2.1 C 0 km/h
885 26-02-2019 01:40:00 2.2 C 5.01 g/m*3 2.2 C 0 km/h
886 26-02-2019 01:45:00 2.1 C 4.92 g/m*3 2.1 C 0 km/h
887 26-02-2019 01:50:00 1.9 C 4.86 g/m*3 1.9 C 0 km/h
888 26-02-2019 01:55:00 1.8 C 4.82 g/m*3 1.8 C 0 km/h
889 26-02-2019 02:00:00 1.6 C 4.81 g/m*3 1.6 C 0 km/h
890 26-02-2019 02:05:00 1.6 C 4.81 g/m*3 1.6 C 0 km/h
891 26-02-2019 02:10:00 1.7 C 4.9 g/m*3 1.7 C 0 km/h
892 26-02-2019 02:15:00 1.7 C 4.9 g/m*3 1.7 C 0 km/h
893 26-02-2019 02:20:00 1.6 C 4.81 g/m*3 1.6 C 0 km/h
894 26-02-2019 02:25:00 1.4 C 4.75 g/m*3 1.4 C 0 km/h
895 26-02-2019 02:30:00 1.3 C 4.72 g/m*3 1.3 C 0 km/h
896 26-02-2019 02:35:00 1.3 C 4.77 g/m*3 1.3 C 0 km/h
897 26-02-2019 02:40:00 1.2 C 4.74 g/m*3 1.2 C 0 km/h
898 26-02-2019 02:45:00 1.3 C 4.82 g/m*3 1.3 C 0 km/h
899 26-02-2019 02:50:00 1.1 C 4.7 g/m*3 1.1 C 0 km/h
900 26-02-2019 02:55:00 0.9 C 4.59 g/m*3 0.9 C 0 km/h
Sensor: Nr:Datum:Temp:Abs-Feuchte:Windchill:Wind:
Aussen-T/F 901 26-02-2019 03:00:00 0.7 C 4.58 g/m*3 0.7 C 0 km/h
902 26-02-2019 03:05:00 0.6 C 4.54 g/m*3 0.6 C 0 km/h
903 26-02-2019 03:10:00 0.5 C 4.51 g/m*3 0.5 C 0 km/h
904 26-02-2019 03:15:00 0.4 C 4.53 g/m*3 0.4 C 0 km/h
905 26-02-2019 03:20:00 0.5 C 4.56 g/m*3 0.5 C 0 km/h
906 26-02-2019 03:25:00 0.5 C 4.56 g/m*3 0.5 C 0 km/h
907 26-02-2019 03:30:00 0.6 C 4.65 g/m*3 0.6 C 0 km/h
908 26-02-2019 03:35:00 0.8 C 4.71 g/m*3 0.8 C 0 km/h
909 26-02-2019 03:40:00 0.8 C 4.71 g/m*3 0.8 C 0 km/h
910 26-02-2019 03:45:00 0.7 C 4.63 g/m*3 0.7 C 0 km/h
911 26-02-2019 03:50:00 0.7 C 4.68 g/m*3 0.7 C 0 km/h
912 26-02-2019 03:55:00 0.8 C 4.71 g/m*3 0.8 C 0 km/h
913 26-02-2019 04:00:00 0.7 C 4.68 g/m*3 0.7 C 0 km/h
914 26-02-2019 04:05:00 0.4 C 4.53 g/m*3 0.4 C 0 km/h
915 26-02-2019 04:10:00 0.3 C 4.55 g/m*3 0.3 C 0 km/h
916 26-02-2019 04:15:00 0.3 C 4.55 g/m*3 0.3 C 0 km/h
917 26-02-2019 04:20:00 0.4 C 4.58 g/m*3 0.4 C 0 km/h
918 26-02-2019 04:25:00 0.4 C 4.58 g/m*3 0.4 C 0 km/h
919 26-02-2019 04:30:00 0.4 C 4.58 g/m*3 0.4 C 0 km/h
920 26-02-2019 04:35:00 0.3 C 4.55 g/m*3 0.3 C 0 km/h
921 26-02-2019 04:40:00 0.2 C 4.52 g/m*3 0.2 C 0 km/h
922 26-02-2019 04:45:00 0.1 C 4.49 g/m*3 0.1 C 0 km/h
923 26-02-2019 04:50:00 0.2 C 4.57 g/m*3 0.2 C 0 km/h
924 26-02-2019 04:55:00 0.2 C 4.57 g/m*3 0.2 C 0 km/h
925 26-02-2019 05:00:00 0.2 C 4.57 g/m*3 0.2 C 0 km/h
Sensor: Nr:Datum:Temp:Abs-Feuchte:Windchill:Wind:
Aussen-T/F 926 26-02-2019 05:05:00 0.1 C 4.54 g/m*3 0.1 C 0 km/h
927 26-02-2019 05:10:00 0.1 C 4.54 g/m*3 0.1 C 0 km/h
928 26-02-2019 05:15:00 0.1 C 4.54 g/m*3 0.1 C 0 km/h
929 26-02-2019 05:20:00 0 C 4.51 g/m*3 0 C 0 km/h
930 26-02-2019 05:25:00 0.1 C 4.54 g/m*3 0.1 C 4.8 km/h
931 26-02-2019 05:30:00 0.2 C 4.57 g/m*3 0.2 C 0 km/h
932 26-02-2019 05:35:00 0.3 C 4.6 g/m*3 0.3 C 0 km/h
933 26-02-2019 05:40:00 0.4 C 4.68 g/m*3 0.4 C 1.6 km/h
934 26-02-2019 05:45:00 0.4 C 4.63 g/m*3 0.4 C 3.2 km/h
935 26-02-2019 05:50:00 0.4 C 4.63 g/m*3 0.4 C 0 km/h
936 26-02-2019 05:55:00 0.3 C 4.6 g/m*3 0.3 C 0 km/h
937 26-02-2019 06:00:00 0.2 C 4.52 g/m*3 0.2 C 0 km/h
938 26-02-2019 06:05:00 -0.1 C 4.43 g/m*3 -0.1 C 0 km/h
939 26-02-2019 06:10:00 -0.2 C 4.4 g/m*3 -0.2 C 0 km/h
940 26-02-2019 06:15:00 -0.3 C 4.37 g/m*3 -0.3 C 0 km/h
941 26-02-2019 06:20:00 -0.3 C 4.41 g/m*3 -0.3 C 0 km/h
942 26-02-2019 06:25:00 -0.4 C 4.38 g/m*3 -0.4 C 0 km/h
943 26-02-2019 06:30:00 -0.4 C 4.38 g/m*3 -0.4 C 0 km/h
944 26-02-2019 06:35:00 -0.4 C 4.38 g/m*3 -0.4 C 0 km/h
945 26-02-2019 06:40:00 -0.4 C 4.38 g/m*3 -0.4 C 0 km/h
946 26-02-2019 06:45:00 -0.6 C 4.32 g/m*3 -0.6 C 0 km/h
947 26-02-2019 06:50:00 -0.5 C 4.35 g/m*3 -0.5 C 1.6 km/h
948 26-02-2019 06:55:00 -0.4 C 4.43 g/m*3 -0.4 C 0 km/h
949 26-02-2019 07:00:00 -0.2 C 4.49 g/m*3 -0.2 C 0 km/h
950 26-02-2019 07:05:00 -0.2 C 4.49 g/m*3 -0.2 C 0 km/h
Sensor: Nr:Datum:Temp:Abs-Feuchte:Windchill:Wind:
Aussen-T/F 951 26-02-2019 07:10:00 -0.2 C 4.49 g/m*3 -0.2 C 0 km/h
952 26-02-2019 07:15:00 -0.3 C 4.41 g/m*3 -0.3 C 0 km/h
953 26-02-2019 07:20:00 -0.4 C 4.38 g/m*3 -0.4 C 0 km/h
954 26-02-2019 07:25:00 -0.6 C 4.32 g/m*3 -0.6 C 0 km/h
955 26-02-2019 07:30:00 -0.8 C 4.26 g/m*3 -0.8 C 0 km/h
956 26-02-2019 07:35:00 -0.8 C 4.26 g/m*3 -0.8 C 1.6 km/h
957 26-02-2019 07:40:00 -0.8 C 4.31 g/m*3 -0.8 C 0 km/h
958 26-02-2019 07:45:00 -0.6 C 4.37 g/m*3 -0.6 C 0 km/h
959 26-02-2019 07:50:00 -0.5 C 4.4 g/m*3 -0.5 C 0 km/h
960 26-02-2019 07:55:00 -0.4 C 4.43 g/m*3 -0.4 C 0 km/h
961 26-02-2019 08:00:00 -0.4 C 4.43 g/m*3 -0.4 C 0 km/h
962 26-02-2019 08:05:00 -0.3 C 4.46 g/m*3 -0.3 C 0 km/h
963 26-02-2019 08:10:00 -0.3 C 4.46 g/m*3 -0.3 C 0 km/h
964 26-02-2019 08:15:00 -0.3 C 4.46 g/m*3 -0.3 C 0 km/h
965 26-02-2019 08:20:00 -0.3 C 4.46 g/m*3 -0.3 C 0 km/h
966 26-02-2019 08:25:00 -0.3 C 4.46 g/m*3 -0.3 C 1.6 km/h
967 26-02-2019 08:30:00 -0.2 C 4.49 g/m*3 -0.2 C 0 km/h
968 26-02-2019 08:35:00 -0.1 C 4.57 g/m*3 -0.1 C 0 km/h
969 26-02-2019 08:40:00 0 C 4.6 g/m*3 0 C 0 km/h
970 26-02-2019 08:45:00 0.2 C 4.67 g/m*3 0.2 C 3.2 km/h
971 26-02-2019 08:50:00 0.3 C 4.7 g/m*3 0.3 C 1.6 km/h
972 26-02-2019 08:55:00 0.4 C 4.73 g/m*3 0.4 C 0 km/h
973 26-02-2019 09:00:00 0.4 C 4.68 g/m*3 0.4 C 0 km/h
974 26-02-2019 09:05:00 0.4 C 4.68 g/m*3 0.4 C 0 km/h
975 26-02-2019 09:10:00 0.5 C 4.71 g/m*3 0.5 C 0 km/h
Sensor: Nr:Datum:Temp:Abs-Feuchte:Windchill:Wind:
Aussen-T/F 976 26-02-2019 09:15:00 0.6 C 4.8 g/m*3 0.6 C 1.6 km/h
977 26-02-2019 09:20:00 0.7 C 4.83 g/m*3 0.7 C 0 km/h
978 26-02-2019 09:25:00 0.8 C 4.86 g/m*3 0.8 C 0 km/h
979 26-02-2019 09:30:00 0.9 C 4.9 g/m*3 0.9 C 0 km/h
980 26-02-2019 09:35:00 0.9 C 4.9 g/m*3 0.9 C 0 km/h
981 26-02-2019 09:40:00 0.9 C 4.9 g/m*3 0.9 C 0 km/h
982 26-02-2019 09:45:00 1.1 C 4.96 g/m*3 1.1 C 0 km/h
983 26-02-2019 09:50:00 1.2 C 5 g/m*3 1.2 C 0 km/h
984 26-02-2019 09:55:00 1.3 C 5.03 g/m*3 1.3 C 0 km/h
985 26-02-2019 10:00:00 1.6 C 5.14 g/m*3 1.6 C 1.6 km/h
986 26-02-2019 10:05:00 1.7 C 5.17 g/m*3 1.7 C 0 km/h
987 26-02-2019 10:10:00 1.8 C 5.21 g/m*3 1.8 C 0 km/h
988 26-02-2019 10:15:00 1.9 C 5.24 g/m*3 1.9 C 0 km/h
989 26-02-2019 10:20:00 2.1 C 5.31 g/m*3 2.1 C 0 km/h
990 26-02-2019 10:25:00 2.3 C 5.39 g/m*3 2.3 C 0 km/h
991 26-02-2019 10:30:00 2.5 C 5.46 g/m*3 2.5 C 0 km/h
992 26-02-2019 10:35:00 2.9 C 5.61 g/m*3 2.9 C 0 km/h
993 26-02-2019 10:40:00 3.2 C 5.66 g/m*3 3.2 C 0 km/h
994 26-02-2019 10:45:00 3.5 C 5.78 g/m*3 3.5 C 0 km/h
995 26-02-2019 10:50:00 3.8 C 5.83 g/m*3 3.8 C 0 km/h
996 26-02-2019 10:55:00 4 C 5.85 g/m*3 4 C 0 km/h
997 26-02-2019 11:00:00 4.3 C 5.9 g/m*3 4.3 C 0 km/h
998 26-02-2019 11:05:00 4.5 C 5.92 g/m*3 4.5 C 0 km/h
999 26-02-2019 11:10:00 4.8 C 6.04 g/m*3 4.8 C 0 km/h
1000 26-02-2019 11:15:00 5.1 C 6.16 g/m*3 5.1 C 0 km/h
Sensor: Nr:Datum:Temp:Abs-Feuchte:Windchill:Wind:
Aussen-T/F 1001 26-02-2019 11:20:00 5.4 C 6.28 g/m*3 5.4 C 0 km/h
1002 26-02-2019 11:25:00 5.7 C 6.33 g/m*3 5.7 C 0 km/h
1003 26-02-2019 11:30:00 5.9 C 6.27 g/m*3 5.9 C 0 km/h
1004 26-02-2019 11:35:00 6.2 C 6.25 g/m*3 6.2 C 0 km/h
1005 26-02-2019 11:40:00 6.4 C 6.26 g/m*3 6.4 C 0 km/h
1006 26-02-2019 11:45:00 6.7 C 6.23 g/m*3 6.7 C 0 km/h
1007 26-02-2019 11:50:00 6.9 C 6.24 g/m*3 6.9 C 0 km/h
1008 26-02-2019 11:55:00 7.1 C 6.32 g/m*3 7.1 C 0 km/h
1009 26-02-2019 12:00:00 7.3 C 6.4 g/m*3 7.3 C 0 km/h
1010 26-02-2019 12:05:00 7.5 C 6.4 g/m*3 7.5 C 0 km/h
1011 26-02-2019 12:10:00 7.8 C 6.2 g/m*3 7.8 C 0 km/h
1012 26-02-2019 12:15:00 8.3 C 6.32 g/m*3 8.3 C 0 km/h
1013 26-02-2019 12:20:00 8.8 C 6.35 g/m*3 8.8 C 0 km/h
1014 26-02-2019 12:25:00 9.3 C 6.56 g/m*3 9.3 C 0 km/h
1015 26-02-2019 12:30:00 9.8 C 6.59 g/m*3 9.8 C 0 km/h
1016 26-02-2019 12:35:00 10.3 C 6.61 g/m*3 10.3 C 0 km/h
1017 26-02-2019 12:40:00 10.8 C 6.82 g/m*3 10.8 C 0 km/h
1018 26-02-2019 12:45:00 11.2 C 6.59 g/m*3 11.2 C 0 km/h
1019 26-02-2019 12:50:00 11.4 C 6.98 g/m*3 11.4 C 0 km/h
1020 26-02-2019 12:55:00 11.6 C 7.17 g/m*3 11.6 C 0 km/h
1021 26-02-2019 13:00:00 11.7 C 7.11 g/m*3 11.7 C 0 km/h
1022 26-02-2019 13:05:00 11.9 C 7.2 g/m*3 11.9 C 0 km/h
1023 26-02-2019 13:10:00 12.3 C 7.6 g/m*3 12.3 C 0 km/h
1024 26-02-2019 13:15:00 12.7 C 7.68 g/m*3 12.7 C 0 km/h
1025 26-02-2019 13:20:00 13.2 C 7.69 g/m*3 13.2 C 0 km/h
Sensor: Nr:Datum:Temp:Abs-Feuchte:Windchill:Wind:
Aussen-T/F 1026 26-02-2019 13:25:00 13.7 C 7.82 g/m*3 13.7 C 0 km/h
1027 26-02-2019 13:30:00 14.1 C 8.01 g/m*3 14.1 C 0 km/h
1028 26-02-2019 13:35:00 14.5 C 8.08 g/m*3 14.5 C 0 km/h
1029 26-02-2019 13:40:00 14.9 C 8.16 g/m*3 14.9 C 0 km/h
1030 26-02-2019 13:45:00 15.4 C 8.01 g/m*3 15.4 C 0 km/h
1031 26-02-2019 13:50:00 15.8 C 8.08 g/m*3 15.8 C 0 km/h
1032 26-02-2019 13:55:00 16.1 C 8.09 g/m*3 16.1 C 0 km/h
1033 26-02-2019 14:00:00 16.4 C 8.1 g/m*3 16.4 C 0 km/h
1034 26-02-2019 14:05:00 16.6 C 7.77 g/m*3 16.6 C 0 km/h
1035 26-02-2019 14:10:00 16.7 C 7.82 g/m*3 16.7 C 0 km/h
1036 26-02-2019 14:15:00 16.8 C 7.72 g/m*3 16.8 C 0 km/h
1037 26-02-2019 14:20:00 16.7 C 7.67 g/m*3 16.7 C 0 km/h
1038 26-02-2019 14:25:00 16.4 C 7.54 g/m*3 16.4 C 0 km/h
1039 26-02-2019 14:30:00 16.2 C 7.45 g/m*3 16.2 C 0 km/h
1040 26-02-2019 14:35:00 15.9 C 7.31 g/m*3 15.9 C 0 km/h
1041 26-02-2019 14:40:00 15.7 C 7.49 g/m*3 15.7 C 0 km/h
1042 26-02-2019 14:45:00 15.6 C 7.45 g/m*3 15.6 C 0 km/h
1043 26-02-2019 14:50:00 15.5 C 7.53 g/m*3 15.5 C 0 km/h
1044 26-02-2019 14:55:00 15.4 C 7.49 g/m*3 15.4 C 0 km/h
1045 26-02-2019 15:00:00 15.3 C 7.18 g/m*3 15.3 C 0 km/h
1046 26-02-2019 15:05:00 15.4 C 7.49 g/m*3 15.4 C 0 km/h
1047 26-02-2019 15:10:00 15.5 C 7.4 g/m*3 15.5 C 0 km/h
1048 26-02-2019 15:15:00 15.5 C 7.4 g/m*3 15.5 C 0 km/h
1049 26-02-2019 15:20:00 15.5 C 7.27 g/m*3 15.5 C 0 km/h
1050 26-02-2019 15:25:00 15.5 C 7.27 g/m*3 15.5 C 0 km/h
Sensor: Nr:Datum:Temp:Abs-Feuchte:Windchill:Wind:
Aussen-T/F 1051 26-02-2019 15:30:00 15.4 C 7.23 g/m*3 15.4 C 0 km/h
1052 26-02-2019 15:35:00 15.4 C 7.09 g/m*3 15.4 C 0 km/h
1053 26-02-2019 15:40:00 15.6 C 7.31 g/m*3 15.6 C 0 km/h
1054 26-02-2019 15:45:00 15.6 C 7.31 g/m*3 15.6 C 0 km/h
1055 26-02-2019 15:50:00 15.6 C 7.31 g/m*3 15.6 C 0 km/h
1056 26-02-2019 15:55:00 15.6 C 7.31 g/m*3 15.6 C 0 km/h
1057 26-02-2019 16:00:00 15.6 C 7.18 g/m*3 15.6 C 0 km/h
1058 26-02-2019 16:05:00 15.7 C 7.23 g/m*3 15.7 C 0 km/h
1059 26-02-2019 16:10:00 15.7 C 7.23 g/m*3 15.7 C 0 km/h
1060 26-02-2019 16:15:00 15.7 C 7.23 g/m*3 15.7 C 3.2 km/h
1061 26-02-2019 16:20:00 15.7 C 7.36 g/m*3 15.7 C 4.8 km/h
1062 26-02-2019 16:25:00 15.6 C 7.18 g/m*3 15.6 C 4.8 km/h
1063 26-02-2019 16:30:00 15.5 C 7.27 g/m*3 15.5 C 3.2 km/h
1064 26-02-2019 16:35:00 15.4 C 7.36 g/m*3 15.4 C 4.8 km/h
1065 26-02-2019 16:40:00 15.2 C 7.4 g/m*3 15.2 C 4.8 km/h
1066 26-02-2019 16:45:00 15.1 C 7.35 g/m*3 15.1 C 4.8 km/h
1067 26-02-2019 16:50:00 15.1 C 7.48 g/m*3 15.1 C 4.8 km/h
1068 26-02-2019 16:55:00 15 C 7.44 g/m*3 15 C 4.8 km/h
1069 26-02-2019 17:00:00 14.9 C 7.39 g/m*3 14.9 C 4.8 km/h
1070 26-02-2019 17:05:00 14.9 C 7.39 g/m*3 14.9 C 4.8 km/h
1071 26-02-2019 17:10:00 14.9 C 7.39 g/m*3 14.9 C 6.4 km/h
1072 26-02-2019 17:15:00 14.8 C 7.47 g/m*3 14.8 C 6.4 km/h
1073 26-02-2019 17:20:00 14.8 C 7.47 g/m*3 14.8 C 6.4 km/h
1074 26-02-2019 17:25:00 14.9 C 7.52 g/m*3 14.9 C 6.4 km/h
1075 26-02-2019 17:30:00 14.9 C 7.39 g/m*3 14.9 C 6.4 km/h
Sensor: Nr:Datum:Temp:Abs-Feuchte:Windchill:Wind:
Aussen-T/F 1076 26-02-2019 17:35:00 14.8 C 7.35 g/m*3 14.8 C 6.4 km/h
1077 26-02-2019 17:40:00 14.8 C 7.35 g/m*3 14.8 C 6.4 km/h
1078 26-02-2019 17:45:00 14.7 C 7.43 g/m*3 14.7 C 6.4 km/h
1079 26-02-2019 17:50:00 14.5 C 7.34 g/m*3 14.5 C 6.4 km/h
1080 26-02-2019 17:55:00 14.2 C 7.2 g/m*3 14.2 C 6.4 km/h
1081 26-02-2019 18:00:00 13.9 C 7.19 g/m*3 13.9 C 6.4 km/h
1082 26-02-2019 18:05:00 13.6 C 7.18 g/m*3 13.6 C 6.4 km/h
1083 26-02-2019 18:10:00 13.3 C 7.05 g/m*3 13.3 C 6.4 km/h
1084 26-02-2019 18:15:00 13 C 7.03 g/m*3 13 C 6.4 km/h
1085 26-02-2019 18:20:00 12.8 C 7.06 g/m*3 12.8 C 6.4 km/h
1086 26-02-2019 18:25:00 12.6 C 7.08 g/m*3 12.6 C 4.8 km/h
1087 26-02-2019 18:30:00 12.3 C 6.95 g/m*3 12.3 C 4.8 km/h
1088 26-02-2019 18:35:00 12.2 C 6.91 g/m*3 12.2 C 4.8 km/h
1089 26-02-2019 18:40:00 12.1 C 6.97 g/m*3 12.1 C 3.2 km/h
1090 26-02-2019 18:45:00 11.9 C 6.99 g/m*3 11.9 C 3.2 km/h
1091 26-02-2019 18:50:00 11.7 C 6.9 g/m*3 11.7 C 3.2 km/h
1092 26-02-2019 18:55:00 11.4 C 6.88 g/m*3 11.4 C 3.2 km/h
1093 26-02-2019 19:00:00 11.3 C 6.94 g/m*3 11.3 C 3.2 km/h
1094 26-02-2019 19:05:00 11.1 C 6.85 g/m*3 11.1 C 0 km/h
1095 26-02-2019 19:10:00 10.8 C 6.82 g/m*3 10.8 C 1.6 km/h
1096 26-02-2019 19:15:00 10.7 C 6.88 g/m*3 10.7 C 1.6 km/h
1097 26-02-2019 19:20:00 10.6 C 6.93 g/m*3 10.6 C 0 km/h
1098 26-02-2019 19:25:00 10.4 C 6.84 g/m*3 10.4 C 0 km/h
1099 26-02-2019 19:30:00 10.4 C 6.94 g/m*3 10.4 C 0 km/h
1100 26-02-2019 19:35:00 10.3 C 6.9 g/m*3 10.3 C 0 km/h
Sensor: Nr:Datum:Temp:Abs-Feuchte:Windchill:Wind:
Aussen-T/F 1101 26-02-2019 19:40:00 10.1 C 6.81 g/m*3 10.1 C 0 km/h
1102 26-02-2019 19:45:00 9.7 C 6.73 g/m*3 9.7 C 0 km/h
1103 26-02-2019 19:50:00 9.4 C 6.78 g/m*3 9.4 C 0 km/h
1104 26-02-2019 19:55:00 9.3 C 6.74 g/m*3 9.3 C 0 km/h
1105 26-02-2019 20:00:00 9.2 C 6.61 g/m*3 9.2 C 0 km/h
1106 26-02-2019 20:05:00 8.8 C 6.44 g/m*3 8.8 C 0 km/h
1107 26-02-2019 20:10:00 8.6 C 6.44 g/m*3 8.6 C 0 km/h
1108 26-02-2019 20:15:00 8.5 C 6.49 g/m*3 8.5 C 0 km/h
1109 26-02-2019 20:20:00 8.4 C 6.53 g/m*3 8.4 C 0 km/h
1110 26-02-2019 20:25:00 8.1 C 6.41 g/m*3 8.1 C 0 km/h
1111 26-02-2019 20:30:00 7.9 C 6.32 g/m*3 7.9 C 0 km/h
1112 26-02-2019 20:35:00 7.9 C 6.32 g/m*3 7.9 C 0 km/h
1113 26-02-2019 20:40:00 7.9 C 6.32 g/m*3 7.9 C 0 km/h
1114 26-02-2019 20:45:00 7.8 C 6.28 g/m*3 7.8 C 0 km/h
1115 26-02-2019 20:50:00 7.7 C 6.24 g/m*3 7.7 C 0 km/h
1116 26-02-2019 20:55:00 7.4 C 6.2 g/m*3 7.4 C 0 km/h
1117 26-02-2019 21:00:00 7.3 C 6.24 g/m*3 7.3 C 0 km/h
1118 26-02-2019 21:05:00 7.2 C 6.2 g/m*3 7.2 C 0 km/h
1119 26-02-2019 21:10:00 7 C 6.12 g/m*3 7 C 0 km/h
1120 26-02-2019 21:15:00 6.9 C 6.16 g/m*3 6.9 C 0 km/h
1121 26-02-2019 21:20:00 6.7 C 6.15 g/m*3 6.7 C 0 km/h
1122 26-02-2019 21:25:00 6.8 C 6.35 g/m*3 6.8 C 0 km/h
1123 26-02-2019 21:30:00 6.8 C 6.27 g/m*3 6.8 C 0 km/h
1124 26-02-2019 21:35:00 6.8 C 6.19 g/m*3 6.8 C 0 km/h
1125 26-02-2019 21:40:00 6.7 C 6.15 g/m*3 6.7 C 0 km/h
Sensor: Nr:Datum:Temp:Abs-Feuchte:Windchill:Wind:
Aussen-T/F 1126 26-02-2019 21:45:00 6.6 C 6.19 g/m*3 6.6 C 0 km/h
1127 26-02-2019 21:50:00 6.4 C 6.11 g/m*3 6.4 C 0 km/h
1128 26-02-2019 21:55:00 6.4 C 6.11 g/m*3 6.4 C 0 km/h
1129 26-02-2019 22:00:00 6.3 C 6.07 g/m*3 6.3 C 0 km/h
1130 26-02-2019 22:05:00 6.2 C 6.1 g/m*3 6.2 C 0 km/h
1131 26-02-2019 22:10:00 6.2 C 6.1 g/m*3 6.2 C 0 km/h
1132 26-02-2019 22:15:00 6.2 C 6.03 g/m*3 6.2 C 0 km/h
1133 26-02-2019 22:20:00 5.9 C 5.91 g/m*3 5.9 C 0 km/h
1134 26-02-2019 22:25:00 5.7 C 5.91 g/m*3 5.7 C 0 km/h
1135 26-02-2019 22:30:00 5.6 C 5.94 g/m*3 5.6 C 0 km/h
1136 26-02-2019 22:35:00 5.4 C 5.86 g/m*3 5.4 C 0 km/h
1137 26-02-2019 22:40:00 5.2 C 5.78 g/m*3 5.2 C 0 km/h
1138 26-02-2019 22:45:00 4.9 C 5.74 g/m*3 4.9 C 0 km/h
1139 26-02-2019 22:50:00 4.9 C 5.81 g/m*3 4.9 C 0 km/h
1140 26-02-2019 22:55:00 4.9 C 5.87 g/m*3 4.9 C 0 km/h
1141 26-02-2019 23:00:00 4.8 C 5.7 g/m*3 4.8 C 0 km/h
1142 26-02-2019 23:05:00 4.7 C 5.73 g/m*3 4.7 C 0 km/h
1143 26-02-2019 23:10:00 4.7 C 5.8 g/m*3 4.7 C 0 km/h
1144 26-02-2019 23:15:00 4.8 C 5.9 g/m*3 4.8 C 0 km/h
1145 26-02-2019 23:20:00 4.8 C 5.83 g/m*3 4.8 C 0 km/h
1146 26-02-2019 23:25:00 4.8 C 5.83 g/m*3 4.8 C 0 km/h
1147 26-02-2019 23:30:00 4.6 C 5.69 g/m*3 4.6 C 0 km/h
1148 26-02-2019 23:35:00 4.4 C 5.62 g/m*3 4.4 C 0 km/h
1149 26-02-2019 23:40:00 4.3 C 5.64 g/m*3 4.3 C 0 km/h
1150 26-02-2019 23:45:00 4.3 C 5.71 g/m*3 4.3 C 0 km/h
Sensor: Nr:Datum:Temp:Abs-Feuchte:Windchill:Wind:
Aussen-T/F 1151 26-02-2019 23:50:00 4.3 C 5.77 g/m*3 4.3 C 0 km/h
1152 26-02-2019 23:55:00 4.3 C 5.71 g/m*3 4.3 C 0 km/h
1153 27-02-2019 00:00:00 4.1 C 5.63 g/m*3 4.1 C 0 km/h
1154 27-02-2019 00:05:00 4 C 5.59 g/m*3 4 C 0 km/h
1155 27-02-2019 00:10:00 3.8 C 5.58 g/m*3 3.8 C 0 km/h
1156 27-02-2019 00:15:00 3.6 C 5.45 g/m*3 3.6 C 0 km/h
1157 27-02-2019 00:20:00 3.6 C 5.51 g/m*3 3.6 C 0 km/h
1158 27-02-2019 00:25:00 3.6 C 5.57 g/m*3 3.6 C 0 km/h
1159 27-02-2019 00:30:00 3.6 C 5.57 g/m*3 3.6 C 0 km/h
1160 27-02-2019 00:35:00 3.5 C 5.53 g/m*3 3.5 C 0 km/h
1161 27-02-2019 00:40:00 3.3 C 5.4 g/m*3 3.3 C 0 km/h
1162 27-02-2019 00:45:00 3.1 C 5.33 g/m*3 3.1 C 0 km/h
1163 27-02-2019 00:50:00 3.2 C 5.48 g/m*3 3.2 C 0 km/h
1164 27-02-2019 00:55:00 3.3 C 5.52 g/m*3 3.3 C 0 km/h
1165 27-02-2019 01:00:00 3.2 C 5.42 g/m*3 3.2 C 0 km/h
1166 27-02-2019 01:05:00 3 C 5.35 g/m*3 3 C 0 km/h
1167 27-02-2019 01:10:00 2.9 C 5.32 g/m*3 2.9 C 0 km/h
1168 27-02-2019 01:15:00 2.8 C 5.34 g/m*3 2.8 C 0 km/h
1169 27-02-2019 01:20:00 2.8 C 5.34 g/m*3 2.8 C 0 km/h
1170 27-02-2019 01:25:00 2.9 C 5.43 g/m*3 2.9 C 0 km/h
1171 27-02-2019 01:30:00 3 C 5.47 g/m*3 3 C 0 km/h
1172 27-02-2019 01:35:00 2.9 C 5.37 g/m*3 2.9 C 0 km/h
1173 27-02-2019 01:40:00 2.8 C 5.34 g/m*3 2.8 C 0 km/h
1174 27-02-2019 01:45:00 2.7 C 5.36 g/m*3 2.7 C 0 km/h
1175 27-02-2019 01:50:00 2.7 C 5.36 g/m*3 2.7 C 0 km/h
Sensor: Nr:Datum:Temp:Abs-Feuchte:Windchill:Wind:
Aussen-T/F 1176 27-02-2019 01:55:00 2.5 C 5.23 g/m*3 2.5 C 0 km/h
1177 27-02-2019 02:00:00 2.3 C 5.16 g/m*3 2.3 C 0 km/h
1178 27-02-2019 02:05:00 2.3 C 5.16 g/m*3 2.3 C 0 km/h
1179 27-02-2019 02:10:00 2.2 C 5.18 g/m*3 2.2 C 0 km/h
1180 27-02-2019 02:15:00 2.2 C 5.18 g/m*3 2.2 C 0 km/h
1181 27-02-2019 02:20:00 2 C 5.11 g/m*3 2 C 0 km/h
1182 27-02-2019 02:25:00 2.1 C 5.2 g/m*3 2.1 C 0 km/h
1183 27-02-2019 02:30:00 2.3 C 5.27 g/m*3 2.3 C 0 km/h
1184 27-02-2019 02:35:00 2.6 C 5.44 g/m*3 2.6 C 0 km/h
1185 27-02-2019 02:40:00 2.6 C 5.44 g/m*3 2.6 C 0 km/h
1186 27-02-2019 02:45:00 2.4 C 5.25 g/m*3 2.4 C 0 km/h
1187 27-02-2019 02:50:00 2.1 C 5.15 g/m*3 2.1 C 0 km/h
1188 27-02-2019 02:55:00 1.9 C 5.08 g/m*3 1.9 C 0 km/h
1189 27-02-2019 03:00:00 1.9 C 5.13 g/m*3 1.9 C 0 km/h
1190 27-02-2019 03:05:00 1.9 C 5.13 g/m*3 1.9 C 0 km/h
1191 27-02-2019 03:10:00 1.9 C 5.13 g/m*3 1.9 C 0 km/h
1192 27-02-2019 03:15:00 1.7 C 5.01 g/m*3 1.7 C 0 km/h
1193 27-02-2019 03:20:00 1.6 C 5.03 g/m*3 1.6 C 0 km/h
1194 27-02-2019 03:25:00 1.5 C 4.99 g/m*3 1.5 C 0 km/h
1195 27-02-2019 03:30:00 1.3 C 4.93 g/m*3 1.3 C 0 km/h
1196 27-02-2019 03:35:00 1.2 C 4.89 g/m*3 1.2 C 0 km/h
1197 27-02-2019 03:40:00 1.3 C 4.98 g/m*3 1.3 C 0 km/h
1198 27-02-2019 03:45:00 1.3 C 4.93 g/m*3 1.3 C 0 km/h
1199 27-02-2019 03:50:00 1 C 4.83 g/m*3 1 C 0 km/h
1200 27-02-2019 03:55:00 0.9 C 4.79 g/m*3 0.9 C 0 km/h
Sensor: Nr:Datum:Temp:Abs-Feuchte:Windchill:Wind:
Aussen-T/F 1201 27-02-2019 04:00:00 1 C 4.88 g/m*3 1 C 0 km/h
1202 27-02-2019 04:05:00 0.9 C 4.79 g/m*3 0.9 C 0 km/h
1203 27-02-2019 04:10:00 0.9 C 4.85 g/m*3 0.9 C 0 km/h
1204 27-02-2019 04:15:00 1 C 4.88 g/m*3 1 C 0 km/h
1205 27-02-2019 04:20:00 0.9 C 4.85 g/m*3 0.9 C 0 km/h
1206 27-02-2019 04:25:00 0.8 C 4.76 g/m*3 0.8 C 0 km/h
1207 27-02-2019 04:30:00 0.7 C 4.78 g/m*3 0.7 C 0 km/h
1208 27-02-2019 04:35:00 0.7 C 4.78 g/m*3 0.7 C 0 km/h
1209 27-02-2019 04:40:00 0.7 C 4.78 g/m*3 0.7 C 0 km/h
1210 27-02-2019 04:45:00 0.6 C 4.75 g/m*3 0.6 C 0 km/h
1211 27-02-2019 04:50:00 0.6 C 4.75 g/m*3 0.6 C 0 km/h
1212 27-02-2019 04:55:00 0.6 C 4.75 g/m*3 0.6 C 0 km/h
1213 27-02-2019 05:00:00 0.7 C 4.78 g/m*3 0.7 C 0 km/h
1214 27-02-2019 05:05:00 0.7 C 4.78 g/m*3 0.7 C 0 km/h
1215 27-02-2019 05:10:00 0.6 C 4.75 g/m*3 0.6 C 0 km/h
1216 27-02-2019 05:15:00 0.6 C 4.8 g/m*3 0.6 C 0 km/h
1217 27-02-2019 05:20:00 0.6 C 4.8 g/m*3 0.6 C 0 km/h
1218 27-02-2019 05:25:00 0.6 C 4.8 g/m*3 0.6 C 0 km/h
1219 27-02-2019 05:30:00 0.5 C 4.71 g/m*3 0.5 C 0 km/h
1220 27-02-2019 05:35:00 0.4 C 4.68 g/m*3 0.4 C 0 km/h
1221 27-02-2019 05:40:00 0.4 C 4.68 g/m*3 0.4 C 0 km/h
1222 27-02-2019 05:45:00 0.4 C 4.73 g/m*3 0.4 C 0 km/h
1223 27-02-2019 05:50:00 0.3 C 4.7 g/m*3 0.3 C 0 km/h
1224 27-02-2019 05:55:00 0.2 C 4.62 g/m*3 0.2 C 0 km/h
1225 27-02-2019 06:00:00 0.2 C 4.62 g/m*3 0.2 C 0 km/h
Sensor: Nr:Datum:Temp:Abs-Feuchte:Windchill:Wind:
Aussen-T/F 1226 27-02-2019 06:05:00 0.2 C 4.67 g/m*3 0.2 C 0 km/h
1227 27-02-2019 06:10:00 0.2 C 4.67 g/m*3 0.2 C 0 km/h
1228 27-02-2019 06:15:00 0.1 C 4.63 g/m*3 0.1 C 0 km/h
1229 27-02-2019 06:20:00 0 C 4.6 g/m*3 0 C 0 km/h
1230 27-02-2019 06:25:00 0.1 C 4.63 g/m*3 0.1 C 0 km/h
1231 27-02-2019 06:30:00 0.2 C 4.67 g/m*3 0.2 C 0 km/h
1232 27-02-2019 06:35:00 0.3 C 4.7 g/m*3 0.3 C 0 km/h
1233 27-02-2019 06:40:00 0.3 C 4.7 g/m*3 0.3 C 0 km/h
1234 27-02-2019 06:45:00 0.1 C 4.63 g/m*3 0.1 C 0 km/h
1235 27-02-2019 06:50:00 -0.1 C 4.57 g/m*3 -0.1 C 0 km/h
1236 27-02-2019 06:55:00 -0.1 C 4.57 g/m*3 -0.1 C 0 km/h
1237 27-02-2019 07:00:00 -0.2 C 4.54 g/m*3 -0.2 C 0 km/h
1238 27-02-2019 07:05:00 -0.2 C 4.54 g/m*3 -0.2 C 0 km/h
1239 27-02-2019 07:10:00 -0.2 C 4.54 g/m*3 -0.2 C 0 km/h
1240 27-02-2019 07:15:00 -0.2 C 4.54 g/m*3 -0.2 C 0 km/h
1241 27-02-2019 07:20:00 -0.3 C 4.51 g/m*3 -0.3 C 0 km/h
1242 27-02-2019 07:25:00 -0.4 C 4.48 g/m*3 -0.4 C 0 km/h
1243 27-02-2019 07:30:00 -0.6 C 4.42 g/m*3 -0.6 C 0 km/h
1244 27-02-2019 07:35:00 -0.6 C 4.42 g/m*3 -0.6 C 0 km/h
1245 27-02-2019 07:40:00 -0.6 C 4.42 g/m*3 -0.6 C 0 km/h
1246 27-02-2019 07:45:00 -0.4 C 4.48 g/m*3 -0.4 C 0 km/h
1247 27-02-2019 07:50:00 -0.4 C 4.48 g/m*3 -0.4 C 0 km/h
1248 27-02-2019 07:55:00 -0.4 C 4.48 g/m*3 -0.4 C 0 km/h
1249 27-02-2019 08:00:00 -0.4 C 4.48 g/m*3 -0.4 C 0 km/h
1250 27-02-2019 08:05:00 -0.4 C 4.48 g/m*3 -0.4 C 0 km/h
Sensor: Nr:Datum:Temp:Abs-Feuchte:Windchill:Wind:
Aussen-T/F 1251 27-02-2019 08:10:00 -0.4 C 4.48 g/m*3 -0.4 C 0 km/h
1252 27-02-2019 08:15:00 -0.4 C 4.48 g/m*3 -0.4 C 0 km/h
1253 27-02-2019 08:20:00 -0.4 C 4.48 g/m*3 -0.4 C 0 km/h
1254 27-02-2019 08:25:00 -0.4 C 4.48 g/m*3 -0.4 C 0 km/h
1255 27-02-2019 08:30:00 -0.3 C 4.56 g/m*3 -0.3 C 0 km/h
1256 27-02-2019 08:35:00 -0.2 C 4.59 g/m*3 -0.2 C 0 km/h
1257 27-02-2019 08:40:00 -0.2 C 4.59 g/m*3 -0.2 C 0 km/h
1258 27-02-2019 08:45:00 -0.1 C 4.62 g/m*3 -0.1 C 0 km/h
1259 27-02-2019 08:50:00 0 C 4.65 g/m*3 0 C 0 km/h
1260 27-02-2019 08:55:00 0.1 C 4.68 g/m*3 0.1 C 0 km/h
1261 27-02-2019 09:00:00 0.1 C 4.68 g/m*3 0.1 C 0 km/h
1262 27-02-2019 09:05:00 0.2 C 4.72 g/m*3 0.2 C 0 km/h
1263 27-02-2019 09:10:00 0.2 C 4.72 g/m*3 0.2 C 0 km/h
1264 27-02-2019 09:15:00 0.2 C 4.72 g/m*3 0.2 C 0 km/h
1265 27-02-2019 09:20:00 0.2 C 4.72 g/m*3 0.2 C 0 km/h
1266 27-02-2019 09:25:00 0.3 C 4.75 g/m*3 0.3 C 0 km/h
1267 27-02-2019 09:30:00 0.3 C 4.75 g/m*3 0.3 C 0 km/h
1268 27-02-2019 09:35:00 0.4 C 4.78 g/m*3 0.4 C 0 km/h
1269 27-02-2019 09:40:00 0.6 C 4.85 g/m*3 0.6 C 0 km/h
1270 27-02-2019 09:45:00 0.7 C 4.88 g/m*3 0.7 C 0 km/h
1271 27-02-2019 09:50:00 0.8 C 4.91 g/m*3 0.8 C 0 km/h
1272 27-02-2019 09:55:00 1 C 4.98 g/m*3 1 C 0 km/h
1273 27-02-2019 10:00:00 1.2 C 5.05 g/m*3 1.2 C 0 km/h
1274 27-02-2019 10:05:00 1.3 C 5.09 g/m*3 1.3 C 0 km/h
1275 27-02-2019 10:10:00 1.4 C 5.12 g/m*3 1.4 C 0 km/h
Sensor: Nr:Datum:Temp:Abs-Feuchte:Windchill:Wind:
Aussen-T/F 1276 27-02-2019 10:15:00 1.6 C 5.25 g/m*3 1.6 C 0 km/h
1277 27-02-2019 10:20:00 1.7 C 5.23 g/m*3 1.7 C 0 km/h
1278 27-02-2019 10:25:00 2 C 5.39 g/m*3 2 C 0 km/h
1279 27-02-2019 10:30:00 2.4 C 5.54 g/m*3 2.4 C 0 km/h
1280 27-02-2019 10:35:00 2.8 C 5.69 g/m*3 2.8 C 0 km/h
1281 27-02-2019 10:40:00 3.2 C 5.85 g/m*3 3.2 C 0 km/h
1282 27-02-2019 10:45:00 3.4 C 5.92 g/m*3 3.4 C 0 km/h
1283 27-02-2019 10:50:00 3.7 C 6.04 g/m*3 3.7 C 0 km/h
1284 27-02-2019 10:55:00 4.1 C 6.21 g/m*3 4.1 C 0 km/h
1285 27-02-2019 11:00:00 4.3 C 6.29 g/m*3 4.3 C 0 km/h
1286 27-02-2019 11:05:00 4.5 C 6.38 g/m*3 4.5 C 0 km/h
1287 27-02-2019 11:10:00 4.7 C 6.46 g/m*3 4.7 C 0 km/h
1288 27-02-2019 11:15:00 5 C 6.59 g/m*3 5 C 0 km/h
1289 27-02-2019 11:20:00 5.2 C 6.68 g/m*3 5.2 C 0 km/h
1290 27-02-2019 11:25:00 5.4 C 6.77 g/m*3 5.4 C 0 km/h
1291 27-02-2019 11:30:00 5.7 C 6.83 g/m*3 5.7 C 0 km/h
1292 27-02-2019 11:35:00 5.8 C 6.81 g/m*3 5.8 C 0 km/h
1293 27-02-2019 11:40:00 6 C 6.82 g/m*3 6 C 0 km/h
1294 27-02-2019 11:45:00 6.2 C 6.84 g/m*3 6.2 C 0 km/h
1295 27-02-2019 11:50:00 6.5 C 6.82 g/m*3 6.5 C 0 km/h
1296 27-02-2019 11:55:00 6.7 C 6.84 g/m*3 6.7 C 0 km/h
1297 27-02-2019 12:00:00 7 C 6.9 g/m*3 7 C 0 km/h
1298 27-02-2019 12:05:00 7.4 C 7.16 g/m*3 7.4 C 0 km/h
1299 27-02-2019 12:10:00 7.8 C 7.18 g/m*3 7.8 C 0 km/h
1300 27-02-2019 12:15:00 8.4 C 7.55 g/m*3 8.4 C 0 km/h
Sensor: Nr:Datum:Temp:Abs-Feuchte:Windchill:Wind:
Aussen-T/F 1301 27-02-2019 12:20:00 9.1 C 7.72 g/m*3 9.1 C 0 km/h
1302 27-02-2019 12:25:00 9.6 C 7.79 g/m*3 9.6 C 0 km/h
1303 27-02-2019 12:30:00 10.2 C 7.9 g/m*3 10.2 C 0 km/h
1304 27-02-2019 12:35:00 10.8 C 8.01 g/m*3 10.8 C 0 km/h
1305 27-02-2019 12:40:00 11.3 C 8.16 g/m*3 11.3 C 0 km/h
1306 27-02-2019 12:45:00 11.7 C 7.74 g/m*3 11.7 C 0 km/h
1307 27-02-2019 12:50:00 11.8 C 7.79 g/m*3 11.8 C 0 km/h
1308 27-02-2019 12:55:00 12 C 7.78 g/m*3 12 C 0 km/h
1309 27-02-2019 13:00:00 12.4 C 7.98 g/m*3 12.4 C 0 km/h
1310 27-02-2019 13:05:00 12.7 C 8.13 g/m*3 12.7 C 0 km/h
1311 27-02-2019 13:10:00 13.1 C 8.22 g/m*3 13.1 C 0 km/h
1312 27-02-2019 13:15:00 13.5 C 8.42 g/m*3 13.5 C 0 km/h
1313 27-02-2019 13:20:00 14.1 C 8.25 g/m*3 14.1 C 0 km/h
1314 27-02-2019 13:25:00 14.6 C 8.38 g/m*3 14.6 C 0 km/h
1315 27-02-2019 13:30:00 15.1 C 8.39 g/m*3 15.1 C 0 km/h
1316 27-02-2019 13:35:00 15.4 C 8.28 g/m*3 15.4 C 0 km/h
1317 27-02-2019 13:40:00 15.8 C 8.35 g/m*3 15.8 C 0 km/h
1318 27-02-2019 13:45:00 16.2 C 8.14 g/m*3 16.2 C 0 km/h
1319 27-02-2019 13:50:00 16.4 C 8.1 g/m*3 16.4 C 0 km/h
1320 27-02-2019 13:55:00 17 C 8.1 g/m*3 17 C 0 km/h
1321 27-02-2019 14:00:00 17.6 C 8.1 g/m*3 17.6 C 0 km/h
1322 27-02-2019 14:05:00 17.8 C 8.04 g/m*3 17.8 C 0 km/h
1323 27-02-2019 14:10:00 17.9 C 8.09 g/m*3 17.9 C 0 km/h
1324 27-02-2019 14:15:00 17.9 C 7.94 g/m*3 17.9 C 0 km/h
1325 27-02-2019 14:20:00 17.8 C 7.89 g/m*3 17.8 C 0 km/h
Sensor: Nr:Datum:Temp:Abs-Feuchte:Windchill:Wind:
Aussen-T/F 1326 27-02-2019 14:25:00 17.5 C 7.75 g/m*3 17.5 C 0 km/h
1327 27-02-2019 14:30:00 17.1 C 7.42 g/m*3 17.1 C 0 km/h
1328 27-02-2019 14:35:00 16.8 C 7.29 g/m*3 16.8 C 0 km/h
1329 27-02-2019 14:40:00 16.6 C 7.35 g/m*3 16.6 C 0 km/h
1330 27-02-2019 14:45:00 16.5 C 7.02 g/m*3 16.5 C 0 km/h
1331 27-02-2019 14:50:00 16.4 C 7.4 g/m*3 16.4 C 0 km/h
1332 27-02-2019 14:55:00 16.4 C 7.4 g/m*3 16.4 C 0 km/h
1333 27-02-2019 15:00:00 16.3 C 7.35 g/m*3 16.3 C 0 km/h
1334 27-02-2019 15:05:00 16.3 C 7.08 g/m*3 16.3 C 0 km/h
1335 27-02-2019 15:10:00 16.2 C 7.03 g/m*3 16.2 C 0 km/h
1336 27-02-2019 15:15:00 16.2 C 7.17 g/m*3 16.2 C 1.6 km/h
1337 27-02-2019 15:20:00 16.1 C 6.99 g/m*3 16.1 C 3.2 km/h
1338 27-02-2019 15:25:00 16 C 6.95 g/m*3 16 C 3.2 km/h
1339 27-02-2019 15:30:00 15.9 C 6.91 g/m*3 15.9 C 3.2 km/h
1340 27-02-2019 15:35:00 15.9 C 7.04 g/m*3 15.9 C 0 km/h
1341 27-02-2019 15:40:00 16 C 7.08 g/m*3 16 C 0 km/h
1342 27-02-2019 15:45:00 16.1 C 6.99 g/m*3 16.1 C 0 km/h
1343 27-02-2019 15:50:00 16.1 C 6.99 g/m*3 16.1 C 0 km/h
1344 27-02-2019 15:55:00 16.2 C 7.03 g/m*3 16.2 C 0 km/h
1345 27-02-2019 16:00:00 16.3 C 7.08 g/m*3 16.3 C 0 km/h
1346 27-02-2019 16:05:00 16.3 C 6.94 g/m*3 16.3 C 0 km/h
1347 27-02-2019 16:10:00 16.4 C 6.98 g/m*3 16.4 C 4.8 km/h
1348 27-02-2019 16:15:00 16.5 C 7.02 g/m*3 16.5 C 4.8 km/h
1349 27-02-2019 16:20:00 16.5 C 7.16 g/m*3 16.5 C 4.8 km/h
1350 27-02-2019 16:25:00 16.4 C 6.84 g/m*3 16.4 C 4.8 km/h
Sensor: Nr:Datum:Temp:Abs-Feuchte:Windchill:Wind:
Aussen-T/F 1351 27-02-2019 16:30:00 16.3 C 6.94 g/m*3 16.3 C 6.4 km/h
1352 27-02-2019 16:35:00 16.2 C 6.9 g/m*3 16.2 C 6.4 km/h
1353 27-02-2019 16:40:00 16.2 C 7.03 g/m*3 16.2 C 4.8 km/h
1354 27-02-2019 16:45:00 16.1 C 6.99 g/m*3 16.1 C 4.8 km/h
1355 27-02-2019 16:50:00 16 C 7.08 g/m*3 16 C 6.4 km/h
1356 27-02-2019 16:55:00 15.8 C 7 g/m*3 15.8 C 4.8 km/h
1357 27-02-2019 17:00:00 15.8 C 7 g/m*3 15.8 C 6.4 km/h
1358 27-02-2019 17:05:00 15.8 C 7 g/m*3 15.8 C 4.8 km/h
1359 27-02-2019 17:10:00 15.8 C 7.13 g/m*3 15.8 C 6.4 km/h
1360 27-02-2019 17:15:00 15.7 C 6.96 g/m*3 15.7 C 6.4 km/h
1361 27-02-2019 17:20:00 15.7 C 6.96 g/m*3 15.7 C 6.4 km/h
1362 27-02-2019 17:25:00 15.7 C 6.82 g/m*3 15.7 C 6.4 km/h
1363 27-02-2019 17:30:00 15.8 C 6.87 g/m*3 15.8 C 6.4 km/h
1364 27-02-2019 17:35:00 15.8 C 6.73 g/m*3 15.8 C 6.4 km/h
1365 27-02-2019 17:40:00 15.8 C 6.73 g/m*3 15.8 C 6.4 km/h
1366 27-02-2019 17:45:00 15.8 C 6.73 g/m*3 15.8 C 4.8 km/h
1367 27-02-2019 17:50:00 15.6 C 6.65 g/m*3 15.6 C 6.4 km/h
1368 27-02-2019 17:55:00 15.3 C 6.4 g/m*3 15.3 C 6.4 km/h
1369 27-02-2019 18:00:00 15 C 6.54 g/m*3 15 C 6.4 km/h
1370 27-02-2019 18:05:00 14.6 C 6.51 g/m*3 14.6 C 6.4 km/h
1371 27-02-2019 18:10:00 14.3 C 6.63 g/m*3 14.3 C 6.4 km/h
1372 27-02-2019 18:15:00 13.9 C 6.23 g/m*3 13.9 C 8.1 km/h
1373 27-02-2019 18:20:00 13.8 C 6.55 g/m*3 13.8 C 8.1 km/h
1374 27-02-2019 18:25:00 13.6 C 6.36 g/m*3 13.6 C 8.1 km/h
1375 27-02-2019 18:30:00 13.5 C 6.43 g/m*3 13.5 C 4.8 km/h
Sensor: Nr:Datum:Temp:Abs-Feuchte:Windchill:Wind:
Aussen-T/F 1376 27-02-2019 18:35:00 13.3 C 6.47 g/m*3 13.3 C 6.4 km/h
1377 27-02-2019 18:40:00 13 C 6.35 g/m*3 13 C 0 km/h
1378 27-02-2019 18:45:00 12.8 C 6.38 g/m*3 12.8 C 0 km/h
1379 27-02-2019 18:50:00 12.6 C 6.42 g/m*3 12.6 C 0 km/h
1380 27-02-2019 18:55:00 12.3 C 6.3 g/m*3 12.3 C 0 km/h
1381 27-02-2019 19:00:00 12.2 C 6.37 g/m*3 12.2 C 0 km/h
1382 27-02-2019 19:05:00 11.9 C 6.25 g/m*3 11.9 C 0 km/h
1383 27-02-2019 19:10:00 11.7 C 6.28 g/m*3 11.7 C 0 km/h
1384 27-02-2019 19:15:00 11.5 C 6.3 g/m*3 11.5 C 0 km/h
1385 27-02-2019 19:20:00 11.3 C 6.32 g/m*3 11.3 C 0 km/h
1386 27-02-2019 19:25:00 11.1 C 6.45 g/m*3 11.1 C 0 km/h
1387 27-02-2019 19:30:00 10.8 C 6.42 g/m*3 10.8 C 0 km/h
1388 27-02-2019 19:35:00 10.5 C 6.4 g/m*3 10.5 C 0 km/h
1389 27-02-2019 19:40:00 10.2 C 6.38 g/m*3 10.2 C 0 km/h
1390 27-02-2019 19:45:00 10 C 6.3 g/m*3 10 C 0 km/h
1391 27-02-2019 19:50:00 9.8 C 6.31 g/m*3 9.8 C 0 km/h
1392 27-02-2019 19:55:00 9.7 C 6.36 g/m*3 9.7 C 0 km/h
1393 27-02-2019 20:00:00 9.5 C 6.37 g/m*3 9.5 C 0 km/h
1394 27-02-2019 20:05:00 9.4 C 6.24 g/m*3 9.4 C 0 km/h
1395 27-02-2019 20:10:00 9.3 C 6.29 g/m*3 9.3 C 0 km/h
1396 27-02-2019 20:15:00 9.1 C 6.12 g/m*3 9.1 C 0 km/h
1397 27-02-2019 20:20:00 9.1 C 6.21 g/m*3 9.1 C 0 km/h
1398 27-02-2019 20:25:00 8.8 C 6.09 g/m*3 8.8 C 0 km/h
1399 27-02-2019 20:30:00 8.7 C 6.05 g/m*3 8.7 C 0 km/h
1400 27-02-2019 20:35:00 8.6 C 6.02 g/m*3 8.6 C 0 km/h
Sensor: Nr:Datum:Temp:Abs-Feuchte:Windchill:Wind:
Aussen-T/F 1401 27-02-2019 20:40:00 8.3 C 5.98 g/m*3 8.3 C 0 km/h
1402 27-02-2019 20:45:00 8.1 C 5.99 g/m*3 8.1 C 0 km/h
1403 27-02-2019 20:50:00 7.8 C 5.88 g/m*3 7.8 C 0 km/h
1404 27-02-2019 20:55:00 7.7 C 5.84 g/m*3 7.7 C 0 km/h
1405 27-02-2019 21:00:00 7.4 C 5.81 g/m*3 7.4 C 0 km/h
1406 27-02-2019 21:05:00 7.3 C 5.85 g/m*3 7.3 C 0 km/h
1407 27-02-2019 21:10:00 7.3 C 5.77 g/m*3 7.3 C 0 km/h
1408 27-02-2019 21:15:00 7.2 C 5.81 g/m*3 7.2 C 0 km/h
1409 27-02-2019 21:20:00 7.1 C 5.93 g/m*3 7.1 C 0 km/h
1410 27-02-2019 21:25:00 6.9 C 5.85 g/m*3 6.9 C 0 km/h
1411 27-02-2019 21:30:00 6.8 C 5.81 g/m*3 6.8 C 0 km/h
1412 27-02-2019 21:35:00 6.5 C 5.77 g/m*3 6.5 C 0 km/h
1413 27-02-2019 21:40:00 6.4 C 5.81 g/m*3 6.4 C 0 km/h
1414 27-02-2019 21:45:00 6.4 C 5.74 g/m*3 6.4 C 0 km/h
1415 27-02-2019 21:50:00 6.3 C 5.7 g/m*3 6.3 C 0 km/h
1416 27-02-2019 21:55:00 6 C 5.66 g/m*3 6 C 0 km/h
1417 27-02-2019 22:00:00 5.8 C 5.73 g/m*3 5.8 C 0 km/h
1418 27-02-2019 22:05:00 5.8 C 5.8 g/m*3 5.8 C 0 km/h
1419 27-02-2019 22:10:00 5.9 C 5.77 g/m*3 5.9 C 0 km/h
1420 27-02-2019 22:15:00 5.8 C 5.66 g/m*3 5.8 C 0 km/h
1421 27-02-2019 22:20:00 5.7 C 5.69 g/m*3 5.7 C 0 km/h
1422 27-02-2019 22:25:00 5.6 C 5.66 g/m*3 5.6 C 0 km/h
1423 27-02-2019 22:30:00 5.5 C 5.69 g/m*3 5.5 C 0 km/h
1424 27-02-2019 22:35:00 5.4 C 5.65 g/m*3 5.4 C 0 km/h
1425 27-02-2019 22:40:00 5.3 C 5.61 g/m*3 5.3 C 0 km/h
Sensor: Nr:Datum:Temp:Abs-Feuchte:Windchill:Wind:
Aussen-T/F 1426 27-02-2019 22:45:00 5.3 C 5.61 g/m*3 5.3 C 0 km/h
1427 27-02-2019 22:50:00 5.3 C 5.61 g/m*3 5.3 C 0 km/h
1428 27-02-2019 22:55:00 5.2 C 5.58 g/m*3 5.2 C 0 km/h
1429 27-02-2019 23:00:00 5.2 C 5.58 g/m*3 5.2 C 0 km/h
1430 27-02-2019 23:05:00 5.2 C 5.58 g/m*3 5.2 C 0 km/h
1431 27-02-2019 23:10:00 5.1 C 5.61 g/m*3 5.1 C 0 km/h
1432 27-02-2019 23:15:00 5.1 C 5.54 g/m*3 5.1 C 0 km/h
1433 27-02-2019 23:20:00 5.1 C 5.61 g/m*3 5.1 C 0 km/h
1434 27-02-2019 23:25:00 4.9 C 5.54 g/m*3 4.9 C 0 km/h
1435 27-02-2019 23:30:00 4.7 C 5.46 g/m*3 4.7 C 0 km/h
1436 27-02-2019 23:35:00 4.6 C 5.49 g/m*3 4.6 C 0 km/h
1437 27-02-2019 23:40:00 4.5 C 5.52 g/m*3 4.5 C 0 km/h
1438 27-02-2019 23:45:00 4.5 C 5.59 g/m*3 4.5 C 0 km/h
1439 27-02-2019 23:50:00 4.5 C 5.52 g/m*3 4.5 C 0 km/h
1440 27-02-2019 23:55:00 4.6 C 5.56 g/m*3 4.6 C 0 km/h
1441 28-02-2019 00:00:00 4.5 C 5.52 g/m*3 4.5 C 0 km/h
1442 28-02-2019 00:05:00 4.6 C 5.62 g/m*3 4.6 C 0 km/h
1443 28-02-2019 00:10:00 4.7 C 5.66 g/m*3 4.7 C 0 km/h
1444 28-02-2019 00:15:00 4.8 C 5.7 g/m*3 4.8 C 0 km/h
1445 28-02-2019 00:20:00 5.1 C 5.81 g/m*3 5.1 C 3.2 km/h
1446 28-02-2019 00:25:00 5.4 C 5.86 g/m*3 5.4 C 3.2 km/h
1447 28-02-2019 00:30:00 5.6 C 5.87 g/m*3 5.6 C 3.2 km/h
1448 28-02-2019 00:35:00 5.7 C 5.84 g/m*3 5.7 C 4.8 km/h
1449 28-02-2019 00:40:00 5.8 C 5.87 g/m*3 4.52 C 6.4 km/h
1450 28-02-2019 00:45:00 5.9 C 5.84 g/m*3 5.9 C 4.8 km/h
Sensor: Nr:Datum:Temp:Abs-Feuchte:Windchill:Wind:
Aussen-T/F 1451 28-02-2019 00:50:00 6 C 5.81 g/m*3 6 C 1.6 km/h
1452 28-02-2019 00:55:00 6.1 C 5.84 g/m*3 6.1 C 1.6 km/h
1453 28-02-2019 01:00:00 6.1 C 5.84 g/m*3 6.1 C 0 km/h
1454 28-02-2019 01:05:00 5.9 C 5.7 g/m*3 5.9 C 0 km/h
1455 28-02-2019 01:10:00 5.8 C 5.66 g/m*3 5.8 C 0 km/h
1456 28-02-2019 01:15:00 5.4 C 5.51 g/m*3 5.4 C 0 km/h
1457 28-02-2019 01:20:00 5.2 C 5.58 g/m*3 5.2 C 1.6 km/h
1458 28-02-2019 01:25:00 5 C 5.5 g/m*3 5 C 1.6 km/h
1459 28-02-2019 01:30:00 4.7 C 5.46 g/m*3 4.7 C 1.6 km/h
1460 28-02-2019 01:35:00 4.5 C 5.46 g/m*3 4.5 C 0 km/h
1461 28-02-2019 01:40:00 4.3 C 5.38 g/m*3 4.3 C 0 km/h
1462 28-02-2019 01:45:00 4.1 C 5.38 g/m*3 4.1 C 0 km/h
1463 28-02-2019 01:50:00 4.1 C 5.44 g/m*3 4.1 C 0 km/h
1464 28-02-2019 01:55:00 4.1 C 5.5 g/m*3 4.1 C 0 km/h
1465 28-02-2019 02:00:00 4.1 C 5.5 g/m*3 4.1 C 1.6 km/h
1466 28-02-2019 02:05:00 4.1 C 5.5 g/m*3 4.1 C 3.2 km/h
1467 28-02-2019 02:10:00 4.2 C 5.54 g/m*3 4.2 C 4.8 km/h
1468 28-02-2019 02:15:00 4.1 C 5.44 g/m*3 4.1 C 3.2 km/h
1469 28-02-2019 02:20:00 3.8 C 5.33 g/m*3 3.8 C 1.6 km/h
1470 28-02-2019 02:25:00 3.6 C 5.32 g/m*3 3.6 C 1.6 km/h
1471 28-02-2019 02:30:00 3.4 C 5.25 g/m*3 3.4 C 0 km/h
1472 28-02-2019 02:35:00 3.3 C 5.28 g/m*3 3.3 C 4.8 km/h
1473 28-02-2019 02:40:00 3.3 C 5.34 g/m*3 3.3 C 1.6 km/h
1474 28-02-2019 02:45:00 3.4 C 5.44 g/m*3 0.82 C 9.7 km/h
1475 28-02-2019 02:50:00 3.4 C 5.44 g/m*3 3.4 C 3.2 km/h
Sensor: Nr:Datum:Temp:Abs-Feuchte:Windchill:Wind:
Aussen-T/F 1476 28-02-2019 02:55:00 3.4 C 5.37 g/m*3 3.4 C 3.2 km/h
1477 28-02-2019 03:00:00 3.3 C 5.34 g/m*3 3.3 C 1.6 km/h
1478 28-02-2019 03:05:00 3.1 C 5.21 g/m*3 3.1 C 0 km/h
1479 28-02-2019 03:10:00 2.9 C 5.2 g/m*3 2.9 C 1.6 km/h
1480 28-02-2019 03:15:00 2.9 C 5.26 g/m*3 2.9 C 1.6 km/h
1481 28-02-2019 03:20:00 2.8 C 5.22 g/m*3 2.8 C 0 km/h
1482 28-02-2019 03:25:00 2.8 C 5.28 g/m*3 2.8 C 3.2 km/h
1483 28-02-2019 03:30:00 2.9 C 5.32 g/m*3 2.9 C 3.2 km/h
1484 28-02-2019 03:35:00 3 C 5.35 g/m*3 3 C 4.8 km/h
1485 28-02-2019 03:40:00 3.1 C 5.39 g/m*3 1.4 C 6.4 km/h
1486 28-02-2019 03:45:00 3 C 5.29 g/m*3 3 C 3.2 km/h
1487 28-02-2019 03:50:00 2.8 C 5.22 g/m*3 2.8 C 1.6 km/h
1488 28-02-2019 03:55:00 2.7 C 5.19 g/m*3 2.7 C 4.8 km/h
1489 28-02-2019 04:00:00 2.6 C 5.15 g/m*3 2.6 C 4.8 km/h
1490 28-02-2019 04:05:00 2.4 C 5.08 g/m*3 2.4 C 0 km/h
1491 28-02-2019 04:10:00 2.2 C 4.96 g/m*3 2.2 C 0 km/h
1492 28-02-2019 04:15:00 2 C 4.95 g/m*3 2 C 0 km/h
1493 28-02-2019 04:20:00 1.9 C 4.97 g/m*3 1.9 C 0 km/h
1494 28-02-2019 04:25:00 2.1 C 5.09 g/m*3 0.24 C 6.4 km/h
1495 28-02-2019 04:30:00 2.3 C 5.22 g/m*3 2.3 C 4.8 km/h
1496 28-02-2019 04:35:00 2.3 C 5.16 g/m*3 2.3 C 3.2 km/h
1497 28-02-2019 04:40:00 2.3 C 5.16 g/m*3 2.3 C 1.6 km/h
1498 28-02-2019 04:45:00 2.3 C 5.16 g/m*3 2.3 C 4.8 km/h
1499 28-02-2019 04:50:00 2.4 C 5.25 g/m*3 2.4 C 3.2 km/h
1500 28-02-2019 04:55:00 2.5 C 5.23 g/m*3 2.5 C 1.6 km/h
Sensor: Nr:Datum:Temp:Abs-Feuchte:Windchill:Wind:
Aussen-T/F 1501 28-02-2019 05:00:00 2.6 C 5.27 g/m*3 2.6 C 0 km/h
1502 28-02-2019 05:05:00 2.5 C 5.23 g/m*3 2.5 C 1.6 km/h
1503 28-02-2019 05:10:00 2.5 C 5.23 g/m*3 0.17 C 8.1 km/h
1504 28-02-2019 05:15:00 2.4 C 5.14 g/m*3 2.4 C 0 km/h
1505 28-02-2019 05:20:00 2.3 C 5.16 g/m*3 2.3 C 4.8 km/h
1506 28-02-2019 05:25:00 2.3 C 5.16 g/m*3 -0.07 C 8.1 km/h
1507 28-02-2019 05:30:00 2.3 C 5.16 g/m*3 0.47 C 6.4 km/h
1508 28-02-2019 05:35:00 2.3 C 5.16 g/m*3 2.3 C 0 km/h
1509 28-02-2019 05:40:00 2.3 C 5.16 g/m*3 2.3 C 3.2 km/h
1510 28-02-2019 05:45:00 2.3 C 5.16 g/m*3 2.3 C 0 km/h
1511 28-02-2019 05:50:00 2.2 C 5.13 g/m*3 2.2 C 1.6 km/h
1512 28-02-2019 05:55:00 2.3 C 5.22 g/m*3 0.47 C 6.4 km/h
1513 28-02-2019 06:00:00 2.5 C 5.29 g/m*3 2.5 C 4.8 km/h
1514 28-02-2019 06:05:00 2.7 C 5.36 g/m*3 2.7 C 4.8 km/h
1515 28-02-2019 06:10:00 2.7 C 5.36 g/m*3 2.7 C 1.6 km/h
1516 28-02-2019 06:15:00 2.7 C 5.3 g/m*3 2.7 C 1.6 km/h
1517 28-02-2019 06:20:00 2.6 C 5.27 g/m*3 2.6 C 1.6 km/h
1518 28-02-2019 06:25:00 2.7 C 5.3 g/m*3 0.4 C 8.1 km/h
1519 28-02-2019 06:30:00 2.9 C 5.43 g/m*3 0.64 C 8.1 km/h
1520 28-02-2019 06:35:00 3.4 C 5.62 g/m*3 0.46 C 11.3 km/h
1521 28-02-2019 06:40:00 3.8 C 5.65 g/m*3 0.94 C 11.3 km/h
1522 28-02-2019 06:45:00 4.2 C 5.67 g/m*3 1.12 C 12.9 km/h
1523 28-02-2019 06:50:00 4.2 C 5.61 g/m*3 2.17 C 8.1 km/h
1524 28-02-2019 06:55:00 4.2 C 5.61 g/m*3 2.17 C 8.1 km/h
1525 28-02-2019 07:00:00 4.2 C 5.61 g/m*3 1.12 C 12.9 km/h
Sensor: Nr:Datum:Temp:Abs-Feuchte:Windchill:Wind:
Aussen-T/F 1526 28-02-2019 07:05:00 4.2 C 5.54 g/m*3 1.77 C 9.7 km/h
1527 28-02-2019 07:10:00 4.1 C 5.5 g/m*3 2.05 C 8.1 km/h
1528 28-02-2019 07:15:00 3.9 C 5.43 g/m*3 2.32 C 6.4 km/h
1529 28-02-2019 07:20:00 3.9 C 5.49 g/m*3 1.82 C 8.1 km/h
1530 28-02-2019 07:25:00 3.8 C 5.46 g/m*3 3.8 C 4.8 km/h
1531 28-02-2019 07:30:00 3.8 C 5.46 g/m*3 3.8 C 4.8 km/h
1532 28-02-2019 07:35:00 3.7 C 5.42 g/m*3 3.7 C 4.8 km/h
1533 28-02-2019 07:40:00 3.6 C 5.45 g/m*3 3.6 C 0 km/h
1534 28-02-2019 07:45:00 3.4 C 5.31 g/m*3 3.4 C 3.2 km/h
1535 28-02-2019 07:50:00 3.3 C 5.28 g/m*3 3.3 C 3.2 km/h
1536 28-02-2019 07:55:00 3.1 C 5.21 g/m*3 3.1 C 0 km/h
1537 28-02-2019 08:00:00 2.9 C 5.2 g/m*3 2.9 C 0 km/h
1538 28-02-2019 08:05:00 2.7 C 5.13 g/m*3 2.7 C 0 km/h
1539 28-02-2019 08:10:00 2.7 C 5.13 g/m*3 2.7 C 0 km/h
1540 28-02-2019 08:15:00 2.6 C 5.15 g/m*3 2.6 C 0 km/h
1541 28-02-2019 08:20:00 2.7 C 5.24 g/m*3 2.7 C 3.2 km/h
1542 28-02-2019 08:25:00 2.8 C 5.28 g/m*3 2.8 C 0 km/h
1543 28-02-2019 08:30:00 2.9 C 5.37 g/m*3 2.9 C 4.8 km/h
1544 28-02-2019 08:35:00 3.1 C 5.45 g/m*3 3.1 C 3.2 km/h
1545 28-02-2019 08:40:00 3.3 C 5.52 g/m*3 0.7 C 9.7 km/h
1546 28-02-2019 08:45:00 3.6 C 5.69 g/m*3 3.6 C 4.8 km/h
1547 28-02-2019 08:50:00 3.7 C 5.67 g/m*3 3.7 C 4.8 km/h
1548 28-02-2019 08:55:00 3.9 C 5.75 g/m*3 2.32 C 6.4 km/h
1549 28-02-2019 09:00:00 4.1 C 5.82 g/m*3 2.55 C 6.4 km/h
1550 28-02-2019 09:05:00 4.2 C 5.8 g/m*3 4.2 C 3.2 km/h
Sensor: Nr:Datum:Temp:Abs-Feuchte:Windchill:Wind:
Aussen-T/F 1551 28-02-2019 09:10:00 4.3 C 5.84 g/m*3 2.29 C 8.1 km/h
1552 28-02-2019 09:15:00 4.4 C 5.81 g/m*3 4.4 C 4.8 km/h
1553 28-02-2019 09:20:00 4.5 C 5.85 g/m*3 4.5 C 4.8 km/h
1554 28-02-2019 09:25:00 4.6 C 5.89 g/m*3 4.6 C 3.2 km/h
1555 28-02-2019 09:30:00 4.7 C 5.93 g/m*3 4.7 C 4.8 km/h
1556 28-02-2019 09:35:00 4.8 C 5.9 g/m*3 4.8 C 0 km/h
1557 28-02-2019 09:40:00 4.9 C 5.94 g/m*3 4.9 C 0 km/h
1558 28-02-2019 09:45:00 5.1 C 6.02 g/m*3 5.1 C 0 km/h
1559 28-02-2019 09:50:00 5.2 C 6.06 g/m*3 5.2 C 1.6 km/h
1560 28-02-2019 09:55:00 5.4 C 6.21 g/m*3 5.4 C 3.2 km/h
1561 28-02-2019 10:00:00 5.6 C 6.29 g/m*3 5.6 C 4.8 km/h
1562 28-02-2019 10:05:00 5.8 C 6.38 g/m*3 3.36 C 11.3 km/h
1563 28-02-2019 10:10:00 6.3 C 6.51 g/m*3 4.27 C 9.7 km/h
1564 28-02-2019 10:15:00 6.7 C 6.69 g/m*3 5.11 C 8.1 km/h
1565 28-02-2019 10:20:00 7.1 C 6.71 g/m*3 4.65 C 12.9 km/h
1566 28-02-2019 10:25:00 7.5 C 6.8 g/m*3 6.05 C 8.1 km/h
1567 28-02-2019 10:30:00 7.9 C 6.9 g/m*3 6.18 C 9.7 km/h
1568 28-02-2019 10:35:00 8.4 C 7.04 g/m*3 6.78 C 9.7 km/h
1569 28-02-2019 10:40:00 8.7 C 7.09 g/m*3 8.7 C 4.8 km/h
1570 28-02-2019 10:45:00 9 C 7.14 g/m*3 7.49 C 9.7 km/h
1571 28-02-2019 10:50:00 9.3 C 7.19 g/m*3 8.16 C 8.1 km/h
1572 28-02-2019 10:55:00 9.6 C 7.24 g/m*3 7.94 C 11.3 km/h
1573 28-02-2019 11:00:00 9.9 C 7.28 g/m*3 8.06 C 12.9 km/h
1574 28-02-2019 11:05:00 10.2 C 7.33 g/m*3 9.22 C 8.1 km/h
1575 28-02-2019 11:10:00 10.6 C 7.42 g/m*3 8.71 C 14.5 km/h
Sensor: Nr:Datum:Temp:Abs-Feuchte:Windchill:Wind:
Aussen-T/F 1576 28-02-2019 11:15:00 10.9 C 7.46 g/m*3 9.76 C 9.7 km/h
1577 28-02-2019 11:20:00 11.3 C 7.45 g/m*3 11.3 C 11.3 km/h
1578 28-02-2019 11:25:00 11.7 C 7.53 g/m*3 11.7 C 16.1 km/h
1579 28-02-2019 11:30:00 11.9 C 7.52 g/m*3 11.9 C 14.5 km/h
1580 28-02-2019 11:35:00 12.2 C 7.55 g/m*3 12.2 C 12.9 km/h
1581 28-02-2019 11:40:00 12.4 C 7.54 g/m*3 12.4 C 16.1 km/h
1582 28-02-2019 11:45:00 12.5 C 7.59 g/m*3 12.5 C 12.9 km/h
1583 28-02-2019 11:50:00 12.6 C 7.63 g/m*3 12.6 C 12.9 km/h
1584 28-02-2019 11:55:00 12.6 C 7.63 g/m*3 12.6 C 9.7 km/h
1585 28-02-2019 12:00:00 12.7 C 7.57 g/m*3 12.7 C 11.3 km/h
1586 28-02-2019 12:05:00 12.8 C 7.73 g/m*3 12.8 C 11.3 km/h
1587 28-02-2019 12:10:00 12.8 C 7.62 g/m*3 12.8 C 11.3 km/h
1588 28-02-2019 12:15:00 12.9 C 7.66 g/m*3 12.9 C 9.7 km/h
1589 28-02-2019 12:20:00 13 C 7.71 g/m*3 13 C 11.3 km/h
1590 28-02-2019 12:25:00 13.1 C 7.65 g/m*3 13.1 C 14.5 km/h
1591 28-02-2019 12:30:00 13.2 C 7.69 g/m*3 13.2 C 14.5 km/h
1592 28-02-2019 12:35:00 13.4 C 7.9 g/m*3 13.4 C 9.7 km/h
1593 28-02-2019 12:40:00 13.7 C 7.82 g/m*3 13.7 C 12.9 km/h
1594 28-02-2019 12:45:00 13.8 C 7.86 g/m*3 13.8 C 9.7 km/h
1595 28-02-2019 12:50:00 13.9 C 7.91 g/m*3 13.9 C 8.1 km/h
1596 28-02-2019 12:55:00 13.9 C 7.91 g/m*3 13.9 C 9.7 km/h
1597 28-02-2019 13:00:00 14.1 C 8.01 g/m*3 14.1 C 11.3 km/h
1598 28-02-2019 13:05:00 14.2 C 7.94 g/m*3 14.2 C 11.3 km/h
1599 28-02-2019 13:10:00 14.3 C 8.11 g/m*3 14.3 C 9.7 km/h
1600 28-02-2019 13:15:00 14.5 C 7.96 g/m*3 14.5 C 11.3 km/h
Sensor: Nr:Datum:Temp:Abs-Feuchte:Windchill:Wind:
Aussen-T/F 1601 28-02-2019 13:20:00 14.7 C 8.18 g/m*3 14.7 C 9.7 km/h
1602 28-02-2019 13:25:00 14.9 C 8.03 g/m*3 14.9 C 8.1 km/h
1603 28-02-2019 13:30:00 15.1 C 8.26 g/m*3 15.1 C 14.5 km/h
1604 28-02-2019 13:35:00 15.2 C 8.18 g/m*3 15.2 C 11.3 km/h
1605 28-02-2019 13:40:00 15.4 C 8.15 g/m*3 15.4 C 12.9 km/h
1606 28-02-2019 13:45:00 15.6 C 8.25 g/m*3 15.6 C 12.9 km/h
1607 28-02-2019 13:50:00 15.7 C 8.16 g/m*3 15.7 C 14.5 km/h
1608 28-02-2019 13:55:00 15.8 C 8.21 g/m*3 15.8 C 11.3 km/h
1609 28-02-2019 14:00:00 16 C 8.45 g/m*3 16 C 12.9 km/h
1610 28-02-2019 14:05:00 16.2 C 8.41 g/m*3 16.2 C 11.3 km/h
1611 28-02-2019 14:10:00 16.3 C 8.46 g/m*3 16.3 C 8.1 km/h
1612 28-02-2019 14:15:00 16.4 C 8.51 g/m*3 16.4 C 6.4 km/h
1613 28-02-2019 14:20:00 16.4 C 8.51 g/m*3 16.4 C 14.5 km/h
1614 28-02-2019 14:25:00 16.5 C 8.57 g/m*3 16.5 C 9.7 km/h
1615 28-02-2019 14:30:00 16.6 C 8.62 g/m*3 16.6 C 19.3 km/h
1616 28-02-2019 14:35:00 16.7 C 8.67 g/m*3 16.7 C 14.5 km/h
1617 28-02-2019 14:40:00 16.8 C 8.72 g/m*3 16.8 C 19.3 km/h
1618 28-02-2019 14:45:00 17.1 C 8.73 g/m*3 17.1 C 9.7 km/h
1619 28-02-2019 14:50:00 17.2 C 8.79 g/m*3 17.2 C 14.5 km/h
1620 28-02-2019 14:55:00 17.2 C 8.79 g/m*3 17.2 C 14.5 km/h
1621 28-02-2019 15:00:00 17.2 C 8.79 g/m*3 17.2 C 14.5 km/h
1622 28-02-2019 15:05:00 17.1 C 8.73 g/m*3 17.1 C 12.9 km/h
1623 28-02-2019 15:10:00 17 C 8.97 g/m*3 17 C 9.7 km/h
1624 28-02-2019 15:15:00 17 C 8.83 g/m*3 17 C 11.3 km/h
1625 28-02-2019 15:20:00 16.9 C 8.77 g/m*3 16.9 C 17.7 km/h
Sensor: Nr:Datum:Temp:Abs-Feuchte:Windchill:Wind:
Aussen-T/F 1626 28-02-2019 15:25:00 16.8 C 8.86 g/m*3 16.8 C 14.5 km/h
1627 28-02-2019 15:30:00 16.8 C 8.86 g/m*3 16.8 C 9.7 km/h
1628 28-02-2019 15:35:00 16.7 C 8.81 g/m*3 16.7 C 14.5 km/h
1629 28-02-2019 15:40:00 16.7 C 8.53 g/m*3 16.7 C 11.3 km/h
1630 28-02-2019 15:45:00 16.5 C 8.43 g/m*3 16.5 C 4.8 km/h
1631 28-02-2019 15:50:00 16.3 C 8.46 g/m*3 16.3 C 4.8 km/h
1632 28-02-2019 15:55:00 16.2 C 8.41 g/m*3 16.2 C 8.1 km/h
1633 28-02-2019 16:00:00 16.2 C 8.55 g/m*3 16.2 C 9.7 km/h
1634 28-02-2019 16:05:00 16.2 C 8.83 g/m*3 16.2 C 14.5 km/h
1635 28-02-2019 16:10:00 16.1 C 8.91 g/m*3 16.1 C 9.7 km/h
1636 28-02-2019 16:15:00 16 C 8.99 g/m*3 16 C 14.5 km/h
1637 28-02-2019 16:20:00 15.9 C 8.94 g/m*3 15.9 C 11.3 km/h
1638 28-02-2019 16:25:00 15.7 C 8.83 g/m*3 15.7 C 17.7 km/h
1639 28-02-2019 16:30:00 15.5 C 8.86 g/m*3 15.5 C 11.3 km/h
1640 28-02-2019 16:35:00 15.3 C 8.23 g/m*3 15.3 C 19.3 km/h
1641 28-02-2019 16:40:00 14.7 C 7.55 g/m*3 14.7 C 30.6 km/h
1642 28-02-2019 16:45:00 14 C 7.36 g/m*3 14 C 22.5 km/h
1643 28-02-2019 16:50:00 13.6 C 7.41 g/m*3 13.6 C 22.5 km/h
1644 28-02-2019 16:55:00 13.3 C 7.39 g/m*3 13.3 C 22.5 km/h
1645 28-02-2019 17:00:00 13.1 C 7.3 g/m*3 13.1 C 24.1 km/h
1646 28-02-2019 17:05:00 13 C 7.37 g/m*3 13 C 24.1 km/h
1647 28-02-2019 17:10:00 12.9 C 7.44 g/m*3 12.9 C 25.7 km/h
1648 28-02-2019 17:15:00 12.9 C 7.55 g/m*3 12.9 C 27.4 km/h
1649 28-02-2019 17:20:00 12.8 C 7.5 g/m*3 12.8 C 20.9 km/h
1650 28-02-2019 17:25:00 12.8 C 7.62 g/m*3 12.8 C 19.3 km/h
Sensor: Nr:Datum:Temp:Abs-Feuchte:Windchill:Wind:
Aussen-T/F 1651 28-02-2019 17:30:00 12.7 C 7.68 g/m*3 12.7 C 14.5 km/h
1652 28-02-2019 17:35:00 12.6 C 7.63 g/m*3 12.6 C 20.9 km/h
1653 28-02-2019 17:40:00 12.6 C 7.63 g/m*3 12.6 C 11.3 km/h
1654 28-02-2019 17:45:00 12.5 C 7.59 g/m*3 12.5 C 12.9 km/h
1655 28-02-2019 17:50:00 12.5 C 7.7 g/m*3 12.5 C 8.1 km/h
1656 28-02-2019 17:55:00 12.4 C 7.65 g/m*3 12.4 C 8.1 km/h
1657 28-02-2019 18:00:00 12.4 C 7.65 g/m*3 12.4 C 9.7 km/h
1658 28-02-2019 18:05:00 12.4 C 7.65 g/m*3 12.4 C 8.1 km/h
1659 28-02-2019 18:10:00 12.3 C 7.71 g/m*3 12.3 C 9.7 km/h
1660 28-02-2019 18:15:00 12.3 C 7.71 g/m*3 12.3 C 8.1 km/h
1661 28-02-2019 18:20:00 12.2 C 7.66 g/m*3 12.2 C 8.1 km/h
1662 28-02-2019 18:25:00 12.2 C 7.66 g/m*3 12.2 C 9.7 km/h
1663 28-02-2019 18:30:00 12.1 C 7.61 g/m*3 12.1 C 9.7 km/h
1664 28-02-2019 18:35:00 12.1 C 7.72 g/m*3 12.1 C 6.4 km/h
1665 28-02-2019 18:40:00 12 C 7.67 g/m*3 12 C 11.3 km/h
1666 28-02-2019 18:45:00 11.9 C 7.73 g/m*3 11.9 C 11.3 km/h
1667 28-02-2019 18:50:00 11.9 C 7.73 g/m*3 11.9 C 11.3 km/h
1668 28-02-2019 18:55:00 11.8 C 7.68 g/m*3 11.8 C 9.7 km/h
1669 28-02-2019 19:00:00 11.8 C 7.79 g/m*3 11.8 C 9.7 km/h
1670 28-02-2019 19:05:00 11.7 C 7.74 g/m*3 11.7 C 11.3 km/h
1671 28-02-2019 19:10:00 11.6 C 7.69 g/m*3 11.6 C 9.7 km/h
1672 28-02-2019 19:15:00 11.4 C 7.7 g/m*3 11.4 C 8.1 km/h
1673 28-02-2019 19:20:00 11.3 C 7.65 g/m*3 11.3 C 16.1 km/h
1674 28-02-2019 19:25:00 11.2 C 7.6 g/m*3 11.2 C 6.4 km/h
1675 28-02-2019 19:30:00 11.1 C 7.66 g/m*3 11.1 C 6.4 km/h
Sensor: Nr:Datum:Temp:Abs-Feuchte:Windchill:Wind:
Aussen-T/F 1676 28-02-2019 19:35:00 11.1 C 7.66 g/m*3 11.1 C 6.4 km/h
1677 28-02-2019 19:40:00 11 C 7.71 g/m*3 9.63 C 11.3 km/h
1678 28-02-2019 19:45:00 11 C 7.71 g/m*3 10.16 C 8.1 km/h
1679 28-02-2019 19:50:00 11 C 7.71 g/m*3 11 C 4.8 km/h
1680 28-02-2019 19:55:00 11 C 7.81 g/m*3 10.16 C 8.1 km/h
1681 28-02-2019 20:00:00 11 C 7.81 g/m*3 10.16 C 8.1 km/h
1682 28-02-2019 20:05:00 11.1 C 7.86 g/m*3 11.1 C 11.3 km/h
1683 28-02-2019 20:10:00 11.1 C 7.86 g/m*3 11.1 C 9.7 km/h
1684 28-02-2019 20:15:00 11.1 C 7.86 g/m*3 11.1 C 12.9 km/h
1685 28-02-2019 20:20:00 11.1 C 7.86 g/m*3 11.1 C 8.1 km/h
1686 28-02-2019 20:25:00 11.1 C 7.96 g/m*3 11.1 C 12.9 km/h
1687 28-02-2019 20:30:00 11.1 C 7.96 g/m*3 11.1 C 8.1 km/h
1688 28-02-2019 20:35:00 11.1 C 7.96 g/m*3 11.1 C 11.3 km/h
1689 28-02-2019 20:40:00 11.1 C 7.96 g/m*3 11.1 C 14.5 km/h
1690 28-02-2019 20:45:00 11.1 C 7.96 g/m*3 11.1 C 14.5 km/h
1691 28-02-2019 20:50:00 11.1 C 7.96 g/m*3 11.1 C 11.3 km/h
1692 28-02-2019 20:55:00 11.1 C 7.96 g/m*3 11.1 C 14.5 km/h
1693 28-02-2019 21:00:00 11.1 C 8.06 g/m*3 11.1 C 14.5 km/h
1694 28-02-2019 21:05:00 11.1 C 8.06 g/m*3 11.1 C 9.7 km/h
1695 28-02-2019 21:10:00 11.1 C 8.16 g/m*3 11.1 C 11.3 km/h
1696 28-02-2019 21:15:00 11 C 8.11 g/m*3 9.88 C 9.7 km/h
1697 28-02-2019 21:20:00 10.9 C 8.06 g/m*3 8.9 C 16.1 km/h
1698 28-02-2019 21:25:00 10.9 C 8.06 g/m*3 9.28 C 12.9 km/h
1699 28-02-2019 21:30:00 10.9 C 8.06 g/m*3 10.04 C 8.1 km/h
1700 28-02-2019 21:35:00 10.9 C 8.06 g/m*3 9.08 C 14.5 km/h
Sensor: Nr:Datum:Temp:Abs-Feuchte:Windchill:Wind:
Aussen-T/F 1701 28-02-2019 21:40:00 10.9 C 8.06 g/m*3 9.51 C 11.3 km/h
1702 28-02-2019 21:45:00 10.9 C 8.06 g/m*3 9.28 C 12.9 km/h
1703 28-02-2019 21:50:00 11 C 8.11 g/m*3 9.4 C 12.9 km/h
1704 28-02-2019 21:55:00 11 C 8.01 g/m*3 10.16 C 8.1 km/h
1705 28-02-2019 22:00:00 10.9 C 7.96 g/m*3 10.9 C 3.2 km/h
1706 28-02-2019 22:05:00 10.9 C 8.06 g/m*3 8.73 C 17.7 km/h
1707 28-02-2019 22:10:00 10.9 C 8.06 g/m*3 8.73 C 17.7 km/h
1708 28-02-2019 22:15:00 10.9 C 8.06 g/m*3 9.76 C 9.7 km/h
1709 28-02-2019 22:20:00 10.9 C 8.16 g/m*3 9.51 C 11.3 km/h
1710 28-02-2019 22:25:00 10.9 C 8.16 g/m*3 9.28 C 12.9 km/h
1711 28-02-2019 22:30:00 10.8 C 8.11 g/m*3 9.16 C 12.9 km/h
1712 28-02-2019 22:35:00 10.8 C 8.11 g/m*3 9.93 C 8.1 km/h
1713 28-02-2019 22:40:00 10.8 C 8.11 g/m*3 9.64 C 9.7 km/h
1714 28-02-2019 22:45:00 10.8 C 8.11 g/m*3 10.8 C 4.8 km/h
1715 28-02-2019 22:50:00 10.8 C 8.2 g/m*3 10.29 C 6.4 km/h
1716 28-02-2019 22:55:00 10.7 C 8.15 g/m*3 9.81 C 8.1 km/h
1717 28-02-2019 23:00:00 10.7 C 8.15 g/m*3 9.81 C 8.1 km/h
1718 28-02-2019 23:05:00 10.7 C 8.15 g/m*3 10.18 C 6.4 km/h
1719 28-02-2019 23:10:00 10.7 C 8.25 g/m*3 8.84 C 14.5 km/h
1720 28-02-2019 23:15:00 10.6 C 8.3 g/m*3 8.05 C 20.9 km/h
1721 28-02-2019 23:20:00 10.6 C 8.3 g/m*3 8.92 C 12.9 km/h
1722 28-02-2019 23:25:00 10.4 C 8.29 g/m*3 8.67 C 12.9 km/h
1723 28-02-2019 23:30:00 10.3 C 8.33 g/m*3 9.04 C 9.7 km/h
1724 28-02-2019 23:35:00 10.2 C 8.37 g/m*3 8.92 C 9.7 km/h
1725 28-02-2019 23:40:00 9.9 C 8.31 g/m*3 9.25 C 6.4 km/h
Sensor: Nr:Datum:Temp:Abs-Feuchte:Windchill:Wind:
Aussen-T/F 1726 28-02-2019 23:45:00 9.8 C 8.26 g/m*3 9.8 C 4.8 km/h
1727 28-02-2019 23:50:00 9.7 C 8.3 g/m*3 9.7 C 3.2 km/h
1728 28-02-2019 23:55:00 9.6 C 8.24 g/m*3 9.6 C 4.8 km/h
1729 01-03-2019 00:00:00 9.5 C 8.28 g/m*3 8.79 C 6.4 km/h
1730 01-03-2019 00:05:00 9.4 C 8.23 g/m*3 9.4 C 1.6 km/h
1731 01-03-2019 00:10:00 9.3 C 8.27 g/m*3 8.56 C 6.4 km/h
1732 01-03-2019 00:15:00 9.3 C 8.27 g/m*3 9.3 C 3.2 km/h
1733 01-03-2019 00:20:00 9.2 C 8.22 g/m*3 8.45 C 6.4 km/h
1734 01-03-2019 00:25:00 9.1 C 8.16 g/m*3 7.93 C 8.1 km/h
1735 01-03-2019 00:30:00 9.1 C 8.16 g/m*3 7.93 C 8.1 km/h
1736 01-03-2019 00:35:00 9 C 8.11 g/m*3 9 C 3.2 km/h
1737 01-03-2019 00:40:00 8.9 C 8.06 g/m*3 8.9 C 3.2 km/h
1738 01-03-2019 00:45:00 8.8 C 8.01 g/m*3 8.8 C 1.6 km/h
1739 01-03-2019 00:50:00 8.7 C 7.96 g/m*3 8.7 C 4.8 km/h
1740 01-03-2019 00:55:00 8.6 C 7.99 g/m*3 8.6 C 3.2 km/h
1741 01-03-2019 01:00:00 8.6 C 7.99 g/m*3 7.75 C 6.4 km/h
1742 01-03-2019 01:05:00 8.7 C 8.04 g/m*3 7.87 C 6.4 km/h
1743 01-03-2019 01:10:00 8.8 C 8.18 g/m*3 6.97 C 11.3 km/h
1744 01-03-2019 01:15:00 8.8 C 8.18 g/m*3 8.8 C 1.6 km/h
1745 01-03-2019 01:20:00 8.8 C 8.18 g/m*3 8.8 C 4.8 km/h
1746 01-03-2019 01:25:00 8.7 C 8.13 g/m*3 8.7 C 4.8 km/h
1747 01-03-2019 01:30:00 8.7 C 8.13 g/m*3 8.7 C 3.2 km/h
1748 01-03-2019 01:35:00 8.7 C 8.13 g/m*3 8.7 C 3.2 km/h
1749 01-03-2019 01:40:00 8.6 C 7.99 g/m*3 8.6 C 3.2 km/h
1750 01-03-2019 01:45:00 8.6 C 8.08 g/m*3 8.6 C 3.2 km/h
Sensor: Nr:Datum:Temp:Abs-Feuchte:Windchill:Wind:
Aussen-T/F 1751 01-03-2019 01:50:00 8.6 C 8.08 g/m*3 8.6 C 3.2 km/h
1752 01-03-2019 01:55:00 8.6 C 8.08 g/m*3 8.6 C 4.8 km/h
1753 01-03-2019 02:00:00 8.6 C 8.08 g/m*3 7.01 C 9.7 km/h
1754 01-03-2019 02:05:00 8.6 C 8.08 g/m*3 8.6 C 4.8 km/h
1755 01-03-2019 02:10:00 8.7 C 8.13 g/m*3 7.13 C 9.7 km/h
1756 01-03-2019 02:15:00 8.7 C 8.13 g/m*3 6.6 C 12.9 km/h
1757 01-03-2019 02:20:00 8.7 C 8.04 g/m*3 6.85 C 11.3 km/h
1758 01-03-2019 02:25:00 8.7 C 8.04 g/m*3 6.85 C 11.3 km/h
1759 01-03-2019 02:30:00 8.8 C 8.09 g/m*3 8.8 C 4.8 km/h
1760 01-03-2019 02:35:00 8.7 C 8.04 g/m*3 7.46 C 8.1 km/h
1761 01-03-2019 02:40:00 8.7 C 8.04 g/m*3 7.46 C 8.1 km/h
1762 01-03-2019 02:45:00 8.7 C 8.04 g/m*3 7.13 C 9.7 km/h
1763 01-03-2019 02:50:00 8.7 C 8.04 g/m*3 6.6 C 12.9 km/h
1764 01-03-2019 02:55:00 8.7 C 8.04 g/m*3 6.85 C 11.3 km/h
1765 01-03-2019 03:00:00 8.7 C 7.96 g/m*3 6.85 C 11.3 km/h
1766 01-03-2019 03:05:00 8.8 C 8.01 g/m*3 7.98 C 6.4 km/h
1767 01-03-2019 03:10:00 8.7 C 7.96 g/m*3 8.7 C 4.8 km/h
1768 01-03-2019 03:15:00 8.7 C 7.96 g/m*3 6.6 C 12.9 km/h
1769 01-03-2019 03:20:00 8.8 C 8.01 g/m*3 6.97 C 11.3 km/h
1770 01-03-2019 03:25:00 8.8 C 8.01 g/m*3 7.98 C 6.4 km/h
1771 01-03-2019 03:30:00 8.8 C 7.92 g/m*3 6.97 C 11.3 km/h
1772 01-03-2019 03:35:00 8.9 C 7.97 g/m*3 7.37 C 9.7 km/h
1773 01-03-2019 03:40:00 8.9 C 7.97 g/m*3 7.09 C 11.3 km/h
1774 01-03-2019 03:45:00 8.9 C 7.97 g/m*3 7.37 C 9.7 km/h
1775 01-03-2019 03:50:00 8.8 C 7.92 g/m*3 7.58 C 8.1 km/h
Sensor: Nr:Datum:Temp:Abs-Feuchte:Windchill:Wind:
Aussen-T/F 1776 01-03-2019 03:55:00 8.8 C 7.92 g/m*3 7.58 C 8.1 km/h
1777 01-03-2019 04:00:00 8.8 C 7.92 g/m*3 7.98 C 6.4 km/h
1778 01-03-2019 04:05:00 8.8 C 7.92 g/m*3 7.58 C 8.1 km/h
1779 01-03-2019 04:10:00 8.8 C 7.92 g/m*3 7.98 C 6.4 km/h
1780 01-03-2019 04:15:00 8.8 C 7.92 g/m*3 8.8 C 4.8 km/h
1781 01-03-2019 04:20:00 8.8 C 7.92 g/m*3 7.98 C 6.4 km/h
1782 01-03-2019 04:25:00 8.8 C 7.92 g/m*3 8.8 C 3.2 km/h
1783 01-03-2019 04:30:00 8.8 C 7.92 g/m*3 8.8 C 3.2 km/h
1784 01-03-2019 04:35:00 8.7 C 7.87 g/m*3 8.7 C 4.8 km/h
1785 01-03-2019 04:40:00 8.7 C 7.87 g/m*3 8.7 C 3.2 km/h
1786 01-03-2019 04:45:00 8.7 C 7.87 g/m*3 7.87 C 6.4 km/h
1787 01-03-2019 04:50:00 8.7 C 7.87 g/m*3 7.13 C 9.7 km/h
1788 01-03-2019 04:55:00 8.7 C 7.87 g/m*3 7.87 C 6.4 km/h
1789 01-03-2019 05:00:00 8.7 C 7.87 g/m*3 7.87 C 6.4 km/h
1790 01-03-2019 05:05:00 8.7 C 7.87 g/m*3 7.13 C 9.7 km/h
1791 01-03-2019 05:10:00 8.7 C 7.87 g/m*3 8.7 C 4.8 km/h
1792 01-03-2019 05:15:00 8.7 C 7.87 g/m*3 7.87 C 6.4 km/h
1793 01-03-2019 05:20:00 8.7 C 7.87 g/m*3 8.7 C 3.2 km/h
1794 01-03-2019 05:25:00 8.7 C 7.96 g/m*3 8.7 C 3.2 km/h
1795 01-03-2019 05:30:00 8.7 C 7.96 g/m*3 8.7 C 1.6 km/h
1796 01-03-2019 05:35:00 8.6 C 7.91 g/m*3 8.6 C 1.6 km/h
1797 01-03-2019 05:40:00 8.6 C 7.91 g/m*3 8.6 C 1.6 km/h
1798 01-03-2019 05:45:00 8.5 C 7.85 g/m*3 8.5 C 1.6 km/h
1799 01-03-2019 05:50:00 8.5 C 7.94 g/m*3 8.5 C 1.6 km/h
1800 01-03-2019 05:55:00 8.5 C 7.94 g/m*3 8.5 C 1.6 km/h
Sensor: Nr:Datum:Temp:Abs-Feuchte:Windchill:Wind:
Aussen-T/F 1801 01-03-2019 06:00:00 8.4 C 7.89 g/m*3 7.11 C 8.1 km/h
1802 01-03-2019 06:05:00 8.4 C 7.89 g/m*3 8.4 C 3.2 km/h
1803 01-03-2019 06:10:00 8.4 C 7.89 g/m*3 8.4 C 1.6 km/h
1804 01-03-2019 06:15:00 8.3 C 7.92 g/m*3 7.41 C 6.4 km/h
1805 01-03-2019 06:20:00 8.3 C 7.84 g/m*3 8.3 C 3.2 km/h
1806 01-03-2019 06:25:00 8.2 C 7.79 g/m*3 8.2 C 3.2 km/h
1807 01-03-2019 06:30:00 8.2 C 7.87 g/m*3 8.2 C 1.6 km/h
1808 01-03-2019 06:35:00 8.1 C 7.82 g/m*3 8.1 C 1.6 km/h
1809 01-03-2019 06:40:00 8.1 C 7.82 g/m*3 8.1 C 1.6 km/h
1810 01-03-2019 06:45:00 8.1 C 7.82 g/m*3 7.17 C 6.4 km/h
1811 01-03-2019 06:50:00 8 C 7.77 g/m*3 8 C 1.6 km/h
1812 01-03-2019 06:55:00 8 C 7.77 g/m*3 8 C 3.2 km/h
1813 01-03-2019 07:00:00 8 C 7.77 g/m*3 8 C 1.6 km/h
1814 01-03-2019 07:05:00 8.1 C 7.9 g/m*3 8.1 C 3.2 km/h
1815 01-03-2019 07:10:00 8.1 C 7.9 g/m*3 7.17 C 6.4 km/h
1816 01-03-2019 07:15:00 8.2 C 7.96 g/m*3 8.2 C 1.6 km/h
1817 01-03-2019 07:20:00 8.2 C 7.96 g/m*3 7.29 C 6.4 km/h
1818 01-03-2019 07:25:00 8.2 C 7.96 g/m*3 6.87 C 8.1 km/h
1819 01-03-2019 07:30:00 8.3 C 8.01 g/m*3 8.3 C 1.6 km/h
1820 01-03-2019 07:35:00 8.3 C 8.01 g/m*3 8.3 C 1.6 km/h
1821 01-03-2019 07:40:00 8.3 C 8.01 g/m*3 8.3 C 1.6 km/h
1822 01-03-2019 07:45:00 8.3 C 8.01 g/m*3 8.3 C 3.2 km/h
1823 01-03-2019 07:50:00 8.3 C 8.01 g/m*3 8.3 C 3.2 km/h
1824 01-03-2019 07:55:00 8.3 C 8.01 g/m*3 8.3 C 4.8 km/h
1825 01-03-2019 08:00:00 8.3 C 8.01 g/m*3 8.3 C 0 km/h
Sensor: Nr:Datum:Temp:Abs-Feuchte:Windchill:Wind:
Aussen-T/F 1826 01-03-2019 08:05:00 8.3 C 8.01 g/m*3 8.3 C 4.8 km/h
1827 01-03-2019 08:10:00 8.4 C 8.06 g/m*3 8.4 C 3.2 km/h
1828 01-03-2019 08:15:00 8.4 C 8.06 g/m*3 8.4 C 3.2 km/h
1829 01-03-2019 08:20:00 8.5 C 8.11 g/m*3 8.5 C 4.8 km/h
1830 01-03-2019 08:25:00 8.6 C 8.16 g/m*3 8.6 C 4.8 km/h
1831 01-03-2019 08:30:00 8.6 C 8.16 g/m*3 8.6 C 0 km/h
1832 01-03-2019 08:35:00 8.6 C 8.16 g/m*3 8.6 C 1.6 km/h
1833 01-03-2019 08:40:00 8.6 C 8.16 g/m*3 8.6 C 1.6 km/h
1834 01-03-2019 08:45:00 8.7 C 8.22 g/m*3 8.7 C 3.2 km/h
1835 01-03-2019 08:50:00 8.7 C 8.22 g/m*3 8.7 C 1.6 km/h
1836 01-03-2019 08:55:00 8.7 C 8.22 g/m*3 8.7 C 4.8 km/h
1837 01-03-2019 09:00:00 8.7 C 8.22 g/m*3 8.7 C 0 km/h
1838 01-03-2019 09:05:00 8.7 C 8.22 g/m*3 8.7 C 0 km/h
1839 01-03-2019 09:10:00 8.7 C 8.22 g/m*3 8.7 C 0 km/h
1840 01-03-2019 09:15:00 8.7 C 8.22 g/m*3 8.7 C 0 km/h
1841 01-03-2019 09:20:00 8.7 C 8.22 g/m*3 8.7 C 0 km/h
1842 01-03-2019 09:25:00 8.7 C 8.22 g/m*3 8.7 C 1.6 km/h
1843 01-03-2019 09:30:00 8.7 C 8.22 g/m*3 8.7 C 0 km/h
1844 01-03-2019 09:35:00 8.7 C 8.22 g/m*3 8.7 C 1.6 km/h
1845 01-03-2019 09:40:00 8.7 C 8.22 g/m*3 8.7 C 3.2 km/h
1846 01-03-2019 09:45:00 8.7 C 8.22 g/m*3 8.7 C 1.6 km/h
1847 01-03-2019 09:50:00 8.6 C 8.16 g/m*3 8.6 C 0 km/h
1848 01-03-2019 09:55:00 8.6 C 8.16 g/m*3 8.6 C 1.6 km/h
1849 01-03-2019 10:00:00 8.6 C 8.16 g/m*3 8.6 C 0 km/h
1850 01-03-2019 10:05:00 8.6 C 8.25 g/m*3 8.6 C 0 km/h
Sensor: Nr:Datum:Temp:Abs-Feuchte:Windchill:Wind:
Aussen-T/F 1851 01-03-2019 10:10:00 8.6 C 8.25 g/m*3 8.6 C 1.6 km/h
1852 01-03-2019 10:15:00 8.6 C 8.25 g/m*3 8.6 C 0 km/h
1853 01-03-2019 10:20:00 8.6 C 8.25 g/m*3 8.6 C 1.6 km/h
1854 01-03-2019 10:25:00 8.6 C 8.25 g/m*3 8.6 C 0 km/h
1855 01-03-2019 10:30:00 8.6 C 8.25 g/m*3 8.6 C 0 km/h
1856 01-03-2019 10:35:00 8.7 C 8.3 g/m*3 8.7 C 0 km/h
1857 01-03-2019 10:40:00 8.7 C 8.3 g/m*3 8.7 C 0 km/h
1858 01-03-2019 10:45:00 8.8 C 8.36 g/m*3 8.8 C 0 km/h
1859 01-03-2019 10:50:00 8.8 C 8.36 g/m*3 8.8 C 0 km/h
1860 01-03-2019 10:55:00 8.8 C 8.36 g/m*3 8.8 C 0 km/h
1861 01-03-2019 11:00:00 8.8 C 8.36 g/m*3 8.8 C 3.2 km/h
1862 01-03-2019 11:05:00 8.7 C 8.22 g/m*3 8.7 C 4.8 km/h
1863 01-03-2019 11:10:00 8.7 C 8.22 g/m*3 8.7 C 0 km/h
1864 01-03-2019 11:15:00 8.7 C 8.22 g/m*3 8.7 C 0 km/h
1865 01-03-2019 11:20:00 8.7 C 8.22 g/m*3 8.7 C 3.2 km/h
1866 01-03-2019 11:25:00 8.7 C 8.22 g/m*3 8.7 C 4.8 km/h
1867 01-03-2019 11:30:00 8.6 C 8.16 g/m*3 8.6 C 1.6 km/h
1868 01-03-2019 11:35:00 8.7 C 8.22 g/m*3 8.7 C 1.6 km/h
1869 01-03-2019 11:40:00 8.7 C 8.22 g/m*3 7.87 C 6.4 km/h
1870 01-03-2019 11:45:00 8.8 C 8.27 g/m*3 8.8 C 0 km/h
1871 01-03-2019 11:50:00 8.9 C 8.32 g/m*3 8.9 C 3.2 km/h
1872 01-03-2019 11:55:00 9.1 C 8.43 g/m*3 9.1 C 3.2 km/h
1873 01-03-2019 12:00:00 9.1 C 8.34 g/m*3 8.33 C 6.4 km/h
1874 01-03-2019 12:05:00 9.1 C 8.34 g/m*3 7.61 C 9.7 km/h
1875 01-03-2019 12:10:00 9.1 C 8.25 g/m*3 8.33 C 6.4 km/h
Sensor: Nr:Datum:Temp:Abs-Feuchte:Windchill:Wind:
Aussen-T/F 1876 01-03-2019 12:15:00 9.1 C 8.16 g/m*3 7.33 C 11.3 km/h
1877 01-03-2019 12:20:00 9.1 C 8.16 g/m*3 7.09 C 12.9 km/h
1878 01-03-2019 12:25:00 9.1 C 8.07 g/m*3 6.67 C 16.1 km/h
1879 01-03-2019 12:30:00 9 C 8.02 g/m*3 6.54 C 16.1 km/h
1880 01-03-2019 12:35:00 9.1 C 7.99 g/m*3 6.67 C 16.1 km/h
1881 01-03-2019 12:40:00 9 C 7.93 g/m*3 6.97 C 12.9 km/h
1882 01-03-2019 12:45:00 8.9 C 7.88 g/m*3 6.85 C 12.9 km/h
1883 01-03-2019 12:50:00 8.8 C 7.83 g/m*3 6.72 C 12.9 km/h
1884 01-03-2019 12:55:00 8.8 C 7.83 g/m*3 6.72 C 12.9 km/h
1885 01-03-2019 13:00:00 8.7 C 7.87 g/m*3 6.17 C 16.1 km/h
1886 01-03-2019 13:05:00 8.7 C 7.87 g/m*3 6.6 C 12.9 km/h
1887 01-03-2019 13:10:00 8.7 C 7.87 g/m*3 6.6 C 12.9 km/h
1888 01-03-2019 13:15:00 8.6 C 7.82 g/m*3 6.05 C 16.1 km/h
1889 01-03-2019 13:20:00 8.5 C 7.77 g/m*3 7.22 C 8.1 km/h
1890 01-03-2019 13:25:00 8.4 C 7.72 g/m*3 6.49 C 11.3 km/h
1891 01-03-2019 13:30:00 8.4 C 7.8 g/m*3 7.52 C 6.4 km/h
1892 01-03-2019 13:35:00 8.4 C 7.8 g/m*3 7.52 C 6.4 km/h
1893 01-03-2019 13:40:00 8.3 C 7.75 g/m*3 6.12 C 12.9 km/h
1894 01-03-2019 13:45:00 8.4 C 7.8 g/m*3 7.52 C 6.4 km/h
1895 01-03-2019 13:50:00 8.4 C 7.8 g/m*3 7.52 C 6.4 km/h
1896 01-03-2019 13:55:00 8.4 C 7.8 g/m*3 7.52 C 6.4 km/h
1897 01-03-2019 14:00:00 8.4 C 7.8 g/m*3 8.4 C 4.8 km/h
1898 01-03-2019 14:05:00 8.4 C 7.8 g/m*3 8.4 C 1.6 km/h
1899 01-03-2019 14:10:00 8.4 C 7.8 g/m*3 8.4 C 3.2 km/h
1900 01-03-2019 14:15:00 8.3 C 7.67 g/m*3 6.99 C 8.1 km/h
Sensor: Nr:Datum:Temp:Abs-Feuchte:Windchill:Wind:
Aussen-T/F 1901 01-03-2019 14:20:00 8.4 C 7.72 g/m*3 6.78 C 9.7 km/h
1902 01-03-2019 14:25:00 8.4 C 7.72 g/m*3 6.78 C 9.7 km/h
1903 01-03-2019 14:30:00 8.3 C 7.59 g/m*3 6.37 C 11.3 km/h
1904 01-03-2019 14:35:00 8.4 C 7.63 g/m*3 6.78 C 9.7 km/h
1905 01-03-2019 14:40:00 8.4 C 7.55 g/m*3 6.24 C 12.9 km/h
1906 01-03-2019 14:45:00 8.4 C 7.55 g/m*3 6.78 C 9.7 km/h
1907 01-03-2019 14:50:00 8.4 C 7.55 g/m*3 6.49 C 11.3 km/h
1908 01-03-2019 14:55:00 8.4 C 7.55 g/m*3 6.78 C 9.7 km/h
1909 01-03-2019 15:00:00 8.4 C 7.55 g/m*3 8.4 C 3.2 km/h
1910 01-03-2019 15:05:00 8.4 C 7.55 g/m*3 8.4 C 4.8 km/h
1911 01-03-2019 15:10:00 8.4 C 7.63 g/m*3 7.52 C 6.4 km/h
1912 01-03-2019 15:15:00 8.3 C 7.5 g/m*3 6.37 C 11.3 km/h
1913 01-03-2019 15:20:00 8.3 C 7.5 g/m*3 6.99 C 8.1 km/h
1914 01-03-2019 15:25:00 8.3 C 7.59 g/m*3 6.66 C 9.7 km/h
1915 01-03-2019 15:30:00 8.3 C 7.59 g/m*3 7.41 C 6.4 km/h
1916 01-03-2019 15:35:00 8.3 C 7.59 g/m*3 8.3 C 4.8 km/h
1917 01-03-2019 15:40:00 8.3 C 7.59 g/m*3 6.99 C 8.1 km/h
1918 01-03-2019 15:45:00 8.3 C 7.59 g/m*3 8.3 C 0 km/h
1919 01-03-2019 15:50:00 8.3 C 7.59 g/m*3 8.3 C 3.2 km/h
1920 01-03-2019 15:55:00 8.3 C 7.59 g/m*3 8.3 C 1.6 km/h
1921 01-03-2019 16:00:00 8.3 C 7.59 g/m*3 8.3 C 4.8 km/h
1922 01-03-2019 16:05:00 8.4 C 7.63 g/m*3 8.4 C 3.2 km/h
1923 01-03-2019 16:10:00 8.4 C 7.63 g/m*3 6.01 C 14.5 km/h
1924 01-03-2019 16:15:00 8.4 C 7.63 g/m*3 8.4 C 4.8 km/h
1925 01-03-2019 16:20:00 8.4 C 7.63 g/m*3 7.52 C 6.4 km/h
Sensor: Nr:Datum:Temp:Abs-Feuchte:Windchill:Wind:
Aussen-T/F 1926 01-03-2019 16:25:00 8.3 C 7.67 g/m*3 8.3 C 3.2 km/h
1927 01-03-2019 16:30:00 8.3 C 7.67 g/m*3 6.37 C 11.3 km/h
1928 01-03-2019 16:35:00 8.3 C 7.59 g/m*3 8.3 C 0 km/h
1929 01-03-2019 16:40:00 8.3 C 7.67 g/m*3 8.3 C 0 km/h
1930 01-03-2019 16:45:00 8.3 C 7.67 g/m*3 8.3 C 1.6 km/h
1931 01-03-2019 16:50:00 8.4 C 7.72 g/m*3 8.4 C 4.8 km/h
1932 01-03-2019 16:55:00 8.3 C 7.67 g/m*3 8.3 C 1.6 km/h
1933 01-03-2019 17:00:00 8.3 C 7.67 g/m*3 8.3 C 1.6 km/h
1934 01-03-2019 17:05:00 8.3 C 7.67 g/m*3 8.3 C 3.2 km/h
1935 01-03-2019 17:10:00 8.3 C 7.67 g/m*3 8.3 C 0 km/h
1936 01-03-2019 17:15:00 8.3 C 7.67 g/m*3 8.3 C 0 km/h
1937 01-03-2019 17:20:00 8.3 C 7.67 g/m*3 8.3 C 1.6 km/h
1938 01-03-2019 17:25:00 8.3 C 7.67 g/m*3 8.3 C 0 km/h
1939 01-03-2019 17:30:00 8.2 C 7.62 g/m*3 8.2 C 0 km/h
1940 01-03-2019 17:35:00 8.2 C 7.62 g/m*3 8.2 C 0 km/h
1941 01-03-2019 17:40:00 8.3 C 7.67 g/m*3 8.3 C 4.8 km/h
1942 01-03-2019 17:45:00 8.3 C 7.67 g/m*3 7.41 C 6.4 km/h
1943 01-03-2019 17:50:00 8.3 C 7.67 g/m*3 6.66 C 9.7 km/h
1944 01-03-2019 17:55:00 8.3 C 7.67 g/m*3 6.37 C 11.3 km/h
1945 01-03-2019 18:00:00 8.2 C 7.54 g/m*3 5.18 C 19.3 km/h
1946 01-03-2019 18:05:00 8 C 7.44 g/m*3 5.52 C 14.5 km/h
1947 01-03-2019 18:10:00 7.8 C 7.35 g/m*3 4.86 C 17.7 km/h
1948 01-03-2019 18:15:00 7.8 C 7.35 g/m*3 5.27 C 14.5 km/h
1949 01-03-2019 18:20:00 7.7 C 7.22 g/m*3 5.65 C 11.3 km/h
1950 01-03-2019 18:25:00 7.6 C 7.17 g/m*3 5.26 C 12.9 km/h
Sensor: Nr:Datum:Temp:Abs-Feuchte:Windchill:Wind:
Aussen-T/F 1951 01-03-2019 18:30:00 7.6 C 7.17 g/m*3 5.82 C 9.7 km/h
1952 01-03-2019 18:35:00 7.5 C 7.12 g/m*3 5.7 C 9.7 km/h
1953 01-03-2019 18:40:00 7.4 C 7.08 g/m*3 5.02 C 12.9 km/h
1954 01-03-2019 18:45:00 7.3 C 7.03 g/m*3 5.81 C 8.1 km/h
1955 01-03-2019 18:50:00 7.3 C 7.03 g/m*3 5.16 C 11.3 km/h
1956 01-03-2019 18:55:00 7.2 C 7.06 g/m*3 5.69 C 8.1 km/h
1957 01-03-2019 19:00:00 7.2 C 7.06 g/m*3 4.77 C 12.9 km/h
1958 01-03-2019 19:05:00 7.1 C 7.02 g/m*3 4.41 C 14.5 km/h
1959 01-03-2019 19:10:00 7.1 C 6.94 g/m*3 4.65 C 12.9 km/h
1960 01-03-2019 19:15:00 7 C 6.97 g/m*3 4.53 C 12.9 km/h
1961 01-03-2019 19:20:00 6.9 C 6.93 g/m*3 5.34 C 8.1 km/h
1962 01-03-2019 19:25:00 6.9 C 6.93 g/m*3 4.41 C 12.9 km/h
1963 01-03-2019 19:30:00 6.8 C 6.88 g/m*3 6.8 C 3.2 km/h
1964 01-03-2019 19:35:00 6.8 C 6.88 g/m*3 6.8 C 4.8 km/h
1965 01-03-2019 19:40:00 6.8 C 6.88 g/m*3 6.8 C 4.8 km/h
1966 01-03-2019 19:45:00 6.8 C 6.88 g/m*3 6.8 C 4.8 km/h
1967 01-03-2019 19:50:00 6.7 C 6.84 g/m*3 6.7 C 4.8 km/h
1968 01-03-2019 19:55:00 6.7 C 6.84 g/m*3 6.7 C 3.2 km/h
1969 01-03-2019 20:00:00 6.7 C 6.91 g/m*3 6.7 C 4.8 km/h
1970 01-03-2019 20:05:00 6.7 C 6.91 g/m*3 6.7 C 0 km/h
1971 01-03-2019 20:10:00 6.7 C 6.91 g/m*3 6.7 C 0 km/h
1972 01-03-2019 20:15:00 6.7 C 6.91 g/m*3 6.7 C 3.2 km/h
1973 01-03-2019 20:20:00 6.6 C 6.87 g/m*3 6.6 C 0 km/h
1974 01-03-2019 20:25:00 6.6 C 6.87 g/m*3 6.6 C 1.6 km/h
1975 01-03-2019 20:30:00 6.6 C 6.87 g/m*3 6.6 C 3.2 km/h
Sensor: Nr:Datum:Temp:Abs-Feuchte:Windchill:Wind:
Aussen-T/F 1976 01-03-2019 20:35:00 6.6 C 6.87 g/m*3 6.6 C 4.8 km/h
1977 01-03-2019 20:40:00 6.6 C 6.87 g/m*3 6.6 C 3.2 km/h
1978 01-03-2019 20:45:00 6.6 C 6.87 g/m*3 6.6 C 0 km/h
1979 01-03-2019 20:50:00 6.6 C 6.87 g/m*3 6.6 C 0 km/h
1980 01-03-2019 20:55:00 6.5 C 6.82 g/m*3 6.5 C 0 km/h
1981 01-03-2019 21:00:00 6.5 C 6.82 g/m*3 6.5 C 0 km/h
1982 01-03-2019 21:05:00 6.5 C 6.82 g/m*3 6.5 C 0 km/h
1983 01-03-2019 21:10:00 6.4 C 6.78 g/m*3 6.4 C 0 km/h
1984 01-03-2019 21:15:00 6.4 C 6.78 g/m*3 6.4 C 3.2 km/h
1985 01-03-2019 21:20:00 6.4 C 6.78 g/m*3 6.4 C 1.6 km/h
1986 01-03-2019 21:25:00 6.4 C 6.78 g/m*3 6.4 C 3.2 km/h
1987 01-03-2019 21:30:00 6.5 C 6.75 g/m*3 6.5 C 0 km/h
1988 01-03-2019 21:35:00 6.5 C 6.82 g/m*3 6.5 C 0 km/h
1989 01-03-2019 21:40:00 6.5 C 6.82 g/m*3 6.5 C 3.2 km/h
1990 01-03-2019 21:45:00 6.5 C 6.75 g/m*3 6.5 C 1.6 km/h
1991 01-03-2019 21:50:00 6.4 C 6.71 g/m*3 6.4 C 1.6 km/h
1992 01-03-2019 21:55:00 6.4 C 6.71 g/m*3 6.4 C 0 km/h
1993 01-03-2019 22:00:00 6.4 C 6.71 g/m*3 6.4 C 0 km/h
1994 01-03-2019 22:05:00 6.4 C 6.78 g/m*3 6.4 C 0 km/h
1995 01-03-2019 22:10:00 6.3 C 6.74 g/m*3 6.3 C 0 km/h
1996 01-03-2019 22:15:00 6.3 C 6.74 g/m*3 6.3 C 0 km/h
1997 01-03-2019 22:20:00 6.3 C 6.74 g/m*3 6.3 C 0 km/h
1998 01-03-2019 22:25:00 6.3 C 6.74 g/m*3 6.3 C 0 km/h
1999 01-03-2019 22:30:00 6.3 C 6.74 g/m*3 6.3 C 1.6 km/h
2000 01-03-2019 22:35:00 6.3 C 6.66 g/m*3 6.3 C 4.8 km/h
Sensor: Nr:Datum:Temp:Abs-Feuchte:Windchill:Wind:
Aussen-T/F 2001 01-03-2019 22:40:00 6.4 C 6.71 g/m*3 6.4 C 3.2 km/h
2002 01-03-2019 22:45:00 6.4 C 6.63 g/m*3 6.4 C 3.2 km/h
2003 01-03-2019 22:50:00 6.5 C 6.67 g/m*3 6.5 C 3.2 km/h
2004 01-03-2019 22:55:00 6.6 C 6.64 g/m*3 6.6 C 4.8 km/h
2005 01-03-2019 23:00:00 6.6 C 6.64 g/m*3 6.6 C 4.8 km/h
2006 01-03-2019 23:05:00 6.7 C 6.69 g/m*3 6.7 C 0 km/h
2007 01-03-2019 23:10:00 6.7 C 6.69 g/m*3 6.7 C 3.2 km/h
2008 01-03-2019 23:15:00 6.6 C 6.64 g/m*3 6.6 C 0 km/h
2009 01-03-2019 23:20:00 6.6 C 6.64 g/m*3 6.6 C 1.6 km/h
2010 01-03-2019 23:25:00 6.6 C 6.64 g/m*3 6.6 C 0 km/h
2011 01-03-2019 23:30:00 6.6 C 6.64 g/m*3 6.6 C 0 km/h
2012 01-03-2019 23:35:00 6.5 C 6.67 g/m*3 6.5 C 0 km/h
2013 01-03-2019 23:40:00 6.4 C 6.63 g/m*3 6.4 C 0 km/h
2014 01-03-2019 23:45:00 6.4 C 6.63 g/m*3 6.4 C 0 km/h
2015 01-03-2019 23:50:00 6.4 C 6.71 g/m*3 6.4 C 0 km/h
2016 01-03-2019 23:55:00 6.3 C 6.66 g/m*3 6.3 C 1.6 km/h
2017 02-03-2019 00:00:00 6.3 C 6.66 g/m*3 6.3 C 0 km/h
2018 02-03-2019 00:05:00 6.3 C 6.59 g/m*3 6.3 C 0 km/h
2019 02-03-2019 00:10:00 6.2 C 6.62 g/m*3 6.2 C 0 km/h
2020 02-03-2019 00:15:00 6.2 C 6.62 g/m*3 6.2 C 0 km/h
2021 02-03-2019 00:20:00 6.2 C 6.62 g/m*3 6.2 C 0 km/h
2022 02-03-2019 00:25:00 6.2 C 6.62 g/m*3 4.52 C 8.1 km/h
2023 02-03-2019 00:30:00 6.2 C 6.62 g/m*3 4.52 C 8.1 km/h
2024 02-03-2019 00:35:00 6.2 C 6.55 g/m*3 4.15 C 9.7 km/h
2025 02-03-2019 00:40:00 6.2 C 6.47 g/m*3 4.15 C 9.7 km/h
Sensor: Nr:Datum:Temp:Abs-Feuchte:Windchill:Wind:
Aussen-T/F 2026 02-03-2019 00:45:00 6.1 C 6.43 g/m*3 4.4 C 8.1 km/h
2027 02-03-2019 00:50:00 6.1 C 6.43 g/m*3 6.1 C 4.8 km/h
2028 02-03-2019 00:55:00 6.1 C 6.43 g/m*3 6.1 C 3.2 km/h
2029 02-03-2019 01:00:00 6.1 C 6.43 g/m*3 6.1 C 4.8 km/h
2030 02-03-2019 01:05:00 6 C 6.39 g/m*3 6 C 1.6 km/h
2031 02-03-2019 01:10:00 5.9 C 6.35 g/m*3 5.9 C 4.8 km/h
2032 02-03-2019 01:15:00 5.9 C 6.42 g/m*3 5.9 C 0 km/h
2033 02-03-2019 01:20:00 5.9 C 6.42 g/m*3 5.9 C 0 km/h
2034 02-03-2019 01:25:00 5.8 C 6.38 g/m*3 5.8 C 1.6 km/h
2035 02-03-2019 01:30:00 5.8 C 6.38 g/m*3 5.8 C 3.2 km/h
2036 02-03-2019 01:35:00 5.8 C 6.38 g/m*3 5.8 C 0 km/h
2037 02-03-2019 01:40:00 5.8 C 6.45 g/m*3 5.8 C 0 km/h
2038 02-03-2019 01:45:00 5.8 C 6.45 g/m*3 5.8 C 0 km/h
2039 02-03-2019 01:50:00 5.7 C 6.4 g/m*3 5.7 C 1.6 km/h
2040 02-03-2019 01:55:00 5.7 C 6.4 g/m*3 5.7 C 1.6 km/h
2041 02-03-2019 02:00:00 5.7 C 6.4 g/m*3 5.7 C 0 km/h
2042 02-03-2019 02:05:00 5.7 C 6.4 g/m*3 5.7 C 0 km/h
2043 02-03-2019 02:10:00 5.7 C 6.48 g/m*3 5.7 C 0 km/h
2044 02-03-2019 02:15:00 5.7 C 6.48 g/m*3 5.7 C 1.6 km/h
2045 02-03-2019 02:20:00 5.7 C 6.48 g/m*3 5.7 C 3.2 km/h
2046 02-03-2019 02:25:00 5.6 C 6.36 g/m*3 5.6 C 1.6 km/h
2047 02-03-2019 02:30:00 5.6 C 6.43 g/m*3 5.6 C 0 km/h
2048 02-03-2019 02:35:00 5.6 C 6.43 g/m*3 5.6 C 3.2 km/h
2049 02-03-2019 02:40:00 5.6 C 6.43 g/m*3 5.6 C 1.6 km/h
2050 02-03-2019 02:45:00 5.6 C 6.43 g/m*3 5.6 C 0 km/h
Sensor: Nr:Datum:Temp:Abs-Feuchte:Windchill:Wind:
Aussen-T/F 2051 02-03-2019 02:50:00 5.6 C 6.43 g/m*3 5.6 C 0 km/h
2052 02-03-2019 02:55:00 5.6 C 6.43 g/m*3 5.6 C 0 km/h
2053 02-03-2019 03:00:00 5.6 C 6.43 g/m*3 5.6 C 0 km/h
2054 02-03-2019 03:05:00 5.6 C 6.43 g/m*3 5.6 C 1.6 km/h
2055 02-03-2019 03:10:00 5.6 C 6.43 g/m*3 5.6 C 3.2 km/h
2056 02-03-2019 03:15:00 5.6 C 6.43 g/m*3 5.6 C 1.6 km/h
2057 02-03-2019 03:20:00 5.6 C 6.43 g/m*3 5.6 C 3.2 km/h
2058 02-03-2019 03:25:00 5.6 C 6.43 g/m*3 5.6 C 3.2 km/h
2059 02-03-2019 03:30:00 5.7 C 6.48 g/m*3 5.7 C 1.6 km/h
2060 02-03-2019 03:35:00 5.7 C 6.48 g/m*3 5.7 C 1.6 km/h
2061 02-03-2019 03:40:00 5.7 C 6.4 g/m*3 5.7 C 1.6 km/h
2062 02-03-2019 03:45:00 5.7 C 6.4 g/m*3 5.7 C 0 km/h
2063 02-03-2019 03:50:00 5.7 C 6.4 g/m*3 5.7 C 0 km/h
2064 02-03-2019 03:55:00 5.7 C 6.4 g/m*3 5.7 C 0 km/h
2065 02-03-2019 04:00:00 5.7 C 6.4 g/m*3 5.7 C 0 km/h
2066 02-03-2019 04:05:00 5.7 C 6.48 g/m*3 5.7 C 0 km/h
2067 02-03-2019 04:10:00 5.7 C 6.48 g/m*3 5.7 C 0 km/h
2068 02-03-2019 04:15:00 5.6 C 6.36 g/m*3 5.6 C 0 km/h
2069 02-03-2019 04:20:00 5.6 C 6.43 g/m*3 5.6 C 0 km/h
2070 02-03-2019 04:25:00 5.6 C 6.43 g/m*3 5.6 C 0 km/h
2071 02-03-2019 04:30:00 5.7 C 6.48 g/m*3 5.7 C 0 km/h
2072 02-03-2019 04:35:00 5.7 C 6.48 g/m*3 5.7 C 0 km/h
2073 02-03-2019 04:40:00 5.7 C 6.48 g/m*3 5.7 C 1.6 km/h
2074 02-03-2019 04:45:00 5.8 C 6.59 g/m*3 5.8 C 0 km/h
2075 02-03-2019 04:50:00 5.8 C 6.52 g/m*3 5.8 C 1.6 km/h
Sensor: Nr:Datum:Temp:Abs-Feuchte:Windchill:Wind:
Aussen-T/F 2076 02-03-2019 04:55:00 5.8 C 6.52 g/m*3 5.8 C 0 km/h
2077 02-03-2019 05:00:00 5.8 C 6.52 g/m*3 5.8 C 4.8 km/h
2078 02-03-2019 05:05:00 5.9 C 6.56 g/m*3 4.63 C 6.4 km/h
2079 02-03-2019 05:10:00 5.9 C 6.56 g/m*3 5.9 C 3.2 km/h
2080 02-03-2019 05:15:00 5.9 C 6.56 g/m*3 5.9 C 1.6 km/h
2081 02-03-2019 05:20:00 6 C 6.6 g/m*3 6 C 4.8 km/h
2082 02-03-2019 05:25:00 6.1 C 6.65 g/m*3 4.86 C 6.4 km/h
2083 02-03-2019 05:30:00 6.2 C 6.69 g/m*3 4.98 C 6.4 km/h
2084 02-03-2019 05:35:00 6.3 C 6.74 g/m*3 6.3 C 4.8 km/h
2085 02-03-2019 05:40:00 6.3 C 6.74 g/m*3 5.1 C 6.4 km/h
2086 02-03-2019 05:45:00 6.3 C 6.74 g/m*3 4.64 C 8.1 km/h
2087 02-03-2019 05:50:00 6.3 C 6.74 g/m*3 6.3 C 3.2 km/h
2088 02-03-2019 05:55:00 6.3 C 6.74 g/m*3 6.3 C 1.6 km/h
2089 02-03-2019 06:00:00 6.3 C 6.74 g/m*3 6.3 C 4.8 km/h
2090 02-03-2019 06:05:00 6.3 C 6.74 g/m*3 6.3 C 4.8 km/h
2091 02-03-2019 06:10:00 6.3 C 6.74 g/m*3 6.3 C 1.6 km/h
2092 02-03-2019 06:15:00 6.3 C 6.74 g/m*3 6.3 C 0 km/h
2093 02-03-2019 06:20:00 6.3 C 6.74 g/m*3 6.3 C 3.2 km/h
2094 02-03-2019 06:25:00 6.3 C 6.74 g/m*3 6.3 C 1.6 km/h
2095 02-03-2019 06:30:00 6.3 C 6.74 g/m*3 6.3 C 3.2 km/h
2096 02-03-2019 06:35:00 6.3 C 6.74 g/m*3 6.3 C 1.6 km/h
2097 02-03-2019 06:40:00 6.3 C 6.74 g/m*3 5.1 C 6.4 km/h
2098 02-03-2019 06:45:00 6.3 C 6.74 g/m*3 6.3 C 4.8 km/h
2099 02-03-2019 06:50:00 6.3 C 6.74 g/m*3 5.1 C 6.4 km/h
2100 02-03-2019 06:55:00 6.4 C 6.78 g/m*3 5.21 C 6.4 km/h
Sensor: Nr:Datum:Temp:Abs-Feuchte:Windchill:Wind:
Aussen-T/F 2101 02-03-2019 07:00:00 6.4 C 6.78 g/m*3 4.75 C 8.1 km/h
2102 02-03-2019 07:05:00 6.6 C 6.87 g/m*3 6.6 C 4.8 km/h
2103 02-03-2019 07:10:00 6.6 C 6.87 g/m*3 4.99 C 8.1 km/h
2104 02-03-2019 07:15:00 6.6 C 6.87 g/m*3 5.44 C 6.4 km/h
2105 02-03-2019 07:20:00 6.7 C 6.91 g/m*3 6.7 C 3.2 km/h
2106 02-03-2019 07:25:00 6.7 C 6.91 g/m*3 6.7 C 3.2 km/h
2107 02-03-2019 07:30:00 6.7 C 6.91 g/m*3 6.7 C 3.2 km/h
2108 02-03-2019 07:35:00 6.7 C 6.91 g/m*3 6.7 C 3.2 km/h
2109 02-03-2019 07:40:00 6.7 C 6.91 g/m*3 6.7 C 4.8 km/h
2110 02-03-2019 07:45:00 6.7 C 6.91 g/m*3 6.7 C 1.6 km/h
2111 02-03-2019 07:50:00 6.7 C 6.91 g/m*3 6.7 C 4.8 km/h
2112 02-03-2019 07:55:00 6.7 C 6.91 g/m*3 6.7 C 4.8 km/h
2113 02-03-2019 08:00:00 6.8 C 6.96 g/m*3 6.8 C 0 km/h
2114 02-03-2019 08:05:00 6.8 C 6.96 g/m*3 6.8 C 4.8 km/h
2115 02-03-2019 08:10:00 6.8 C 6.96 g/m*3 6.8 C 4.8 km/h
2116 02-03-2019 08:15:00 6.9 C 6.93 g/m*3 6.9 C 4.8 km/h
2117 02-03-2019 08:20:00 6.9 C 7.01 g/m*3 6.9 C 4.8 km/h
2118 02-03-2019 08:25:00 7 C 7.05 g/m*3 7 C 3.2 km/h
2119 02-03-2019 08:30:00 7.1 C 7.02 g/m*3 6.02 C 6.4 km/h
2120 02-03-2019 08:35:00 7.1 C 7.02 g/m*3 7.1 C 4.8 km/h
2121 02-03-2019 08:40:00 7.1 C 7.02 g/m*3 7.1 C 3.2 km/h
2122 02-03-2019 08:45:00 7.2 C 7.06 g/m*3 6.13 C 6.4 km/h
2123 02-03-2019 08:50:00 7.2 C 7.06 g/m*3 7.2 C 4.8 km/h
2124 02-03-2019 08:55:00 7.3 C 7.11 g/m*3 5.16 C 11.3 km/h
2125 02-03-2019 09:00:00 7.3 C 7.11 g/m*3 5.81 C 8.1 km/h
Sensor: Nr:Datum:Temp:Abs-Feuchte:Windchill:Wind:
Aussen-T/F 2126 02-03-2019 09:05:00 7.4 C 7.16 g/m*3 5.58 C 9.7 km/h
2127 02-03-2019 09:10:00 7.5 C 7.2 g/m*3 6.48 C 6.4 km/h
2128 02-03-2019 09:15:00 7.6 C 7.17 g/m*3 5.82 C 9.7 km/h
2129 02-03-2019 09:20:00 7.6 C 7.17 g/m*3 7.6 C 4.8 km/h
2130 02-03-2019 09:25:00 7.7 C 7.22 g/m*3 5.65 C 11.3 km/h
2131 02-03-2019 09:30:00 7.7 C 7.22 g/m*3 5.94 C 9.7 km/h
2132 02-03-2019 09:35:00 7.8 C 7.26 g/m*3 6.06 C 9.7 km/h
2133 02-03-2019 09:40:00 7.8 C 7.18 g/m*3 5.77 C 11.3 km/h
2134 02-03-2019 09:45:00 7.8 C 7.18 g/m*3 5.77 C 11.3 km/h
2135 02-03-2019 09:50:00 7.9 C 7.23 g/m*3 5.63 C 12.9 km/h
2136 02-03-2019 09:55:00 7.9 C 7.23 g/m*3 6.52 C 8.1 km/h
2137 02-03-2019 10:00:00 7.9 C 7.23 g/m*3 6.52 C 8.1 km/h
2138 02-03-2019 10:05:00 7.9 C 7.23 g/m*3 6.94 C 6.4 km/h
2139 02-03-2019 10:10:00 7.9 C 7.23 g/m*3 5.89 C 11.3 km/h
2140 02-03-2019 10:15:00 7.9 C 7.23 g/m*3 6.18 C 9.7 km/h
2141 02-03-2019 10:20:00 7.9 C 7.23 g/m*3 7.9 C 4.8 km/h
2142 02-03-2019 10:25:00 8 C 7.28 g/m*3 6.3 C 9.7 km/h
2143 02-03-2019 10:30:00 8.1 C 7.32 g/m*3 8.1 C 4.8 km/h
2144 02-03-2019 10:35:00 8.1 C 7.24 g/m*3 6.42 C 9.7 km/h
2145 02-03-2019 10:40:00 8.1 C 7.32 g/m*3 7.17 C 6.4 km/h
2146 02-03-2019 10:45:00 8.2 C 7.37 g/m*3 6.87 C 8.1 km/h
2147 02-03-2019 10:50:00 8.3 C 7.33 g/m*3 6.66 C 9.7 km/h
2148 02-03-2019 10:55:00 8.3 C 7.33 g/m*3 7.41 C 6.4 km/h
2149 02-03-2019 11:00:00 8.4 C 7.38 g/m*3 6.78 C 9.7 km/h
2150 02-03-2019 11:05:00 8.6 C 7.48 g/m*3 6.73 C 11.3 km/h
Sensor: Nr:Datum:Temp:Abs-Feuchte:Windchill:Wind:
Aussen-T/F 2151 02-03-2019 11:10:00 8.7 C 7.44 g/m*3 7.13 C 9.7 km/h
2152 02-03-2019 11:15:00 8.7 C 7.44 g/m*3 7.13 C 9.7 km/h
2153 02-03-2019 11:20:00 8.8 C 7.49 g/m*3 6.97 C 11.3 km/h
2154 02-03-2019 11:25:00 8.9 C 7.53 g/m*3 7.69 C 8.1 km/h
2155 02-03-2019 11:30:00 9.1 C 7.63 g/m*3 9.1 C 4.8 km/h
2156 02-03-2019 11:35:00 9.2 C 7.59 g/m*3 8.05 C 8.1 km/h
2157 02-03-2019 11:40:00 9.3 C 7.55 g/m*3 8.16 C 8.1 km/h
2158 02-03-2019 11:45:00 9.3 C 7.64 g/m*3 7.85 C 9.7 km/h
2159 02-03-2019 11:50:00 9.4 C 7.6 g/m*3 7.97 C 9.7 km/h
2160 02-03-2019 11:55:00 9.5 C 7.55 g/m*3 8.4 C 8.1 km/h
2161 02-03-2019 12:00:00 9.6 C 7.69 g/m*3 8.21 C 9.7 km/h
2162 02-03-2019 12:05:00 9.7 C 7.74 g/m*3 8.33 C 9.7 km/h
2163 02-03-2019 12:10:00 9.8 C 7.79 g/m*3 8.18 C 11.3 km/h
2164 02-03-2019 12:15:00 10 C 7.8 g/m*3 8.42 C 11.3 km/h
2165 02-03-2019 12:20:00 10.1 C 7.85 g/m*3 8.8 C 9.7 km/h
2166 02-03-2019 12:25:00 10.1 C 7.85 g/m*3 9.1 C 8.1 km/h
2167 02-03-2019 12:30:00 10.1 C 7.75 g/m*3 9.1 C 8.1 km/h
2168 02-03-2019 12:35:00 10.1 C 7.75 g/m*3 9.1 C 8.1 km/h
2169 02-03-2019 12:40:00 10 C 7.71 g/m*3 8.68 C 9.7 km/h
2170 02-03-2019 12:45:00 9.9 C 7.66 g/m*3 8.87 C 8.1 km/h
2171 02-03-2019 12:50:00 9.9 C 7.75 g/m*3 8.87 C 8.1 km/h
2172 02-03-2019 12:55:00 10 C 7.71 g/m*3 8.99 C 8.1 km/h
2173 02-03-2019 13:00:00 10 C 7.71 g/m*3 9.37 C 6.4 km/h
2174 02-03-2019 13:05:00 10.2 C 7.9 g/m*3 10.2 C 4.8 km/h
2175 02-03-2019 13:10:00 10.4 C 7.9 g/m*3 9.46 C 8.1 km/h
Sensor: Nr:Datum:Temp:Abs-Feuchte:Windchill:Wind:
Aussen-T/F 2176 02-03-2019 13:15:00 10.6 C 7.91 g/m*3 9.4 C 9.7 km/h
2177 02-03-2019 13:20:00 10.7 C 7.86 g/m*3 9.52 C 9.7 km/h
2178 02-03-2019 13:25:00 10.7 C 7.76 g/m*3 9.26 C 11.3 km/h
2179 02-03-2019 13:30:00 10.7 C 7.76 g/m*3 9.52 C 9.7 km/h
2180 02-03-2019 13:35:00 10.7 C 7.76 g/m*3 9.52 C 9.7 km/h
2181 02-03-2019 13:40:00 10.7 C 7.76 g/m*3 9.81 C 8.1 km/h
2182 02-03-2019 13:45:00 10.8 C 7.81 g/m*3 10.29 C 6.4 km/h
2183 02-03-2019 13:50:00 11 C 7.81 g/m*3 10.16 C 8.1 km/h
2184 02-03-2019 13:55:00 11.1 C 7.86 g/m*3 11.1 C 9.7 km/h
2185 02-03-2019 14:00:00 11.1 C 7.76 g/m*3 11.1 C 9.7 km/h
2186 02-03-2019 14:05:00 11.2 C 7.8 g/m*3 11.2 C 6.4 km/h
2187 02-03-2019 14:10:00 11.2 C 7.8 g/m*3 11.2 C 8.1 km/h
2188 02-03-2019 14:15:00 11.3 C 7.75 g/m*3 11.3 C 8.1 km/h
2189 02-03-2019 14:20:00 11.4 C 7.7 g/m*3 11.4 C 6.4 km/h
2190 02-03-2019 14:25:00 11.4 C 7.7 g/m*3 11.4 C 9.7 km/h
2191 02-03-2019 14:30:00 11.4 C 7.7 g/m*3 11.4 C 6.4 km/h
2192 02-03-2019 14:35:00 11.5 C 7.85 g/m*3 11.5 C 4.8 km/h
2193 02-03-2019 14:40:00 11.6 C 7.8 g/m*3 11.6 C 4.8 km/h
2194 02-03-2019 14:45:00 11.6 C 7.8 g/m*3 11.6 C 4.8 km/h
2195 02-03-2019 14:50:00 11.6 C 7.8 g/m*3 11.6 C 6.4 km/h
2196 02-03-2019 14:55:00 11.6 C 7.69 g/m*3 11.6 C 8.1 km/h
2197 02-03-2019 15:00:00 11.7 C 7.74 g/m*3 11.7 C 8.1 km/h
2198 02-03-2019 15:05:00 11.7 C 7.74 g/m*3 11.7 C 8.1 km/h
2199 02-03-2019 15:10:00 11.8 C 7.68 g/m*3 11.8 C 4.8 km/h
2200 02-03-2019 15:15:00 11.8 C 7.68 g/m*3 11.8 C 9.7 km/h
Sensor: Nr:Datum:Temp:Abs-Feuchte:Windchill:Wind:
Aussen-T/F 2201 02-03-2019 15:20:00 11.8 C 7.58 g/m*3 11.8 C 12.9 km/h
2202 02-03-2019 15:25:00 11.9 C 7.63 g/m*3 11.9 C 9.7 km/h
2203 02-03-2019 15:30:00 11.9 C 7.63 g/m*3 11.9 C 9.7 km/h
2204 02-03-2019 15:35:00 12 C 7.67 g/m*3 12 C 11.3 km/h
2205 02-03-2019 15:40:00 12 C 7.57 g/m*3 12 C 8.1 km/h
2206 02-03-2019 15:45:00 12.1 C 7.72 g/m*3 12.1 C 8.1 km/h
2207 02-03-2019 15:50:00 12.2 C 7.77 g/m*3 12.2 C 6.4 km/h
2208 02-03-2019 15:55:00 12.2 C 7.66 g/m*3 12.2 C 8.1 km/h
2209 02-03-2019 16:00:00 12.3 C 7.6 g/m*3 12.3 C 9.7 km/h
2210 02-03-2019 16:05:00 12.3 C 7.6 g/m*3 12.3 C 8.1 km/h
2211 02-03-2019 16:10:00 12.3 C 7.6 g/m*3 12.3 C 6.4 km/h
2212 02-03-2019 16:15:00 12.5 C 7.7 g/m*3 12.5 C 14.5 km/h
2213 02-03-2019 16:20:00 12.6 C 7.74 g/m*3 12.6 C 14.5 km/h
2214 02-03-2019 16:25:00 12.6 C 7.74 g/m*3 12.6 C 9.7 km/h
2215 02-03-2019 16:30:00 12.6 C 7.74 g/m*3 12.6 C 11.3 km/h
2216 02-03-2019 16:35:00 12.4 C 7.65 g/m*3 12.4 C 9.7 km/h
2217 02-03-2019 16:40:00 12.3 C 7.71 g/m*3 12.3 C 9.7 km/h
2218 02-03-2019 16:45:00 12.2 C 7.66 g/m*3 12.2 C 11.3 km/h
2219 02-03-2019 16:50:00 12.1 C 7.61 g/m*3 12.1 C 9.7 km/h
2220 02-03-2019 16:55:00 12 C 7.67 g/m*3 12 C 12.9 km/h
2221 02-03-2019 17:00:00 11.9 C 7.73 g/m*3 11.9 C 22.5 km/h
2222 02-03-2019 17:05:00 11.8 C 7.68 g/m*3 11.8 C 14.5 km/h
2223 02-03-2019 17:10:00 11.7 C 7.74 g/m*3 11.7 C 11.3 km/h
2224 02-03-2019 17:15:00 11.5 C 7.64 g/m*3 11.5 C 14.5 km/h
2225 02-03-2019 17:20:00 11.4 C 7.7 g/m*3 11.4 C 9.7 km/h
Sensor: Nr:Datum:Temp:Abs-Feuchte:Windchill:Wind:
Aussen-T/F 2226 02-03-2019 17:25:00 11.3 C 7.65 g/m*3 11.3 C 8.1 km/h
2227 02-03-2019 17:30:00 11.3 C 7.75 g/m*3 11.3 C 12.9 km/h
2228 02-03-2019 17:35:00 11.2 C 7.7 g/m*3 11.2 C 16.1 km/h
2229 02-03-2019 17:40:00 11.2 C 7.8 g/m*3 11.2 C 17.7 km/h
2230 02-03-2019 17:45:00 11.1 C 7.76 g/m*3 11.1 C 12.9 km/h
2231 02-03-2019 17:50:00 11 C 7.81 g/m*3 8.7 C 19.3 km/h
2232 02-03-2019 17:55:00 10.9 C 7.76 g/m*3 9.08 C 14.5 km/h
2233 02-03-2019 18:00:00 10.8 C 7.71 g/m*3 8.3 C 20.9 km/h
2234 02-03-2019 18:05:00 10.8 C 7.81 g/m*3 9.64 C 9.7 km/h
2235 02-03-2019 18:10:00 10.7 C 7.76 g/m*3 9.81 C 8.1 km/h
2236 02-03-2019 18:15:00 10.7 C 7.86 g/m*3 9.26 C 11.3 km/h
2237 02-03-2019 18:20:00 10.6 C 7.81 g/m*3 9.4 C 9.7 km/h
2238 02-03-2019 18:25:00 10.6 C 7.81 g/m*3 10.06 C 6.4 km/h
2239 02-03-2019 18:30:00 10.5 C 7.86 g/m*3 8.8 C 12.9 km/h
2240 02-03-2019 18:35:00 10.5 C 7.86 g/m*3 8.4 C 16.1 km/h
2241 02-03-2019 18:40:00 10.4 C 7.9 g/m*3 8.9 C 11.3 km/h
2242 02-03-2019 18:45:00 10.4 C 7.9 g/m*3 9.46 C 8.1 km/h
2243 02-03-2019 18:50:00 10.3 C 7.85 g/m*3 9.72 C 6.4 km/h
2244 02-03-2019 18:55:00 10.3 C 7.95 g/m*3 8.34 C 14.5 km/h
2245 02-03-2019 19:00:00 10.2 C 7.99 g/m*3 8.43 C 12.9 km/h
2246 02-03-2019 19:05:00 10.1 C 8.04 g/m*3 8.1 C 14.5 km/h
2247 02-03-2019 19:10:00 10.1 C 8.04 g/m*3 8.1 C 14.5 km/h
2248 02-03-2019 19:15:00 10 C 8.08 g/m*3 8.19 C 12.9 km/h
2249 02-03-2019 19:20:00 9.9 C 8.03 g/m*3 8.87 C 8.1 km/h
2250 02-03-2019 19:25:00 9.8 C 7.98 g/m*3 8.18 C 11.3 km/h
Sensor: Nr:Datum:Temp:Abs-Feuchte:Windchill:Wind:
Aussen-T/F 2251 02-03-2019 19:30:00 9.8 C 7.98 g/m*3 8.18 C 11.3 km/h
2252 02-03-2019 19:35:00 9.7 C 7.93 g/m*3 7.07 C 19.3 km/h
2253 02-03-2019 19:40:00 9.7 C 8.02 g/m*3 7.82 C 12.9 km/h
2254 02-03-2019 19:45:00 9.6 C 7.97 g/m*3 8.52 C 8.1 km/h
2255 02-03-2019 19:50:00 9.6 C 7.97 g/m*3 7.94 C 11.3 km/h
2256 02-03-2019 19:55:00 9.6 C 7.97 g/m*3 8.52 C 8.1 km/h
2257 02-03-2019 20:00:00 9.4 C 7.87 g/m*3 7.7 C 11.3 km/h
2258 02-03-2019 20:05:00 9.5 C 7.92 g/m*3 7.36 C 14.5 km/h
2259 02-03-2019 20:10:00 9.5 C 7.92 g/m*3 7.82 C 11.3 km/h
2260 02-03-2019 20:15:00 9.5 C 7.92 g/m*3 6.98 C 17.7 km/h
2261 02-03-2019 20:20:00 9.5 C 7.92 g/m*3 8.79 C 6.4 km/h
2262 02-03-2019 20:25:00 9.6 C 7.97 g/m*3 7.94 C 11.3 km/h
2263 02-03-2019 20:30:00 9.6 C 7.97 g/m*3 7.94 C 11.3 km/h
2264 02-03-2019 20:35:00 9.5 C 7.92 g/m*3 7.82 C 11.3 km/h
2265 02-03-2019 20:40:00 9.6 C 8.06 g/m*3 8.21 C 9.7 km/h
2266 02-03-2019 20:45:00 9.6 C 8.06 g/m*3 7.94 C 11.3 km/h
2267 02-03-2019 20:50:00 9.6 C 7.97 g/m*3 8.91 C 6.4 km/h
2268 02-03-2019 20:55:00 9.5 C 8.01 g/m*3 7.36 C 14.5 km/h
2269 02-03-2019 21:00:00 9.5 C 8.01 g/m*3 8.09 C 9.7 km/h
2270 02-03-2019 21:05:00 9.4 C 7.96 g/m*3 7.46 C 12.9 km/h
2271 02-03-2019 21:10:00 9.4 C 7.96 g/m*3 7.46 C 12.9 km/h
2272 02-03-2019 21:15:00 9.6 C 8.15 g/m*3 7.94 C 11.3 km/h
2273 02-03-2019 21:20:00 9.7 C 8.11 g/m*3 7.61 C 14.5 km/h
2274 02-03-2019 21:25:00 9.8 C 8.16 g/m*3 7.36 C 17.7 km/h
2275 02-03-2019 21:30:00 9.9 C 8.12 g/m*3 8.3 C 11.3 km/h
Sensor: Nr:Datum:Temp:Abs-Feuchte:Windchill:Wind:
Aussen-T/F 2276 02-03-2019 21:35:00 10.1 C 8.23 g/m*3 7.91 C 16.1 km/h
2277 02-03-2019 21:40:00 10.1 C 8.23 g/m*3 8.54 C 11.3 km/h
2278 02-03-2019 21:45:00 10.1 C 8.23 g/m*3 7.73 C 17.7 km/h
2279 02-03-2019 21:50:00 10.2 C 8.18 g/m*3 8.66 C 11.3 km/h
2280 02-03-2019 21:55:00 10.2 C 8.18 g/m*3 9.22 C 8.1 km/h
2281 02-03-2019 22:00:00 10.2 C 8.18 g/m*3 8.03 C 16.1 km/h
2282 02-03-2019 22:05:00 10.2 C 8.18 g/m*3 8.92 C 9.7 km/h
2283 02-03-2019 22:10:00 10.2 C 8.18 g/m*3 8.92 C 9.7 km/h
2284 02-03-2019 22:15:00 10.2 C 8.09 g/m*3 9.6 C 6.4 km/h
2285 02-03-2019 22:20:00 10.2 C 8.09 g/m*3 8.92 C 9.7 km/h
2286 02-03-2019 22:25:00 10.2 C 8.09 g/m*3 7.7 C 19.3 km/h
2287 02-03-2019 22:30:00 10.3 C 8.14 g/m*3 7.98 C 17.7 km/h
2288 02-03-2019 22:35:00 10.3 C 8.14 g/m*3 8.16 C 16.1 km/h
2289 02-03-2019 22:40:00 10.3 C 8.14 g/m*3 8.55 C 12.9 km/h
2290 02-03-2019 22:45:00 10.3 C 8.04 g/m*3 8.16 C 16.1 km/h
2291 02-03-2019 22:50:00 10.3 C 8.04 g/m*3 9.72 C 6.4 km/h
2292 02-03-2019 22:55:00 10.3 C 8.04 g/m*3 8.78 C 11.3 km/h
2293 02-03-2019 23:00:00 10.3 C 8.04 g/m*3 10.3 C 4.8 km/h
2294 02-03-2019 23:05:00 10.2 C 7.99 g/m*3 8.66 C 11.3 km/h
2295 02-03-2019 23:10:00 10.2 C 7.99 g/m*3 10.2 C 4.8 km/h
2296 02-03-2019 23:15:00 10.1 C 7.94 g/m*3 8.1 C 14.5 km/h
2297 02-03-2019 23:20:00 10.1 C 7.85 g/m*3 8.31 C 12.9 km/h
2298 02-03-2019 23:25:00 10.1 C 7.85 g/m*3 8.31 C 12.9 km/h
2299 02-03-2019 23:30:00 9.9 C 7.75 g/m*3 8.87 C 8.1 km/h
2300 02-03-2019 23:35:00 9.8 C 7.7 g/m*3 8.75 C 8.1 km/h
Sensor: Nr:Datum:Temp:Abs-Feuchte:Windchill:Wind:
Aussen-T/F 2301 02-03-2019 23:40:00 9.8 C 7.7 g/m*3 8.18 C 11.3 km/h
2302 02-03-2019 23:45:00 9.8 C 7.61 g/m*3 8.45 C 9.7 km/h
2303 02-03-2019 23:50:00 9.7 C 7.65 g/m*3 8.33 C 9.7 km/h
2304 02-03-2019 23:55:00 9.6 C 7.51 g/m*3 7.7 C 12.9 km/h
2305 03-03-2019 00:00:00 9.6 C 7.51 g/m*3 7.7 C 12.9 km/h
2306 03-03-2019 00:05:00 9.5 C 7.46 g/m*3 8.09 C 9.7 km/h
2307 03-03-2019 00:10:00 9.5 C 7.46 g/m*3 7.82 C 11.3 km/h
2308 03-03-2019 00:15:00 9.5 C 7.46 g/m*3 7.58 C 12.9 km/h
2309 03-03-2019 00:20:00 9.4 C 7.42 g/m*3 9.4 C 4.8 km/h
2310 03-03-2019 00:25:00 9.3 C 7.37 g/m*3 9.3 C 3.2 km/h
2311 03-03-2019 00:30:00 9.2 C 7.32 g/m*3 9.2 C 1.6 km/h
2312 03-03-2019 00:35:00 8.9 C 7.18 g/m*3 8.9 C 1.6 km/h
2313 03-03-2019 00:40:00 8.7 C 7.18 g/m*3 8.7 C 3.2 km/h
2314 03-03-2019 00:45:00 8.5 C 7.17 g/m*3 8.5 C 1.6 km/h
2315 03-03-2019 00:50:00 8.3 C 7.16 g/m*3 8.3 C 1.6 km/h
2316 03-03-2019 00:55:00 8.3 C 7.25 g/m*3 8.3 C 3.2 km/h
2317 03-03-2019 01:00:00 8.3 C 7.33 g/m*3 7.41 C 6.4 km/h
2318 03-03-2019 01:05:00 8.4 C 7.38 g/m*3 8.4 C 4.8 km/h
2319 03-03-2019 01:10:00 8.6 C 7.48 g/m*3 7.01 C 9.7 km/h
2320 03-03-2019 01:15:00 8.8 C 7.57 g/m*3 6.72 C 12.9 km/h
2321 03-03-2019 01:20:00 8.9 C 7.53 g/m*3 8.9 C 4.8 km/h
2322 03-03-2019 01:25:00 9.1 C 7.63 g/m*3 7.61 C 9.7 km/h
2323 03-03-2019 01:30:00 9.3 C 7.73 g/m*3 7.33 C 12.9 km/h
2324 03-03-2019 01:35:00 9.4 C 7.69 g/m*3 7.46 C 12.9 km/h
2325 03-03-2019 01:40:00 9.7 C 7.74 g/m*3 7.82 C 12.9 km/h
Sensor: Nr:Datum:Temp:Abs-Feuchte:Windchill:Wind:
Aussen-T/F 2326 03-03-2019 01:45:00 9.8 C 7.7 g/m*3 7.54 C 16.1 km/h
2327 03-03-2019 01:50:00 9.9 C 7.75 g/m*3 7.66 C 16.1 km/h
2328 03-03-2019 01:55:00 9.9 C 7.66 g/m*3 8.06 C 12.9 km/h
2329 03-03-2019 02:00:00 10 C 7.71 g/m*3 8.68 C 9.7 km/h
2330 03-03-2019 02:05:00 10 C 7.71 g/m*3 7.98 C 14.5 km/h
2331 03-03-2019 02:10:00 10.1 C 7.66 g/m*3 7.73 C 17.7 km/h
2332 03-03-2019 02:15:00 10.1 C 7.66 g/m*3 7.91 C 16.1 km/h
2333 03-03-2019 02:20:00 10.1 C 7.66 g/m*3 9.48 C 6.4 km/h
2334 03-03-2019 02:25:00 10.1 C 7.66 g/m*3 9.48 C 6.4 km/h
2335 03-03-2019 02:30:00 10.1 C 7.66 g/m*3 9.48 C 6.4 km/h
2336 03-03-2019 02:35:00 9.9 C 7.56 g/m*3 8.06 C 12.9 km/h
2337 03-03-2019 02:40:00 9.9 C 7.56 g/m*3 7.66 C 16.1 km/h
2338 03-03-2019 02:45:00 9.9 C 7.56 g/m*3 8.56 C 9.7 km/h
2339 03-03-2019 02:50:00 9.8 C 7.52 g/m*3 8.18 C 11.3 km/h
2340 03-03-2019 02:55:00 9.8 C 7.61 g/m*3 6.63 C 25.7 km/h
2341 03-03-2019 03:00:00 9.8 C 7.52 g/m*3 6.63 C 25.7 km/h
2342 03-03-2019 03:05:00 9.8 C 7.52 g/m*3 8.18 C 11.3 km/h
2343 03-03-2019 03:10:00 9.9 C 7.56 g/m*3 8.3 C 11.3 km/h
2344 03-03-2019 03:15:00 9.9 C 7.56 g/m*3 8.06 C 12.9 km/h
2345 03-03-2019 03:20:00 9.9 C 7.56 g/m*3 9.25 C 6.4 km/h
2346 03-03-2019 03:25:00 10 C 7.61 g/m*3 8.19 C 12.9 km/h
2347 03-03-2019 03:30:00 10 C 7.61 g/m*3 8.42 C 11.3 km/h
2348 03-03-2019 03:35:00 10.1 C 7.66 g/m*3 8.31 C 12.9 km/h
2349 03-03-2019 03:40:00 10.1 C 7.66 g/m*3 8.54 C 11.3 km/h
2350 03-03-2019 03:45:00 10.1 C 7.66 g/m*3 9.1 C 8.1 km/h
Sensor: Nr:Datum:Temp:Abs-Feuchte:Windchill:Wind:
Aussen-T/F 2351 03-03-2019 03:50:00 10.2 C 7.71 g/m*3 8.43 C 12.9 km/h
2352 03-03-2019 03:55:00 10.2 C 7.71 g/m*3 9.22 C 8.1 km/h
2353 03-03-2019 04:00:00 10.2 C 7.71 g/m*3 8.92 C 9.7 km/h
2354 03-03-2019 04:05:00 10.2 C 7.71 g/m*3 8.92 C 9.7 km/h
2355 03-03-2019 04:10:00 10.2 C 7.71 g/m*3 9.22 C 8.1 km/h
2356 03-03-2019 04:15:00 10.2 C 7.71 g/m*3 8.43 C 12.9 km/h
2357 03-03-2019 04:20:00 10.2 C 7.71 g/m*3 8.66 C 11.3 km/h
2358 03-03-2019 04:25:00 10.3 C 7.76 g/m*3 9.04 C 9.7 km/h
2359 03-03-2019 04:30:00 10.3 C 7.76 g/m*3 8.55 C 12.9 km/h
2360 03-03-2019 04:35:00 10.3 C 7.76 g/m*3 7.82 C 19.3 km/h
2361 03-03-2019 04:40:00 10.2 C 7.71 g/m*3 8.43 C 12.9 km/h
2362 03-03-2019 04:45:00 10.2 C 7.71 g/m*3 8.22 C 14.5 km/h
2363 03-03-2019 04:50:00 10.2 C 7.71 g/m*3 8.43 C 12.9 km/h
2364 03-03-2019 04:55:00 10.2 C 7.61 g/m*3 7.86 C 17.7 km/h
2365 03-03-2019 05:00:00 10.2 C 7.61 g/m*3 8.22 C 14.5 km/h
2366 03-03-2019 05:05:00 10.3 C 7.66 g/m*3 8.16 C 16.1 km/h
2367 03-03-2019 05:10:00 10.2 C 7.61 g/m*3 7.54 C 20.9 km/h
2368 03-03-2019 05:15:00 10.2 C 7.61 g/m*3 7.86 C 17.7 km/h
2369 03-03-2019 05:20:00 10.2 C 7.61 g/m*3 8.22 C 14.5 km/h
2370 03-03-2019 05:25:00 10.2 C 7.61 g/m*3 9.6 C 6.4 km/h
2371 03-03-2019 05:30:00 10.2 C 7.61 g/m*3 8.43 C 12.9 km/h
2372 03-03-2019 05:35:00 10.2 C 7.61 g/m*3 7.86 C 17.7 km/h
2373 03-03-2019 05:40:00 10.2 C 7.52 g/m*3 8.66 C 11.3 km/h
2374 03-03-2019 05:45:00 10.2 C 7.52 g/m*3 8.43 C 12.9 km/h
2375 03-03-2019 05:50:00 10.2 C 7.61 g/m*3 10.2 C 4.8 km/h
Sensor: Nr:Datum:Temp:Abs-Feuchte:Windchill:Wind:
Aussen-T/F 2376 03-03-2019 05:55:00 10.2 C 7.61 g/m*3 8.92 C 9.7 km/h
2377 03-03-2019 06:00:00 10.2 C 7.61 g/m*3 8.66 C 11.3 km/h
2378 03-03-2019 06:05:00 10.1 C 7.56 g/m*3 9.48 C 6.4 km/h
2379 03-03-2019 06:10:00 10.1 C 7.66 g/m*3 8.1 C 14.5 km/h
2380 03-03-2019 06:15:00 10.1 C 7.66 g/m*3 10.1 C 4.8 km/h
2381 03-03-2019 06:20:00 10.1 C 7.66 g/m*3 8.1 C 14.5 km/h
2382 03-03-2019 06:25:00 10.1 C 7.66 g/m*3 8.54 C 11.3 km/h
2383 03-03-2019 06:30:00 10.1 C 7.66 g/m*3 7.91 C 16.1 km/h
2384 03-03-2019 06:35:00 10.1 C 7.66 g/m*3 8.8 C 9.7 km/h
2385 03-03-2019 06:40:00 10.1 C 7.66 g/m*3 8.31 C 12.9 km/h
2386 03-03-2019 06:45:00 10.1 C 7.66 g/m*3 7.91 C 16.1 km/h
2387 03-03-2019 06:50:00 10.1 C 7.66 g/m*3 8.8 C 9.7 km/h
2388 03-03-2019 06:55:00 10.1 C 7.66 g/m*3 8.54 C 11.3 km/h
2389 03-03-2019 07:00:00 10.1 C 7.66 g/m*3 8.31 C 12.9 km/h
2390 03-03-2019 07:05:00 10.1 C 7.66 g/m*3 8.31 C 12.9 km/h
2391 03-03-2019 07:10:00 10.1 C 7.66 g/m*3 7.57 C 19.3 km/h
2392 03-03-2019 07:15:00 10.1 C 7.66 g/m*3 8.54 C 11.3 km/h
2393 03-03-2019 07:20:00 10.1 C 7.66 g/m*3 9.1 C 8.1 km/h
2394 03-03-2019 07:25:00 10.1 C 7.66 g/m*3 8.1 C 14.5 km/h
2395 03-03-2019 07:30:00 10.1 C 7.66 g/m*3 7.91 C 16.1 km/h
2396 03-03-2019 07:35:00 10.1 C 7.66 g/m*3 8.31 C 12.9 km/h
2397 03-03-2019 07:40:00 10.2 C 7.71 g/m*3 8.03 C 16.1 km/h
2398 03-03-2019 07:45:00 10.2 C 7.71 g/m*3 8.92 C 9.7 km/h
2399 03-03-2019 07:50:00 10.2 C 7.71 g/m*3 9.6 C 6.4 km/h
2400 03-03-2019 07:55:00 10.2 C 7.71 g/m*3 7.54 C 20.9 km/h
Sensor: Nr:Datum:Temp:Abs-Feuchte:Windchill:Wind:
Aussen-T/F 2401 03-03-2019 08:00:00 10.2 C 7.71 g/m*3 7.7 C 19.3 km/h
2402 03-03-2019 08:05:00 10.2 C 7.71 g/m*3 7.54 C 20.9 km/h
2403 03-03-2019 08:10:00 10.3 C 7.76 g/m*3 7.4 C 24.1 km/h
2404 03-03-2019 08:15:00 10.3 C 7.76 g/m*3 7.4 C 24.1 km/h
2405 03-03-2019 08:20:00 10.3 C 7.76 g/m*3 8.34 C 14.5 km/h
2406 03-03-2019 08:25:00 10.3 C 7.76 g/m*3 7.67 C 20.9 km/h
2407 03-03-2019 08:30:00 10.3 C 7.85 g/m*3 7.53 C 22.5 km/h
2408 03-03-2019 08:35:00 10.3 C 7.85 g/m*3 7.82 C 19.3 km/h
2409 03-03-2019 08:40:00 10.3 C 7.85 g/m*3 8.34 C 14.5 km/h
2410 03-03-2019 08:45:00 10.4 C 7.9 g/m*3 7.53 C 24.1 km/h
2411 03-03-2019 08:50:00 10.4 C 7.9 g/m*3 7.06 C 30.6 km/h
2412 03-03-2019 08:55:00 10.5 C 7.95 g/m*3 7.19 C 30.6 km/h
2413 03-03-2019 09:00:00 10.6 C 8 g/m*3 8.05 C 20.9 km/h
2414 03-03-2019 09:05:00 10.7 C 7.96 g/m*3 8.18 C 20.9 km/h
2415 03-03-2019 09:10:00 10.8 C 8.11 g/m*3 8.45 C 19.3 km/h
2416 03-03-2019 09:15:00 10.9 C 8.06 g/m*3 8.05 C 25.7 km/h
2417 03-03-2019 09:20:00 10.9 C 8.06 g/m*3 8.3 C 22.5 km/h
2418 03-03-2019 09:25:00 11 C 8.11 g/m*3 7.74 C 32.2 km/h
2419 03-03-2019 09:30:00 10.9 C 8.06 g/m*3 7.61 C 32.2 km/h
2420 03-03-2019 09:35:00 10.9 C 8.06 g/m*3 8.58 C 19.3 km/h
2421 03-03-2019 09:40:00 10.9 C 8.06 g/m*3 7.92 C 27.4 km/h
2422 03-03-2019 09:45:00 10.9 C 8.06 g/m*3 8.05 C 25.7 km/h
2423 03-03-2019 09:50:00 10.9 C 8.06 g/m*3 8.73 C 17.7 km/h
2424 03-03-2019 09:55:00 11.1 C 8.16 g/m*3 11.1 C 25.7 km/h
2425 03-03-2019 10:00:00 11.1 C 8.16 g/m*3 11.1 C 27.4 km/h
Sensor: Nr:Datum:Temp:Abs-Feuchte:Windchill:Wind:
Aussen-T/F 2426 03-03-2019 10:05:00 11.1 C 8.16 g/m*3 11.1 C 17.7 km/h
2427 03-03-2019 10:10:00 11.2 C 8.21 g/m*3 11.2 C 29 km/h
2428 03-03-2019 10:15:00 11.2 C 8.21 g/m*3 11.2 C 29 km/h
2429 03-03-2019 10:20:00 11.1 C 8.16 g/m*3 11.1 C 20.9 km/h
2430 03-03-2019 10:25:00 11.1 C 8.16 g/m*3 11.1 C 27.4 km/h
2431 03-03-2019 10:30:00 11.1 C 8.16 g/m*3 11.1 C 24.1 km/h
2432 03-03-2019 10:35:00 11.2 C 8.21 g/m*3 11.2 C 17.7 km/h
2433 03-03-2019 10:40:00 11.2 C 8.21 g/m*3 11.2 C 25.7 km/h
2434 03-03-2019 10:45:00 11.2 C 8.21 g/m*3 11.2 C 37 km/h
2435 03-03-2019 10:50:00 11.2 C 8.21 g/m*3 11.2 C 37 km/h
2436 03-03-2019 10:55:00 11.2 C 8.21 g/m*3 11.2 C 19.3 km/h
2437 03-03-2019 11:00:00 11.1 C 8.16 g/m*3 11.1 C 11.3 km/h
2438 03-03-2019 11:05:00 11.1 C 8.26 g/m*3 11.1 C 14.5 km/h
2439 03-03-2019 11:10:00 11 C 8.21 g/m*3 9.21 C 14.5 km/h
2440 03-03-2019 11:15:00 10.9 C 8.16 g/m*3 9.28 C 12.9 km/h
2441 03-03-2019 11:20:00 10.9 C 8.16 g/m*3 8.9 C 16.1 km/h
2442 03-03-2019 11:25:00 10.9 C 8.16 g/m*3 9.51 C 11.3 km/h
2443 03-03-2019 11:30:00 11 C 8.21 g/m*3 8.7 C 19.3 km/h
2444 03-03-2019 11:35:00 11 C 8.21 g/m*3 8.86 C 17.7 km/h
2445 03-03-2019 11:40:00 11 C 8.21 g/m*3 9.02 C 16.1 km/h
2446 03-03-2019 11:45:00 11 C 8.21 g/m*3 9.63 C 11.3 km/h
2447 03-03-2019 11:50:00 11.1 C 8.36 g/m*3 11.1 C 16.1 km/h
2448 03-03-2019 11:55:00 11.1 C 8.26 g/m*3 11.1 C 20.9 km/h
2449 03-03-2019 12:00:00 11.1 C 8.36 g/m*3 11.1 C 16.1 km/h
2450 03-03-2019 12:05:00 11.1 C 8.26 g/m*3 11.1 C 14.5 km/h
Sensor: Nr:Datum:Temp:Abs-Feuchte:Windchill:Wind:
Aussen-T/F 2451 03-03-2019 12:10:00 11.1 C 8.26 g/m*3 11.1 C 16.1 km/h
2452 03-03-2019 12:15:00 11.1 C 8.26 g/m*3 11.1 C 11.3 km/h
2453 03-03-2019 12:20:00 11.2 C 8.31 g/m*3 11.2 C 11.3 km/h
2454 03-03-2019 12:25:00 11.2 C 8.31 g/m*3 11.2 C 9.7 km/h
2455 03-03-2019 12:30:00 11.3 C 8.36 g/m*3 11.3 C 14.5 km/h
2456 03-03-2019 12:35:00 11.3 C 8.36 g/m*3 11.3 C 20.9 km/h
2457 03-03-2019 12:40:00 11.3 C 8.36 g/m*3 11.3 C 22.5 km/h
2458 03-03-2019 12:45:00 11.3 C 8.36 g/m*3 11.3 C 22.5 km/h
2459 03-03-2019 12:50:00 11.3 C 8.36 g/m*3 11.3 C 17.7 km/h
2460 03-03-2019 12:55:00 11.4 C 8.42 g/m*3 11.4 C 19.3 km/h
2461 03-03-2019 13:00:00 11.4 C 8.42 g/m*3 11.4 C 16.1 km/h
2462 03-03-2019 13:05:00 11.6 C 8.42 g/m*3 11.6 C 16.1 km/h
2463 03-03-2019 13:10:00 11.6 C 8.42 g/m*3 11.6 C 14.5 km/h
2464 03-03-2019 13:15:00 11.7 C 8.47 g/m*3 11.7 C 11.3 km/h
2465 03-03-2019 13:20:00 11.7 C 8.47 g/m*3 11.7 C 4.8 km/h
2466 03-03-2019 13:25:00 11.8 C 8.42 g/m*3 11.8 C 12.9 km/h
2467 03-03-2019 13:30:00 11.8 C 8.42 g/m*3 11.8 C 9.7 km/h
2468 03-03-2019 13:35:00 11.8 C 8.42 g/m*3 11.8 C 8.1 km/h
2469 03-03-2019 13:40:00 11.8 C 8.42 g/m*3 11.8 C 8.1 km/h
2470 03-03-2019 13:45:00 11.8 C 8.42 g/m*3 11.8 C 11.3 km/h
2471 03-03-2019 13:50:00 11.9 C 8.47 g/m*3 11.9 C 12.9 km/h
2472 03-03-2019 13:55:00 11.9 C 8.47 g/m*3 11.9 C 8.1 km/h
2473 03-03-2019 14:00:00 11.9 C 8.37 g/m*3 11.9 C 19.3 km/h
2474 03-03-2019 14:05:00 11.9 C 8.37 g/m*3 11.9 C 17.7 km/h
2475 03-03-2019 14:10:00 11.9 C 8.47 g/m*3 11.9 C 12.9 km/h
Sensor: Nr:Datum:Temp:Abs-Feuchte:Windchill:Wind:
Aussen-T/F 2476 03-03-2019 14:15:00 11.9 C 8.47 g/m*3 11.9 C 16.1 km/h
2477 03-03-2019 14:20:00 11.8 C 8.42 g/m*3 11.8 C 8.1 km/h
2478 03-03-2019 14:25:00 11.8 C 8.42 g/m*3 11.8 C 16.1 km/h
2479 03-03-2019 14:30:00 11.8 C 8.42 g/m*3 11.8 C 12.9 km/h
2480 03-03-2019 14:35:00 11.7 C 8.37 g/m*3 11.7 C 14.5 km/h
2481 03-03-2019 14:40:00 11.7 C 8.37 g/m*3 11.7 C 9.7 km/h
2482 03-03-2019 14:45:00 11.7 C 8.37 g/m*3 11.7 C 8.1 km/h
2483 03-03-2019 14:50:00 11.7 C 8.47 g/m*3 11.7 C 16.1 km/h
2484 03-03-2019 14:55:00 11.7 C 8.47 g/m*3 11.7 C 6.4 km/h
2485 03-03-2019 15:00:00 11.7 C 8.47 g/m*3 11.7 C 14.5 km/h
2486 03-03-2019 15:05:00 11.7 C 8.37 g/m*3 11.7 C 17.7 km/h
2487 03-03-2019 15:10:00 11.7 C 8.37 g/m*3 11.7 C 11.3 km/h
2488 03-03-2019 15:15:00 11.8 C 8.53 g/m*3 11.8 C 12.9 km/h
2489 03-03-2019 15:20:00 11.8 C 8.53 g/m*3 11.8 C 12.9 km/h
2490 03-03-2019 15:25:00 11.8 C 8.53 g/m*3 11.8 C 22.5 km/h
2491 03-03-2019 15:30:00 11.7 C 8.47 g/m*3 11.7 C 14.5 km/h
2492 03-03-2019 15:35:00 11.7 C 8.58 g/m*3 11.7 C 9.7 km/h
2493 03-03-2019 15:40:00 11.7 C 8.58 g/m*3 11.7 C 25.7 km/h
2494 03-03-2019 15:45:00 11.6 C 8.52 g/m*3 11.6 C 14.5 km/h
2495 03-03-2019 15:50:00 11.6 C 8.52 g/m*3 11.6 C 16.1 km/h
2496 03-03-2019 15:55:00 11.6 C 8.52 g/m*3 11.6 C 3.2 km/h
2497 03-03-2019 16:00:00 11.6 C 8.52 g/m*3 11.6 C 14.5 km/h
2498 03-03-2019 16:05:00 11.6 C 8.52 g/m*3 11.6 C 12.9 km/h
2499 03-03-2019 16:10:00 11.6 C 8.52 g/m*3 11.6 C 11.3 km/h
2500 03-03-2019 16:15:00 11.6 C 8.52 g/m*3 11.6 C 9.7 km/h
Sensor: Nr:Datum:Temp:Abs-Feuchte:Windchill:Wind:
Aussen-T/F 2501 03-03-2019 16:20:00 11.6 C 8.52 g/m*3 11.6 C 8.1 km/h
2502 03-03-2019 16:25:00 11.7 C 8.58 g/m*3 11.7 C 17.7 km/h
2503 03-03-2019 16:30:00 11.7 C 8.47 g/m*3 11.7 C 9.7 km/h
2504 03-03-2019 16:35:00 11.8 C 8.53 g/m*3 11.8 C 17.7 km/h
2505 03-03-2019 16:40:00 11.8 C 8.53 g/m*3 11.8 C 20.9 km/h
2506 03-03-2019 16:45:00 11.8 C 8.53 g/m*3 11.8 C 11.3 km/h
2507 03-03-2019 16:50:00 11.8 C 8.53 g/m*3 11.8 C 14.5 km/h
2508 03-03-2019 16:55:00 11.8 C 8.53 g/m*3 11.8 C 24.1 km/h
2509 03-03-2019 17:00:00 11.8 C 8.53 g/m*3 11.8 C 14.5 km/h
2510 03-03-2019 17:05:00 11.8 C 8.53 g/m*3 11.8 C 12.9 km/h
2511 03-03-2019 17:10:00 11.8 C 8.42 g/m*3 11.8 C 11.3 km/h
2512 03-03-2019 17:15:00 11.8 C 8.42 g/m*3 11.8 C 12.9 km/h
2513 03-03-2019 17:20:00 11.8 C 8.42 g/m*3 11.8 C 11.3 km/h
2514 03-03-2019 17:25:00 11.8 C 8.42 g/m*3 11.8 C 12.9 km/h
2515 03-03-2019 17:30:00 11.9 C 8.37 g/m*3 11.9 C 12.9 km/h
2516 03-03-2019 17:35:00 11.9 C 8.37 g/m*3 11.9 C 9.7 km/h
2517 03-03-2019 17:40:00 11.9 C 8.37 g/m*3 11.9 C 11.3 km/h
2518 03-03-2019 17:45:00 12 C 8.31 g/m*3 12 C 20.9 km/h
2519 03-03-2019 17:50:00 12.1 C 8.36 g/m*3 12.1 C 14.5 km/h
2520 03-03-2019 17:55:00 12.2 C 8.42 g/m*3 12.2 C 16.1 km/h
2521 03-03-2019 18:00:00 12.2 C 8.42 g/m*3 12.2 C 9.7 km/h
2522 03-03-2019 18:05:00 12.2 C 8.42 g/m*3 12.2 C 14.5 km/h
2523 03-03-2019 18:10:00 12.2 C 8.42 g/m*3 12.2 C 14.5 km/h
2524 03-03-2019 18:15:00 12.2 C 8.42 g/m*3 12.2 C 19.3 km/h
2525 03-03-2019 18:20:00 12.2 C 8.42 g/m*3 12.2 C 9.7 km/h
Sensor: Nr:Datum:Temp:Abs-Feuchte:Windchill:Wind:
Aussen-T/F 2526 03-03-2019 18:25:00 12.2 C 8.42 g/m*3 12.2 C 17.7 km/h
2527 03-03-2019 18:30:00 12.2 C 8.31 g/m*3 12.2 C 22.5 km/h
2528 03-03-2019 18:35:00 12.2 C 8.31 g/m*3 12.2 C 12.9 km/h
2529 03-03-2019 18:40:00 12.2 C 8.31 g/m*3 12.2 C 16.1 km/h
2530 03-03-2019 18:45:00 12.2 C 8.31 g/m*3 12.2 C 8.1 km/h
2531 03-03-2019 18:50:00 12.1 C 8.26 g/m*3 12.1 C 12.9 km/h
2532 03-03-2019 18:55:00 12.1 C 8.26 g/m*3 12.1 C 16.1 km/h
2533 03-03-2019 19:00:00 12.1 C 8.26 g/m*3 12.1 C 14.5 km/h
2534 03-03-2019 19:05:00 12.2 C 8.31 g/m*3 12.2 C 12.9 km/h
2535 03-03-2019 19:10:00 12.2 C 8.31 g/m*3 12.2 C 8.1 km/h
2536 03-03-2019 19:15:00 12.2 C 8.2 g/m*3 12.2 C 16.1 km/h
2537 03-03-2019 19:20:00 12.3 C 8.25 g/m*3 12.3 C 19.3 km/h
2538 03-03-2019 19:25:00 12.3 C 8.25 g/m*3 12.3 C 11.3 km/h
2539 03-03-2019 19:30:00 12.3 C 8.25 g/m*3 12.3 C 12.9 km/h
2540 03-03-2019 19:35:00 12.3 C 8.25 g/m*3 12.3 C 17.7 km/h
2541 03-03-2019 19:40:00 12.3 C 8.14 g/m*3 12.3 C 19.3 km/h
2542 03-03-2019 19:45:00 12.4 C 8.19 g/m*3 12.4 C 11.3 km/h
2543 03-03-2019 19:50:00 12.4 C 8.19 g/m*3 12.4 C 11.3 km/h
2544 03-03-2019 19:55:00 12.4 C 8.19 g/m*3 12.4 C 11.3 km/h
2545 03-03-2019 20:00:00 12.3 C 8.14 g/m*3 12.3 C 11.3 km/h
2546 03-03-2019 20:05:00 12.3 C 8.14 g/m*3 12.3 C 17.7 km/h
2547 03-03-2019 20:10:00 12.3 C 8.14 g/m*3 12.3 C 16.1 km/h
2548 03-03-2019 20:15:00 12.3 C 8.25 g/m*3 12.3 C 9.7 km/h
2549 03-03-2019 20:20:00 12.3 C 8.25 g/m*3 12.3 C 17.7 km/h
2550 03-03-2019 20:25:00 12.4 C 8.3 g/m*3 12.4 C 16.1 km/h
Sensor: Nr:Datum:Temp:Abs-Feuchte:Windchill:Wind:
Aussen-T/F 2551 03-03-2019 20:30:00 12.4 C 8.3 g/m*3 12.4 C 11.3 km/h
2552 03-03-2019 20:35:00 12.4 C 8.3 g/m*3 12.4 C 12.9 km/h
2553 03-03-2019 20:40:00 12.4 C 8.3 g/m*3 12.4 C 9.7 km/h
2554 03-03-2019 20:45:00 12.3 C 8.36 g/m*3 12.3 C 14.5 km/h
2555 03-03-2019 20:50:00 12.3 C 8.36 g/m*3 12.3 C 17.7 km/h
2556 03-03-2019 20:55:00 12.3 C 8.36 g/m*3 12.3 C 17.7 km/h
2557 03-03-2019 21:00:00 12.3 C 8.36 g/m*3 12.3 C 17.7 km/h
2558 03-03-2019 21:05:00 12.3 C 8.36 g/m*3 12.3 C 12.9 km/h
2559 03-03-2019 21:10:00 12.3 C 8.36 g/m*3 12.3 C 27.4 km/h
2560 03-03-2019 21:15:00 12.3 C 8.36 g/m*3 12.3 C 11.3 km/h
2561 03-03-2019 21:20:00 12.3 C 8.36 g/m*3 12.3 C 17.7 km/h
2562 03-03-2019 21:25:00 12.3 C 8.36 g/m*3 12.3 C 19.3 km/h
2563 03-03-2019 21:30:00 12.3 C 8.36 g/m*3 12.3 C 25.7 km/h
2564 03-03-2019 21:35:00 12.3 C 8.36 g/m*3 12.3 C 24.1 km/h
2565 03-03-2019 21:40:00 12.4 C 8.41 g/m*3 12.4 C 20.9 km/h
2566 03-03-2019 21:45:00 12.4 C 8.41 g/m*3 12.4 C 24.1 km/h
2567 03-03-2019 21:50:00 12.4 C 8.41 g/m*3 12.4 C 27.4 km/h
2568 03-03-2019 21:55:00 12.4 C 8.52 g/m*3 12.4 C 24.1 km/h
2569 03-03-2019 22:00:00 12.4 C 8.52 g/m*3 12.4 C 25.7 km/h
2570 03-03-2019 22:05:00 12.4 C 8.52 g/m*3 12.4 C 19.3 km/h
2571 03-03-2019 22:10:00 12.4 C 8.52 g/m*3 12.4 C 19.3 km/h
2572 03-03-2019 22:15:00 12.4 C 8.41 g/m*3 12.4 C 25.7 km/h
2573 03-03-2019 22:20:00 12.4 C 8.41 g/m*3 12.4 C 19.3 km/h
2574 03-03-2019 22:25:00 12.5 C 8.47 g/m*3 12.5 C 17.7 km/h
2575 03-03-2019 22:30:00 12.5 C 8.47 g/m*3 12.5 C 14.5 km/h
Sensor: Nr:Datum:Temp:Abs-Feuchte:Windchill:Wind:
Aussen-T/F 2576 03-03-2019 22:35:00 12.6 C 8.41 g/m*3 12.6 C 17.7 km/h
2577 03-03-2019 22:40:00 12.6 C 8.41 g/m*3 12.6 C 16.1 km/h
2578 03-03-2019 22:45:00 12.7 C 8.35 g/m*3 12.7 C 19.3 km/h
2579 03-03-2019 22:50:00 12.7 C 8.35 g/m*3 12.7 C 16.1 km/h
2580 03-03-2019 22:55:00 12.7 C 8.35 g/m*3 12.7 C 9.7 km/h
2581 03-03-2019 23:00:00 12.7 C 8.24 g/m*3 12.7 C 11.3 km/h
2582 03-03-2019 23:05:00 12.8 C 8.29 g/m*3 12.8 C 11.3 km/h
2583 03-03-2019 23:10:00 12.8 C 8.29 g/m*3 12.8 C 1.6 km/h
2584 03-03-2019 23:15:00 12.8 C 8.29 g/m*3 12.8 C 4.8 km/h
2585 03-03-2019 23:20:00 12.7 C 8.24 g/m*3 12.7 C 4.8 km/h
2586 03-03-2019 23:25:00 12.7 C 8.24 g/m*3 12.7 C 3.2 km/h
2587 03-03-2019 23:30:00 12.7 C 8.24 g/m*3 12.7 C 8.1 km/h
2588 03-03-2019 23:35:00 12.7 C 8.24 g/m*3 12.7 C 4.8 km/h
2589 03-03-2019 23:40:00 12.8 C 8.18 g/m*3 12.8 C 6.4 km/h
2590 03-03-2019 23:45:00 12.8 C 8.29 g/m*3 12.8 C 9.7 km/h
2591 03-03-2019 23:50:00 12.8 C 8.18 g/m*3 12.8 C 6.4 km/h
2592 03-03-2019 23:55:00 12.8 C 8.18 g/m*3 12.8 C 4.8 km/h
2593 04-03-2019 00:00:00 12.9 C 8.23 g/m*3 12.9 C 3.2 km/h
2594 04-03-2019 00:05:00 12.9 C 8.23 g/m*3 12.9 C 8.1 km/h
2595 04-03-2019 00:10:00 12.9 C 8.11 g/m*3 12.9 C 4.8 km/h
2596 04-03-2019 00:15:00 13 C 8.17 g/m*3 13 C 9.7 km/h
2597 04-03-2019 00:20:00 13.1 C 8.22 g/m*3 13.1 C 3.2 km/h
2598 04-03-2019 00:25:00 13.1 C 8.1 g/m*3 13.1 C 8.1 km/h
2599 04-03-2019 00:30:00 13.2 C 8.15 g/m*3 13.2 C 8.1 km/h
2600 04-03-2019 00:35:00 13.2 C 8.04 g/m*3 13.2 C 9.7 km/h
Sensor: Nr:Datum:Temp:Abs-Feuchte:Windchill:Wind:
Aussen-T/F 2601 04-03-2019 00:40:00 13.2 C 8.15 g/m*3 13.2 C 14.5 km/h
2602 04-03-2019 00:45:00 13.2 C 8.04 g/m*3 13.2 C 14.5 km/h
2603 04-03-2019 00:50:00 13.3 C 8.09 g/m*3 13.3 C 9.7 km/h
2604 04-03-2019 00:55:00 13.3 C 8.09 g/m*3 13.3 C 6.4 km/h
2605 04-03-2019 01:00:00 13.3 C 7.97 g/m*3 13.3 C 3.2 km/h
2606 04-03-2019 01:05:00 13.3 C 8.09 g/m*3 13.3 C 1.6 km/h
2607 04-03-2019 01:10:00 13.3 C 8.09 g/m*3 13.3 C 6.4 km/h
2608 04-03-2019 01:15:00 13.3 C 8.09 g/m*3 13.3 C 1.6 km/h
2609 04-03-2019 01:20:00 13.3 C 7.97 g/m*3 13.3 C 9.7 km/h
2610 04-03-2019 01:25:00 13.3 C 7.97 g/m*3 13.3 C 12.9 km/h
2611 04-03-2019 01:30:00 13.4 C 7.9 g/m*3 13.4 C 16.1 km/h
2612 04-03-2019 01:35:00 13.6 C 7.89 g/m*3 13.6 C 12.9 km/h
2613 04-03-2019 01:40:00 13.8 C 7.98 g/m*3 13.8 C 19.3 km/h
2614 04-03-2019 01:45:00 13.8 C 7.98 g/m*3 13.8 C 24.1 km/h
2615 04-03-2019 01:50:00 13.9 C 8.03 g/m*3 13.9 C 30.6 km/h
2616 04-03-2019 01:55:00 13.8 C 8.22 g/m*3 13.8 C 24.1 km/h
2617 04-03-2019 02:00:00 13.6 C 8.24 g/m*3 13.6 C 24.1 km/h
2618 04-03-2019 02:05:00 13.3 C 8.2 g/m*3 13.3 C 25.7 km/h
2619 04-03-2019 02:10:00 13.2 C 8.27 g/m*3 13.2 C 37 km/h
2620 04-03-2019 02:15:00 12.9 C 8.34 g/m*3 12.9 C 38.6 km/h
2621 04-03-2019 02:20:00 12.8 C 8.4 g/m*3 12.8 C 38.6 km/h
2622 04-03-2019 02:25:00 12.6 C 8.41 g/m*3 12.6 C 27.4 km/h
2623 04-03-2019 02:30:00 12.5 C 8.47 g/m*3 12.5 C 19.3 km/h
2624 04-03-2019 02:35:00 12.3 C 8.36 g/m*3 12.3 C 22.5 km/h
2625 04-03-2019 02:40:00 12.3 C 8.47 g/m*3 12.3 C 29 km/h
Sensor: Nr:Datum:Temp:Abs-Feuchte:Windchill:Wind:
Aussen-T/F 2626 04-03-2019 02:45:00 12.2 C 8.42 g/m*3 12.2 C 24.1 km/h
2627 04-03-2019 02:50:00 12.2 C 8.42 g/m*3 12.2 C 22.5 km/h
2628 04-03-2019 02:55:00 12.1 C 8.47 g/m*3 12.1 C 24.1 km/h
2629 04-03-2019 03:00:00 12.1 C 8.47 g/m*3 12.1 C 30.6 km/h
2630 04-03-2019 03:05:00 12 C 8.42 g/m*3 12 C 19.3 km/h
2631 04-03-2019 03:10:00 11.9 C 8.47 g/m*3 11.9 C 24.1 km/h
2632 04-03-2019 03:15:00 11.8 C 8.42 g/m*3 11.8 C 17.7 km/h
2633 04-03-2019 03:20:00 11.8 C 8.42 g/m*3 11.8 C 19.3 km/h
2634 04-03-2019 03:25:00 11.7 C 8.47 g/m*3 11.7 C 19.3 km/h
2635 04-03-2019 03:30:00 11.7 C 8.47 g/m*3 11.7 C 20.9 km/h
2636 04-03-2019 03:35:00 11.7 C 8.47 g/m*3 11.7 C 12.9 km/h
2637 04-03-2019 03:40:00 11.7 C 8.47 g/m*3 11.7 C 12.9 km/h
2638 04-03-2019 03:45:00 11.7 C 8.47 g/m*3 11.7 C 14.5 km/h
2639 04-03-2019 03:50:00 11.7 C 8.47 g/m*3 11.7 C 11.3 km/h
2640 04-03-2019 03:55:00 11.7 C 8.47 g/m*3 11.7 C 14.5 km/h
2641 04-03-2019 04:00:00 11.7 C 8.47 g/m*3 11.7 C 6.4 km/h
2642 04-03-2019 04:05:00 11.7 C 8.47 g/m*3 11.7 C 8.1 km/h
2643 04-03-2019 04:10:00 11.6 C 8.42 g/m*3 11.6 C 8.1 km/h
2644 04-03-2019 04:15:00 11.6 C 8.42 g/m*3 11.6 C 4.8 km/h
2645 04-03-2019 04:20:00 11.6 C 8.42 g/m*3 11.6 C 12.9 km/h
2646 04-03-2019 04:25:00 11.7 C 8.58 g/m*3 11.7 C 14.5 km/h
2647 04-03-2019 04:30:00 11.7 C 8.58 g/m*3 11.7 C 11.3 km/h
2648 04-03-2019 04:35:00 11.7 C 8.58 g/m*3 11.7 C 9.7 km/h
2649 04-03-2019 04:40:00 11.7 C 8.58 g/m*3 11.7 C 8.1 km/h
2650 04-03-2019 04:45:00 11.7 C 8.58 g/m*3 11.7 C 11.3 km/h
Sensor: Nr:Datum:Temp:Abs-Feuchte:Windchill:Wind:
Aussen-T/F 2651 04-03-2019 04:50:00 11.7 C 8.58 g/m*3 11.7 C 17.7 km/h
2652 04-03-2019 04:55:00 11.7 C 8.47 g/m*3 11.7 C 16.1 km/h
2653 04-03-2019 05:00:00 11.7 C 8.47 g/m*3 11.7 C 11.3 km/h
2654 04-03-2019 05:05:00 11.7 C 8.37 g/m*3 11.7 C 11.3 km/h
2655 04-03-2019 05:10:00 11.8 C 8.42 g/m*3 11.8 C 16.1 km/h
2656 04-03-2019 05:15:00 11.8 C 8.42 g/m*3 11.8 C 17.7 km/h
2657 04-03-2019 05:20:00 11.8 C 8.42 g/m*3 11.8 C 9.7 km/h
2658 04-03-2019 05:25:00 11.8 C 8.42 g/m*3 11.8 C 9.7 km/h
2659 04-03-2019 05:30:00 11.7 C 8.37 g/m*3 11.7 C 6.4 km/h
2660 04-03-2019 05:35:00 11.6 C 8.21 g/m*3 11.6 C 6.4 km/h
2661 04-03-2019 05:40:00 11.6 C 8.32 g/m*3 11.6 C 8.1 km/h
2662 04-03-2019 05:45:00 11.4 C 8.21 g/m*3 11.4 C 8.1 km/h
2663 04-03-2019 05:50:00 11.4 C 8.21 g/m*3 11.4 C 1.6 km/h
2664 04-03-2019 05:55:00 11.3 C 8.26 g/m*3 11.3 C 4.8 km/h
2665 04-03-2019 06:00:00 11.3 C 8.26 g/m*3 11.3 C 17.7 km/h
2666 04-03-2019 06:05:00 11.4 C 8.21 g/m*3 11.4 C 11.3 km/h
2667 04-03-2019 06:10:00 11.4 C 8.21 g/m*3 11.4 C 4.8 km/h
2668 04-03-2019 06:15:00 11.3 C 8.16 g/m*3 11.3 C 6.4 km/h
2669 04-03-2019 06:20:00 11.3 C 8.06 g/m*3 11.3 C 6.4 km/h
2670 04-03-2019 06:25:00 11.3 C 7.96 g/m*3 11.3 C 14.5 km/h
2671 04-03-2019 06:30:00 11.5 C 7.95 g/m*3 11.5 C 11.3 km/h
2672 04-03-2019 06:35:00 11.6 C 8.21 g/m*3 11.6 C 16.1 km/h
2673 04-03-2019 06:40:00 11.6 C 8.21 g/m*3 11.6 C 9.7 km/h
2674 04-03-2019 06:45:00 11.5 C 8.06 g/m*3 11.5 C 17.7 km/h
2675 04-03-2019 06:50:00 11.6 C 8.11 g/m*3 11.6 C 14.5 km/h
Sensor: Nr:Datum:Temp:Abs-Feuchte:Windchill:Wind:
Aussen-T/F 2676 04-03-2019 06:55:00 11.6 C 8.11 g/m*3 11.6 C 16.1 km/h
2677 04-03-2019 07:00:00 11.6 C 8 g/m*3 11.6 C 11.3 km/h
2678 04-03-2019 07:05:00 11.7 C 7.95 g/m*3 11.7 C 24.1 km/h
2679 04-03-2019 07:10:00 11.8 C 8 g/m*3 11.8 C 19.3 km/h
2680 04-03-2019 07:15:00 11.9 C 7.94 g/m*3 11.9 C 20.9 km/h
2681 04-03-2019 07:20:00 12 C 7.89 g/m*3 12 C 19.3 km/h
2682 04-03-2019 07:25:00 12 C 7.89 g/m*3 12 C 20.9 km/h
2683 04-03-2019 07:30:00 12.1 C 7.83 g/m*3 12.1 C 11.3 km/h
2684 04-03-2019 07:35:00 12.1 C 7.83 g/m*3 12.1 C 17.7 km/h
2685 04-03-2019 07:40:00 12.2 C 7.77 g/m*3 12.2 C 17.7 km/h
2686 04-03-2019 07:45:00 12.2 C 7.77 g/m*3 12.2 C 11.3 km/h
2687 04-03-2019 07:50:00 12.2 C 7.77 g/m*3 12.2 C 14.5 km/h
2688 04-03-2019 07:55:00 12.2 C 7.77 g/m*3 12.2 C 14.5 km/h
2689 04-03-2019 08:00:00 12.3 C 7.82 g/m*3 12.3 C 17.7 km/h
2690 04-03-2019 08:05:00 12.3 C 7.71 g/m*3 12.3 C 20.9 km/h
2691 04-03-2019 08:10:00 12.4 C 7.65 g/m*3 12.4 C 25.7 km/h
2692 04-03-2019 08:15:00 12.4 C 7.54 g/m*3 12.4 C 32.2 km/h
2693 04-03-2019 08:20:00 12.6 C 7.52 g/m*3 12.6 C 22.5 km/h
2694 04-03-2019 08:25:00 12.7 C 7.57 g/m*3 12.7 C 30.6 km/h
2695 04-03-2019 08:30:00 12.7 C 7.46 g/m*3 12.7 C 46.7 km/h
2696 04-03-2019 08:35:00 12 C 7.99 g/m*3 12 C 49.9 km/h
2697 04-03-2019 08:40:00 10.7 C 7.56 g/m*3 6.9 C 40.2 km/h
2698 04-03-2019 08:45:00 9.7 C 7.38 g/m*3 5.93 C 33.8 km/h
2699 04-03-2019 08:50:00 9.2 C 7.14 g/m*3 5.49 C 30.6 km/h
2700 04-03-2019 08:55:00 8.9 C 7.1 g/m*3 4.99 C 32.2 km/h
Sensor: Nr:Datum:Temp:Abs-Feuchte:Windchill:Wind:
Aussen-T/F 2701 04-03-2019 09:00:00 8.9 C 6.92 g/m*3 5.33 C 27.4 km/h
2702 04-03-2019 09:05:00 9 C 6.79 g/m*3 5.6 C 25.7 km/h
2703 04-03-2019 09:10:00 9.2 C 6.7 g/m*3 5.86 C 25.7 km/h
2704 04-03-2019 09:15:00 9.4 C 6.69 g/m*3 5.98 C 27.4 km/h
2705 04-03-2019 09:20:00 9.6 C 6.69 g/m*3 6.24 C 27.4 km/h
2706 04-03-2019 09:25:00 9.6 C 6.69 g/m*3 5.9 C 32.2 km/h
2707 04-03-2019 09:30:00 9.7 C 6.73 g/m*3 6.37 C 27.4 km/h
2708 04-03-2019 09:35:00 9.8 C 6.96 g/m*3 6.76 C 24.1 km/h
2709 04-03-2019 09:40:00 9.8 C 7.24 g/m*3 7.04 C 20.9 km/h
2710 04-03-2019 09:45:00 9.4 C 7.15 g/m*3 6.69 C 19.3 km/h
2711 04-03-2019 09:50:00 9.2 C 7.14 g/m*3 6.13 C 22.5 km/h
2712 04-03-2019 09:55:00 9.1 C 7.1 g/m*3 5.73 C 25.7 km/h
2713 04-03-2019 10:00:00 9.1 C 7.1 g/m*3 6 C 22.5 km/h
2714 04-03-2019 10:05:00 9.2 C 7.14 g/m*3 6.13 C 22.5 km/h
2715 04-03-2019 10:10:00 9.4 C 7.15 g/m*3 6.11 C 25.7 km/h
2716 04-03-2019 10:15:00 9.6 C 7.15 g/m*3 6.24 C 27.4 km/h
2717 04-03-2019 10:20:00 9.7 C 7.1 g/m*3 6.91 C 20.9 km/h
2718 04-03-2019 10:25:00 9.9 C 7.19 g/m*3 7.48 C 17.7 km/h
2719 04-03-2019 10:30:00 10 C 7.14 g/m*3 6.76 C 27.4 km/h
2720 04-03-2019 10:35:00 10.1 C 7.19 g/m*3 7.73 C 17.7 km/h
2721 04-03-2019 10:40:00 10.2 C 7.23 g/m*3 7.14 C 25.7 km/h
2722 04-03-2019 10:45:00 10.3 C 7.18 g/m*3 7.53 C 22.5 km/h
2723 04-03-2019 10:50:00 10.6 C 7.22 g/m*3 7.66 C 25.7 km/h
2724 04-03-2019 10:55:00 10.8 C 7.02 g/m*3 7.58 C 30.6 km/h
2725 04-03-2019 11:00:00 11.1 C 7.05 g/m*3 11.1 C 27.4 km/h
Sensor: Nr:Datum:Temp:Abs-Feuchte:Windchill:Wind:
Aussen-T/F 2726 04-03-2019 11:05:00 11.3 C 6.94 g/m*3 11.3 C 33.8 km/h
2727 04-03-2019 11:10:00 11.6 C 6.96 g/m*3 11.6 C 29 km/h
2728 04-03-2019 11:15:00 11.7 C 6.9 g/m*3 11.7 C 29 km/h
2729 04-03-2019 11:20:00 11.7 C 6.8 g/m*3 11.7 C 27.4 km/h
2730 04-03-2019 11:25:00 11.6 C 7.07 g/m*3 11.6 C 30.6 km/h
2731 04-03-2019 11:30:00 11.2 C 7.1 g/m*3 11.2 C 20.9 km/h
2732 04-03-2019 11:35:00 10.9 C 7.06 g/m*3 7.61 C 32.2 km/h
2733 04-03-2019 11:40:00 10.8 C 7.02 g/m*3 8.3 C 20.9 km/h
2734 04-03-2019 11:45:00 10.9 C 7.16 g/m*3 8.43 C 20.9 km/h
2735 04-03-2019 11:50:00 11 C 7.11 g/m*3 7.74 C 32.2 km/h
2736 04-03-2019 11:55:00 11 C 7.11 g/m*3 8.3 C 24.1 km/h
2737 04-03-2019 12:00:00 11.2 C 6.99 g/m*3 11.2 C 29 km/h
2738 04-03-2019 12:05:00 11.3 C 6.94 g/m*3 11.3 C 30.6 km/h
2739 04-03-2019 12:10:00 11.4 C 6.98 g/m*3 11.4 C 27.4 km/h
2740 04-03-2019 12:15:00 11.6 C 7.07 g/m*3 11.6 C 29 km/h
2741 04-03-2019 12:20:00 11.8 C 7.05 g/m*3 11.8 C 33.8 km/h
2742 04-03-2019 12:25:00 12 C 7.14 g/m*3 12 C 27.4 km/h
2743 04-03-2019 12:30:00 11.9 C 7.2 g/m*3 11.9 C 27.4 km/h
2744 04-03-2019 12:35:00 11.4 C 7.49 g/m*3 11.4 C 25.7 km/h
2745 04-03-2019 12:40:00 10.6 C 7.61 g/m*3 7.66 C 25.7 km/h
2746 04-03-2019 12:45:00 9.8 C 7.61 g/m*3 6.5 C 27.4 km/h
2747 04-03-2019 12:50:00 9.5 C 7.55 g/m*3 6.51 C 22.5 km/h
2748 04-03-2019 12:55:00 9.3 C 7.55 g/m*3 5.98 C 25.7 km/h
2749 04-03-2019 13:00:00 8.8 C 7.49 g/m*3 5.34 C 25.7 km/h
2750 04-03-2019 13:05:00 8.7 C 7.61 g/m*3 5.98 C 17.7 km/h
Sensor: Nr:Datum:Temp:Abs-Feuchte:Windchill:Wind:
Aussen-T/F 2751 04-03-2019 13:10:00 9.1 C 7.99 g/m*3 5.73 C 25.7 km/h
2752 04-03-2019 13:15:00 9.3 C 7.82 g/m*3 5.62 C 30.6 km/h
2753 04-03-2019 13:20:00 9.4 C 7.78 g/m*3 6.25 C 24.1 km/h
2754 04-03-2019 13:25:00 9.7 C 7.84 g/m*3 6.63 C 24.1 km/h
2755 04-03-2019 13:30:00 9.9 C 7.75 g/m*3 6.51 C 29 km/h
2756 04-03-2019 13:35:00 10.3 C 7.76 g/m*3 7.27 C 25.7 km/h
2757 04-03-2019 13:40:00 10.5 C 7.76 g/m*3 8.23 C 17.7 km/h
2758 04-03-2019 13:45:00 10.4 C 7.81 g/m*3 7.16 C 29 km/h
2759 04-03-2019 13:50:00 10.4 C 7.81 g/m*3 7.53 C 24.1 km/h
2760 04-03-2019 13:55:00 10.3 C 7.76 g/m*3 7.27 C 25.7 km/h
2761 04-03-2019 14:00:00 10.2 C 7.8 g/m*3 7.7 C 19.3 km/h
2762 04-03-2019 14:05:00 10.2 C 7.8 g/m*3 6.5 C 35.4 km/h
2763 04-03-2019 14:10:00 10.1 C 7.94 g/m*3 7.57 C 19.3 km/h
2764 04-03-2019 14:15:00 9.9 C 7.75 g/m*3 7.02 C 22.5 km/h
2765 04-03-2019 14:20:00 9.9 C 7.75 g/m*3 7.02 C 22.5 km/h
2766 04-03-2019 14:25:00 9.9 C 7.56 g/m*3 6.76 C 25.7 km/h
2767 04-03-2019 14:30:00 9.8 C 7.52 g/m*3 6.63 C 25.7 km/h
2768 04-03-2019 14:35:00 9.6 C 7.51 g/m*3 6.37 C 25.7 km/h
2769 04-03-2019 14:40:00 9.1 C 7.45 g/m*3 5.73 C 25.7 km/h
2770 04-03-2019 14:45:00 8.6 C 7.39 g/m*3 5.37 C 22.5 km/h
2771 04-03-2019 14:50:00 8.2 C 7.2 g/m*3 5.18 C 19.3 km/h
2772 04-03-2019 14:55:00 7.8 C 7.02 g/m*3 4.86 C 17.7 km/h
2773 04-03-2019 15:00:00 7.6 C 6.85 g/m*3 4.61 C 17.7 km/h
2774 04-03-2019 15:05:00 7.4 C 6.76 g/m*3 4.78 C 14.5 km/h
2775 04-03-2019 15:10:00 7.2 C 6.75 g/m*3 4.53 C 14.5 km/h
Sensor: Nr:Datum:Temp:Abs-Feuchte:Windchill:Wind:
Aussen-T/F 2776 04-03-2019 15:15:00 7.2 C 6.75 g/m*3 4.77 C 12.9 km/h
2777 04-03-2019 15:20:00 7.1 C 6.71 g/m*3 5.58 C 8.1 km/h
2778 04-03-2019 15:25:00 7.1 C 6.71 g/m*3 5.58 C 8.1 km/h
2779 04-03-2019 15:30:00 6.9 C 6.54 g/m*3 4.16 C 14.5 km/h
2780 04-03-2019 15:35:00 6.9 C 6.47 g/m*3 3.94 C 16.1 km/h
2781 04-03-2019 15:40:00 6.9 C 6.47 g/m*3 3.94 C 16.1 km/h
2782 04-03-2019 15:45:00 6.9 C 6.39 g/m*3 3.2 C 22.5 km/h
2783 04-03-2019 15:50:00 6.9 C 6.31 g/m*3 3.94 C 16.1 km/h
2784 04-03-2019 15:55:00 7.1 C 6.32 g/m*3 3.98 C 17.7 km/h
2785 04-03-2019 16:00:00 7.3 C 6.4 g/m*3 4.44 C 16.1 km/h
2786 04-03-2019 16:05:00 7.4 C 6.44 g/m*3 4.56 C 16.1 km/h
2787 04-03-2019 16:10:00 7.4 C 6.44 g/m*3 4 C 20.9 km/h
2788 04-03-2019 16:15:00 7.6 C 6.53 g/m*3 5.53 C 11.3 km/h
2789 04-03-2019 16:20:00 7.6 C 6.44 g/m*3 5.26 C 12.9 km/h
2790 04-03-2019 16:25:00 7.6 C 6.44 g/m*3 5.02 C 14.5 km/h
2791 04-03-2019 16:30:00 7.6 C 6.36 g/m*3 4.61 C 17.7 km/h
2792 04-03-2019 16:35:00 7.6 C 6.36 g/m*3 4.61 C 17.7 km/h
2793 04-03-2019 16:40:00 7.6 C 6.28 g/m*3 4.25 C 20.9 km/h
2794 04-03-2019 16:45:00 7.6 C 6.36 g/m*3 5.53 C 11.3 km/h
2795 04-03-2019 16:50:00 7.6 C 6.36 g/m*3 5.26 C 12.9 km/h
2796 04-03-2019 16:55:00 7.6 C 6.28 g/m*3 4.81 C 16.1 km/h
2797 04-03-2019 17:00:00 7.6 C 6.28 g/m*3 5.26 C 12.9 km/h
2798 04-03-2019 17:05:00 7.6 C 6.28 g/m*3 5.26 C 12.9 km/h
2799 04-03-2019 17:10:00 7.6 C 6.28 g/m*3 4.61 C 17.7 km/h
2800 04-03-2019 17:15:00 7.5 C 6.32 g/m*3 5.41 C 11.3 km/h
Sensor: Nr:Datum:Temp:Abs-Feuchte:Windchill:Wind:
Aussen-T/F 2801 04-03-2019 17:20:00 7.4 C 6.2 g/m*3 5.02 C 12.9 km/h
2802 04-03-2019 17:25:00 7.4 C 6.28 g/m*3 5.93 C 8.1 km/h
2803 04-03-2019 17:30:00 7.3 C 6.24 g/m*3 4.9 C 12.9 km/h
2804 04-03-2019 17:35:00 7.3 C 6.24 g/m*3 5.81 C 8.1 km/h
2805 04-03-2019 17:40:00 7.3 C 6.24 g/m*3 5.47 C 9.7 km/h
2806 04-03-2019 17:45:00 7.3 C 6.24 g/m*3 5.81 C 8.1 km/h
2807 04-03-2019 17:50:00 7.3 C 6.24 g/m*3 4.9 C 12.9 km/h
2808 04-03-2019 17:55:00 7.2 C 6.2 g/m*3 4.11 C 17.7 km/h
2809 04-03-2019 18:00:00 7.2 C 6.2 g/m*3 5.04 C 11.3 km/h
2810 04-03-2019 18:05:00 7.2 C 6.28 g/m*3 5.35 C 9.7 km/h
2811 04-03-2019 18:10:00 7.1 C 6.24 g/m*3 5.58 C 8.1 km/h
2812 04-03-2019 18:15:00 7 C 6.2 g/m*3 4.53 C 12.9 km/h
2813 04-03-2019 18:20:00 6.9 C 6.24 g/m*3 4.16 C 14.5 km/h
2814 04-03-2019 18:25:00 6.9 C 6.24 g/m*3 3.73 C 17.7 km/h
2815 04-03-2019 18:30:00 7 C 6.2 g/m*3 5.9 C 6.4 km/h
2816 04-03-2019 18:35:00 6.9 C 6.16 g/m*3 4.99 C 9.7 km/h
2817 04-03-2019 18:40:00 6.9 C 6.24 g/m*3 4.99 C 9.7 km/h
2818 04-03-2019 18:45:00 6.8 C 6.19 g/m*3 5.67 C 6.4 km/h
2819 04-03-2019 18:50:00 6.8 C 6.19 g/m*3 4.29 C 12.9 km/h
2820 04-03-2019 18:55:00 6.9 C 6.24 g/m*3 4.16 C 14.5 km/h
2821 04-03-2019 19:00:00 6.9 C 6.24 g/m*3 4.68 C 11.3 km/h
2822 04-03-2019 19:05:00 6.9 C 6.24 g/m*3 4.99 C 9.7 km/h
2823 04-03-2019 19:10:00 6.9 C 6.24 g/m*3 4.68 C 11.3 km/h
2824 04-03-2019 19:15:00 6.9 C 6.24 g/m*3 3.94 C 16.1 km/h
2825 04-03-2019 19:20:00 6.9 C 6.24 g/m*3 4.68 C 11.3 km/h
Sensor: Nr:Datum:Temp:Abs-Feuchte:Windchill:Wind:
Aussen-T/F 2826 04-03-2019 19:25:00 6.9 C 6.24 g/m*3 3.73 C 17.7 km/h
2827 04-03-2019 19:30:00 6.9 C 6.24 g/m*3 4.68 C 11.3 km/h
2828 04-03-2019 19:35:00 6.9 C 6.31 g/m*3 3.73 C 17.7 km/h
2829 04-03-2019 19:40:00 6.8 C 6.27 g/m*3 4.56 C 11.3 km/h
2830 04-03-2019 19:45:00 6.8 C 6.27 g/m*3 3.82 C 16.1 km/h
2831 04-03-2019 19:50:00 6.8 C 6.27 g/m*3 3.07 C 22.5 km/h
2832 04-03-2019 19:55:00 6.8 C 6.27 g/m*3 3.42 C 19.3 km/h
2833 04-03-2019 20:00:00 6.9 C 6.31 g/m*3 3.37 C 20.9 km/h
2834 04-03-2019 20:05:00 6.9 C 6.31 g/m*3 4.99 C 9.7 km/h
2835 04-03-2019 20:10:00 6.9 C 6.31 g/m*3 3.73 C 17.7 km/h
2836 04-03-2019 20:15:00 7 C 6.28 g/m*3 4.06 C 16.1 km/h
2837 04-03-2019 20:20:00 7.1 C 6.32 g/m*3 4.41 C 14.5 km/h
2838 04-03-2019 20:25:00 7.1 C 6.32 g/m*3 4.41 C 14.5 km/h
2839 04-03-2019 20:30:00 7.1 C 6.32 g/m*3 3.98 C 17.7 km/h
2840 04-03-2019 20:35:00 7.1 C 6.32 g/m*3 5.23 C 9.7 km/h
2841 04-03-2019 20:40:00 6.9 C 6.24 g/m*3 4.99 C 9.7 km/h
2842 04-03-2019 20:45:00 6.9 C 6.31 g/m*3 5.34 C 8.1 km/h
2843 04-03-2019 20:50:00 6.8 C 6.27 g/m*3 6.8 C 4.8 km/h
2844 04-03-2019 20:55:00 6.7 C 6.23 g/m*3 5.11 C 8.1 km/h
2845 04-03-2019 21:00:00 6.6 C 6.27 g/m*3 4.32 C 11.3 km/h
2846 04-03-2019 21:05:00 6.6 C 6.19 g/m*3 4.04 C 12.9 km/h
2847 04-03-2019 21:10:00 6.6 C 6.27 g/m*3 4.99 C 8.1 km/h
2848 04-03-2019 21:15:00 6.6 C 6.27 g/m*3 4.99 C 8.1 km/h
2849 04-03-2019 21:20:00 6.6 C 6.27 g/m*3 4.32 C 11.3 km/h
2850 04-03-2019 21:25:00 6.6 C 6.27 g/m*3 4.04 C 12.9 km/h
Sensor: Nr:Datum:Temp:Abs-Feuchte:Windchill:Wind:
Aussen-T/F 2851 04-03-2019 21:30:00 6.6 C 6.27 g/m*3 3.79 C 14.5 km/h
2852 04-03-2019 21:35:00 6.6 C 6.27 g/m*3 5.44 C 6.4 km/h
2853 04-03-2019 21:40:00 6.6 C 6.34 g/m*3 4.63 C 9.7 km/h
2854 04-03-2019 21:45:00 6.6 C 6.34 g/m*3 4.99 C 8.1 km/h
2855 04-03-2019 21:50:00 6.7 C 6.38 g/m*3 4.75 C 9.7 km/h
2856 04-03-2019 21:55:00 6.7 C 6.38 g/m*3 4.75 C 9.7 km/h
2857 04-03-2019 22:00:00 6.9 C 6.54 g/m*3 4.99 C 9.7 km/h
2858 04-03-2019 22:05:00 7 C 6.59 g/m*3 3.86 C 17.7 km/h
2859 04-03-2019 22:10:00 7.1 C 6.55 g/m*3 3.15 C 25.7 km/h
2860 04-03-2019 22:15:00 7.1 C 6.47 g/m*3 3.62 C 20.9 km/h
2861 04-03-2019 22:20:00 7.2 C 6.44 g/m*3 3.92 C 19.3 km/h
2862 04-03-2019 22:25:00 7.1 C 6.4 g/m*3 3.62 C 20.9 km/h
2863 04-03-2019 22:30:00 7.1 C 6.4 g/m*3 3.98 C 17.7 km/h
2864 04-03-2019 22:35:00 7.1 C 6.4 g/m*3 4.41 C 14.5 km/h
2865 04-03-2019 22:40:00 7.1 C 6.4 g/m*3 5.23 C 9.7 km/h
2866 04-03-2019 22:45:00 7.2 C 6.44 g/m*3 5.35 C 9.7 km/h
2867 04-03-2019 22:50:00 7.1 C 6.4 g/m*3 4.65 C 12.9 km/h
2868 04-03-2019 22:55:00 7.1 C 6.4 g/m*3 4.65 C 12.9 km/h
2869 04-03-2019 23:00:00 7.1 C 6.4 g/m*3 4.19 C 16.1 km/h
2870 04-03-2019 23:05:00 7.1 C 6.4 g/m*3 4.19 C 16.1 km/h
2871 04-03-2019 23:10:00 6.9 C 6.31 g/m*3 3.54 C 19.3 km/h
2872 04-03-2019 23:15:00 6.8 C 6.35 g/m*3 4.04 C 14.5 km/h
2873 04-03-2019 23:20:00 6.7 C 6.31 g/m*3 4.17 C 12.9 km/h
2874 04-03-2019 23:25:00 6.6 C 6.34 g/m*3 4.63 C 9.7 km/h
2875 04-03-2019 23:30:00 6.6 C 6.34 g/m*3 4.63 C 9.7 km/h
Sensor: Nr:Datum:Temp:Abs-Feuchte:Windchill:Wind:
Aussen-T/F 2876 04-03-2019 23:35:00 6.5 C 6.37 g/m*3 5.33 C 6.4 km/h
2877 04-03-2019 23:40:00 6.5 C 6.37 g/m*3 5.33 C 6.4 km/h
2878 04-03-2019 23:45:00 6.5 C 6.37 g/m*3 5.33 C 6.4 km/h
2879 04-03-2019 23:50:00 6.5 C 6.37 g/m*3 4.51 C 9.7 km/h
2880 04-03-2019 23:55:00 6.6 C 6.34 g/m*3 5.44 C 6.4 km/h
2881 05-03-2019 00:00:00 6.6 C 6.34 g/m*3 5.44 C 6.4 km/h
2882 05-03-2019 00:05:00 6.6 C 6.34 g/m*3 5.44 C 6.4 km/h
2883 05-03-2019 00:10:00 6.7 C 6.31 g/m*3 5.56 C 6.4 km/h
2884 05-03-2019 00:15:00 6.8 C 6.35 g/m*3 4.29 C 12.9 km/h
2885 05-03-2019 00:20:00 6.9 C 6.31 g/m*3 4.41 C 12.9 km/h
2886 05-03-2019 00:25:00 6.9 C 6.24 g/m*3 4.16 C 14.5 km/h
2887 05-03-2019 00:30:00 7 C 6.28 g/m*3 5.11 C 9.7 km/h
2888 05-03-2019 00:35:00 7 C 6.2 g/m*3 4.29 C 14.5 km/h
2889 05-03-2019 00:40:00 7 C 6.2 g/m*3 4.29 C 14.5 km/h
2890 05-03-2019 00:45:00 7 C 6.2 g/m*3 3.17 C 24.1 km/h
2891 05-03-2019 00:50:00 7 C 6.2 g/m*3 4.8 C 11.3 km/h
2892 05-03-2019 00:55:00 7 C 6.2 g/m*3 4.06 C 16.1 km/h
2893 05-03-2019 01:00:00 6.9 C 6.16 g/m*3 5.34 C 8.1 km/h
2894 05-03-2019 01:05:00 6.9 C 6.16 g/m*3 5.34 C 8.1 km/h
2895 05-03-2019 01:10:00 6.9 C 6.16 g/m*3 4.68 C 11.3 km/h
2896 05-03-2019 01:15:00 6.9 C 6.24 g/m*3 4.41 C 12.9 km/h
2897 05-03-2019 01:20:00 6.9 C 6.16 g/m*3 5.34 C 8.1 km/h
2898 05-03-2019 01:25:00 6.9 C 6.24 g/m*3 5.34 C 8.1 km/h
2899 05-03-2019 01:30:00 6.8 C 6.19 g/m*3 4.29 C 12.9 km/h
2900 05-03-2019 01:35:00 6.8 C 6.19 g/m*3 3.82 C 16.1 km/h
Sensor: Nr:Datum:Temp:Abs-Feuchte:Windchill:Wind:
Aussen-T/F 2901 05-03-2019 01:40:00 6.9 C 6.24 g/m*3 3.94 C 16.1 km/h
2902 05-03-2019 01:45:00 6.9 C 6.24 g/m*3 3.54 C 19.3 km/h
2903 05-03-2019 01:50:00 6.9 C 6.16 g/m*3 3.73 C 17.7 km/h
2904 05-03-2019 01:55:00 6.8 C 6.12 g/m*3 3.82 C 16.1 km/h
2905 05-03-2019 02:00:00 6.8 C 6.12 g/m*3 4.29 C 12.9 km/h
2906 05-03-2019 02:05:00 6.8 C 6.12 g/m*3 2.76 C 25.7 km/h
2907 05-03-2019 02:10:00 6.8 C 6.12 g/m*3 3.42 C 19.3 km/h
2908 05-03-2019 02:15:00 6.8 C 6.12 g/m*3 3.82 C 16.1 km/h
2909 05-03-2019 02:20:00 6.7 C 6.08 g/m*3 3.48 C 17.7 km/h
2910 05-03-2019 02:25:00 6.8 C 6.12 g/m*3 3.42 C 19.3 km/h
2911 05-03-2019 02:30:00 6.8 C 6.12 g/m*3 3.61 C 17.7 km/h
2912 05-03-2019 02:35:00 6.8 C 6.04 g/m*3 3.82 C 16.1 km/h
2913 05-03-2019 02:40:00 6.8 C 6.12 g/m*3 3.61 C 17.7 km/h
2914 05-03-2019 02:45:00 6.8 C 6.12 g/m*3 3.82 C 16.1 km/h
2915 05-03-2019 02:50:00 6.8 C 6.12 g/m*3 3.24 C 20.9 km/h
2916 05-03-2019 02:55:00 6.8 C 6.12 g/m*3 3.82 C 16.1 km/h
2917 05-03-2019 03:00:00 6.8 C 6.12 g/m*3 3.24 C 20.9 km/h
2918 05-03-2019 03:05:00 6.8 C 6.12 g/m*3 3.82 C 16.1 km/h
2919 05-03-2019 03:10:00 6.8 C 6.12 g/m*3 4.04 C 14.5 km/h
2920 05-03-2019 03:15:00 6.8 C 6.12 g/m*3 4.29 C 12.9 km/h
2921 05-03-2019 03:20:00 6.8 C 6.12 g/m*3 3.42 C 19.3 km/h
2922 05-03-2019 03:25:00 6.8 C 6.12 g/m*3 2.91 C 24.1 km/h
2923 05-03-2019 03:30:00 6.8 C 6.19 g/m*3 3.42 C 19.3 km/h
2924 05-03-2019 03:35:00 6.8 C 6.19 g/m*3 4.56 C 11.3 km/h
2925 05-03-2019 03:40:00 6.7 C 6.15 g/m*3 2.94 C 22.5 km/h
Sensor: Nr:Datum:Temp:Abs-Feuchte:Windchill:Wind:
Aussen-T/F 2926 05-03-2019 03:45:00 6.6 C 6.11 g/m*3 3.57 C 16.1 km/h
2927 05-03-2019 03:50:00 6.6 C 6.11 g/m*3 4.04 C 12.9 km/h
2928 05-03-2019 03:55:00 6.6 C 6.11 g/m*3 3.57 C 16.1 km/h
2929 05-03-2019 04:00:00 6.6 C 6.11 g/m*3 3.79 C 14.5 km/h
2930 05-03-2019 04:05:00 6.4 C 6.04 g/m*3 2.91 C 19.3 km/h
2931 05-03-2019 04:10:00 6.4 C 6.04 g/m*3 2.91 C 19.3 km/h
2932 05-03-2019 04:15:00 6.4 C 6.04 g/m*3 3.55 C 14.5 km/h
2933 05-03-2019 04:20:00 6.4 C 6.04 g/m*3 4.75 C 8.1 km/h
2934 05-03-2019 04:25:00 6.4 C 6.04 g/m*3 5.21 C 6.4 km/h
2935 05-03-2019 04:30:00 6.4 C 6.04 g/m*3 4.75 C 8.1 km/h
2936 05-03-2019 04:35:00 6.4 C 6.04 g/m*3 4.75 C 8.1 km/h
2937 05-03-2019 04:40:00 6.4 C 6.04 g/m*3 2.91 C 19.3 km/h
2938 05-03-2019 04:45:00 6.4 C 6.04 g/m*3 3.8 C 12.9 km/h
2939 05-03-2019 04:50:00 6.4 C 6.04 g/m*3 2.91 C 19.3 km/h
2940 05-03-2019 04:55:00 6.5 C 6 g/m*3 2.53 C 24.1 km/h
2941 05-03-2019 05:00:00 6.5 C 6.07 g/m*3 4.2 C 11.3 km/h
2942 05-03-2019 05:05:00 6.5 C 6 g/m*3 3.92 C 12.9 km/h
2943 05-03-2019 05:10:00 6.4 C 6.04 g/m*3 3.11 C 17.7 km/h
2944 05-03-2019 05:15:00 6.4 C 6.04 g/m*3 3.32 C 16.1 km/h
2945 05-03-2019 05:20:00 6.3 C 6 g/m*3 2.61 C 20.9 km/h
2946 05-03-2019 05:25:00 6.3 C 6 g/m*3 3.2 C 16.1 km/h
2947 05-03-2019 05:30:00 6.3 C 6 g/m*3 3.96 C 11.3 km/h
2948 05-03-2019 05:35:00 6.3 C 6 g/m*3 4.27 C 9.7 km/h
2949 05-03-2019 05:40:00 6.3 C 6 g/m*3 3.68 C 12.9 km/h
2950 05-03-2019 05:45:00 6.3 C 6 g/m*3 3.43 C 14.5 km/h
Sensor: Nr:Datum:Temp:Abs-Feuchte:Windchill:Wind:
Aussen-T/F 2951 05-03-2019 05:50:00 6.3 C 6 g/m*3 2.61 C 20.9 km/h
2952 05-03-2019 05:55:00 6.3 C 6 g/m*3 3.68 C 12.9 km/h
2953 05-03-2019 06:00:00 6.3 C 5.92 g/m*3 4.27 C 9.7 km/h
2954 05-03-2019 06:05:00 6.3 C 5.92 g/m*3 2.98 C 17.7 km/h
2955 05-03-2019 06:10:00 6.3 C 5.92 g/m*3 3.68 C 12.9 km/h
2956 05-03-2019 06:15:00 6.3 C 5.85 g/m*3 4.27 C 9.7 km/h
2957 05-03-2019 06:20:00 6.2 C 5.88 g/m*3 3.84 C 11.3 km/h
2958 05-03-2019 06:25:00 6.2 C 5.88 g/m*3 3.3 C 14.5 km/h
2959 05-03-2019 06:30:00 6.1 C 5.84 g/m*3 3.72 C 11.3 km/h
2960 05-03-2019 06:35:00 6.2 C 5.88 g/m*3 3.56 C 12.9 km/h
2961 05-03-2019 06:40:00 6.2 C 5.88 g/m*3 3.56 C 12.9 km/h
2962 05-03-2019 06:45:00 6.2 C 5.88 g/m*3 3.84 C 11.3 km/h
2963 05-03-2019 06:50:00 6.3 C 5.85 g/m*3 2.61 C 20.9 km/h
2964 05-03-2019 06:55:00 6.3 C 5.85 g/m*3 2.61 C 20.9 km/h
2965 05-03-2019 07:00:00 6.3 C 5.85 g/m*3 3.68 C 12.9 km/h
2966 05-03-2019 07:05:00 6.3 C 5.85 g/m*3 3.2 C 16.1 km/h
2967 05-03-2019 07:10:00 6.3 C 5.92 g/m*3 2.61 C 20.9 km/h
2968 05-03-2019 07:15:00 6.3 C 5.92 g/m*3 3.43 C 14.5 km/h
2969 05-03-2019 07:20:00 6.4 C 5.96 g/m*3 2.56 C 22.5 km/h
2970 05-03-2019 07:25:00 6.4 C 5.89 g/m*3 3.11 C 17.7 km/h
2971 05-03-2019 07:30:00 6.5 C 5.92 g/m*3 2.09 C 29 km/h
2972 05-03-2019 07:35:00 6.6 C 5.96 g/m*3 2.99 C 20.9 km/h
2973 05-03-2019 07:40:00 6.6 C 5.96 g/m*3 3.17 C 19.3 km/h
2974 05-03-2019 07:45:00 6.6 C 5.96 g/m*3 2.82 C 22.5 km/h
2975 05-03-2019 07:50:00 6.7 C 6 g/m*3 3.29 C 19.3 km/h
Sensor: Nr:Datum:Temp:Abs-Feuchte:Windchill:Wind:
Aussen-T/F 2976 05-03-2019 07:55:00 6.7 C 6 g/m*3 4.44 C 11.3 km/h
2977 05-03-2019 08:00:00 6.7 C 6.08 g/m*3 4.44 C 11.3 km/h
2978 05-03-2019 08:05:00 6.6 C 6.04 g/m*3 3.36 C 17.7 km/h
2979 05-03-2019 08:10:00 6.6 C 6.04 g/m*3 2.51 C 25.7 km/h
2980 05-03-2019 08:15:00 6.6 C 6.04 g/m*3 2.82 C 22.5 km/h
2981 05-03-2019 08:20:00 6.6 C 6.04 g/m*3 3.17 C 19.3 km/h
2982 05-03-2019 08:25:00 6.6 C 6.04 g/m*3 2.66 C 24.1 km/h
2983 05-03-2019 08:30:00 6.6 C 6.04 g/m*3 3.79 C 14.5 km/h
2984 05-03-2019 08:35:00 6.7 C 6.15 g/m*3 3.11 C 20.9 km/h
2985 05-03-2019 08:40:00 6.7 C 6.08 g/m*3 3.11 C 20.9 km/h
2986 05-03-2019 08:45:00 6.7 C 6.08 g/m*3 3.48 C 17.7 km/h
2987 05-03-2019 08:50:00 6.7 C 6.08 g/m*3 3.48 C 17.7 km/h
2988 05-03-2019 08:55:00 6.6 C 6.19 g/m*3 3.36 C 17.7 km/h
2989 05-03-2019 09:00:00 6.6 C 6.27 g/m*3 4.32 C 11.3 km/h
2990 05-03-2019 09:05:00 6.5 C 6.22 g/m*3 3.23 C 17.7 km/h
2991 05-03-2019 09:10:00 6.5 C 6.15 g/m*3 3.92 C 12.9 km/h
2992 05-03-2019 09:15:00 6.6 C 6.19 g/m*3 3.36 C 17.7 km/h
2993 05-03-2019 09:20:00 6.6 C 6.19 g/m*3 3.36 C 17.7 km/h
2994 05-03-2019 09:25:00 6.6 C 6.27 g/m*3 3.17 C 19.3 km/h
2995 05-03-2019 09:30:00 6.6 C 6.27 g/m*3 3.17 C 19.3 km/h
2996 05-03-2019 09:35:00 6.5 C 6.3 g/m*3 3.67 C 14.5 km/h
2997 05-03-2019 09:40:00 6.4 C 6.26 g/m*3 3.55 C 14.5 km/h
2998 05-03-2019 09:45:00 6.4 C 6.26 g/m*3 2.73 C 20.9 km/h
2999 05-03-2019 09:50:00 6.4 C 6.33 g/m*3 4.08 C 11.3 km/h
3000 05-03-2019 09:55:00 6.4 C 6.33 g/m*3 4.08 C 11.3 km/h
Sensor: Nr:Datum:Temp:Abs-Feuchte:Windchill:Wind:
Aussen-T/F 3001 05-03-2019 10:00:00 6.4 C 6.33 g/m*3 4.08 C 11.3 km/h
3002 05-03-2019 10:05:00 6.5 C 6.37 g/m*3 3.67 C 14.5 km/h
3003 05-03-2019 10:10:00 6.5 C 6.45 g/m*3 4.87 C 8.1 km/h
3004 05-03-2019 10:15:00 6.6 C 6.49 g/m*3 3.57 C 16.1 km/h
3005 05-03-2019 10:20:00 6.6 C 6.42 g/m*3 4.32 C 11.3 km/h
3006 05-03-2019 10:25:00 6.6 C 6.42 g/m*3 4.99 C 8.1 km/h
3007 05-03-2019 10:30:00 6.7 C 6.46 g/m*3 4.17 C 12.9 km/h
3008 05-03-2019 10:35:00 6.7 C 6.46 g/m*3 4.75 C 9.7 km/h
3009 05-03-2019 10:40:00 6.7 C 6.46 g/m*3 3.92 C 14.5 km/h
3010 05-03-2019 10:45:00 6.7 C 6.46 g/m*3 4.44 C 11.3 km/h
3011 05-03-2019 10:50:00 6.7 C 6.46 g/m*3 4.17 C 12.9 km/h
3012 05-03-2019 10:55:00 6.8 C 6.5 g/m*3 5.22 C 8.1 km/h
3013 05-03-2019 11:00:00 6.8 C 6.5 g/m*3 5.22 C 8.1 km/h
3014 05-03-2019 11:05:00 6.9 C 6.54 g/m*3 4.41 C 12.9 km/h
3015 05-03-2019 11:10:00 6.9 C 6.54 g/m*3 4.41 C 12.9 km/h
3016 05-03-2019 11:15:00 6.9 C 6.54 g/m*3 3.73 C 17.7 km/h
3017 05-03-2019 11:20:00 6.9 C 6.47 g/m*3 4.16 C 14.5 km/h
3018 05-03-2019 11:25:00 7 C 6.59 g/m*3 3.86 C 17.7 km/h
3019 05-03-2019 11:30:00 7 C 6.59 g/m*3 4.8 C 11.3 km/h
3020 05-03-2019 11:35:00 7 C 6.51 g/m*3 5.11 C 9.7 km/h
3021 05-03-2019 11:40:00 7.1 C 6.55 g/m*3 4.65 C 12.9 km/h
3022 05-03-2019 11:45:00 7.1 C 6.55 g/m*3 5.23 C 9.7 km/h
3023 05-03-2019 11:50:00 7.1 C 6.47 g/m*3 4.92 C 11.3 km/h
3024 05-03-2019 11:55:00 7.2 C 6.52 g/m*3 5.35 C 9.7 km/h
3025 05-03-2019 12:00:00 7.2 C 6.52 g/m*3 5.04 C 11.3 km/h
Sensor: Nr:Datum:Temp:Abs-Feuchte:Windchill:Wind:
Aussen-T/F 3026 05-03-2019 12:05:00 7.2 C 6.52 g/m*3 5.04 C 11.3 km/h
3027 05-03-2019 12:10:00 7.3 C 6.48 g/m*3 5.47 C 9.7 km/h
3028 05-03-2019 12:15:00 7.3 C 6.48 g/m*3 5.16 C 11.3 km/h
3029 05-03-2019 12:20:00 7.3 C 6.4 g/m*3 4.66 C 14.5 km/h
3030 05-03-2019 12:25:00 7.3 C 6.4 g/m*3 4.23 C 17.7 km/h
3031 05-03-2019 12:30:00 7.3 C 6.4 g/m*3 4.23 C 17.7 km/h
3032 05-03-2019 12:35:00 7.3 C 6.4 g/m*3 4.44 C 16.1 km/h
3033 05-03-2019 12:40:00 7.3 C 6.4 g/m*3 4.44 C 16.1 km/h
3034 05-03-2019 12:45:00 7.3 C 6.4 g/m*3 4.44 C 16.1 km/h
3035 05-03-2019 12:50:00 7.4 C 6.52 g/m*3 5.58 C 9.7 km/h
3036 05-03-2019 12:55:00 7.4 C 6.44 g/m*3 5.02 C 12.9 km/h
3037 05-03-2019 13:00:00 7.5 C 6.48 g/m*3 6.05 C 8.1 km/h
3038 05-03-2019 13:05:00 7.6 C 6.53 g/m*3 5.53 C 11.3 km/h
3039 05-03-2019 13:10:00 7.7 C 6.57 g/m*3 5.38 C 12.9 km/h
3040 05-03-2019 13:15:00 7.8 C 6.53 g/m*3 5.77 C 11.3 km/h
3041 05-03-2019 13:20:00 7.9 C 6.57 g/m*3 5.89 C 11.3 km/h
3042 05-03-2019 13:25:00 8 C 6.61 g/m*3 5.75 C 12.9 km/h
3043 05-03-2019 13:30:00 8.1 C 6.66 g/m*3 6.13 C 11.3 km/h
3044 05-03-2019 13:35:00 8.1 C 6.57 g/m*3 5.87 C 12.9 km/h
3045 05-03-2019 13:40:00 8.2 C 6.62 g/m*3 5.36 C 17.7 km/h
3046 05-03-2019 13:45:00 8.2 C 6.62 g/m*3 6.25 C 11.3 km/h
3047 05-03-2019 13:50:00 8.2 C 6.62 g/m*3 5.99 C 12.9 km/h
3048 05-03-2019 13:55:00 8.3 C 6.57 g/m*3 6.12 C 12.9 km/h
3049 05-03-2019 14:00:00 8.3 C 6.57 g/m*3 6.12 C 12.9 km/h
3050 05-03-2019 14:05:00 8.3 C 6.57 g/m*3 6.12 C 12.9 km/h
Sensor: Nr:Datum:Temp:Abs-Feuchte:Windchill:Wind:
Aussen-T/F 3051 05-03-2019 14:10:00 8.5 C 6.66 g/m*3 5.92 C 16.1 km/h
3052 05-03-2019 14:15:00 8.6 C 6.7 g/m*3 6.05 C 16.1 km/h
3053 05-03-2019 14:20:00 8.7 C 6.75 g/m*3 6.38 C 14.5 km/h
3054 05-03-2019 14:25:00 8.7 C 6.75 g/m*3 6.6 C 12.9 km/h
3055 05-03-2019 14:30:00 8.7 C 6.75 g/m*3 7.13 C 9.7 km/h
3056 05-03-2019 14:35:00 8.8 C 6.7 g/m*3 6.5 C 14.5 km/h
3057 05-03-2019 14:40:00 8.8 C 6.7 g/m*3 6.5 C 14.5 km/h
3058 05-03-2019 14:45:00 8.8 C 6.7 g/m*3 6.72 C 12.9 km/h
3059 05-03-2019 14:50:00 8.8 C 6.61 g/m*3 6.5 C 14.5 km/h
3060 05-03-2019 14:55:00 8.8 C 6.7 g/m*3 7.58 C 8.1 km/h
3061 05-03-2019 15:00:00 8.8 C 6.61 g/m*3 6.97 C 11.3 km/h
3062 05-03-2019 15:05:00 8.8 C 6.61 g/m*3 6.5 C 14.5 km/h
3063 05-03-2019 15:10:00 8.8 C 6.61 g/m*3 6.97 C 11.3 km/h
3064 05-03-2019 15:15:00 8.9 C 6.66 g/m*3 7.09 C 11.3 km/h
3065 05-03-2019 15:20:00 8.8 C 6.61 g/m*3 6.5 C 14.5 km/h
3066 05-03-2019 15:25:00 8.9 C 6.66 g/m*3 7.69 C 8.1 km/h
3067 05-03-2019 15:30:00 9 C 6.61 g/m*3 6.75 C 14.5 km/h
3068 05-03-2019 15:35:00 9.1 C 6.57 g/m*3 7.09 C 12.9 km/h
3069 05-03-2019 15:40:00 9.1 C 6.48 g/m*3 6.87 C 14.5 km/h
3070 05-03-2019 15:45:00 9.1 C 6.48 g/m*3 7.33 C 11.3 km/h
3071 05-03-2019 15:50:00 9.1 C 6.57 g/m*3 8.33 C 6.4 km/h
3072 05-03-2019 15:55:00 9.1 C 6.57 g/m*3 7.93 C 8.1 km/h
3073 05-03-2019 16:00:00 9.1 C 6.65 g/m*3 7.33 C 11.3 km/h
3074 05-03-2019 16:05:00 9.1 C 6.74 g/m*3 7.33 C 11.3 km/h
3075 05-03-2019 16:10:00 9.2 C 6.79 g/m*3 7.73 C 9.7 km/h
Sensor: Nr:Datum:Temp:Abs-Feuchte:Windchill:Wind:
Aussen-T/F 3076 05-03-2019 16:15:00 9.5 C 6.74 g/m*3 7.82 C 11.3 km/h
3077 05-03-2019 16:20:00 9.9 C 6.72 g/m*3 8.06 C 12.9 km/h
3078 05-03-2019 16:25:00 10.1 C 6.71 g/m*3 8.54 C 11.3 km/h
3079 05-03-2019 16:30:00 10.1 C 6.71 g/m*3 8.8 C 9.7 km/h
3080 05-03-2019 16:35:00 10.1 C 6.71 g/m*3 8.8 C 9.7 km/h
3081 05-03-2019 16:40:00 10.1 C 6.81 g/m*3 8.31 C 12.9 km/h
3082 05-03-2019 16:45:00 10.1 C 6.81 g/m*3 9.48 C 6.4 km/h
3083 05-03-2019 16:50:00 10.2 C 6.76 g/m*3 8.43 C 12.9 km/h
3084 05-03-2019 16:55:00 10.3 C 6.9 g/m*3 9.34 C 8.1 km/h
3085 05-03-2019 17:00:00 10.3 C 6.8 g/m*3 8.78 C 11.3 km/h
3086 05-03-2019 17:05:00 10.1 C 6.81 g/m*3 8.31 C 12.9 km/h
3087 05-03-2019 17:10:00 10.1 C 6.81 g/m*3 8.8 C 9.7 km/h
3088 05-03-2019 17:15:00 10.1 C 6.9 g/m*3 8.54 C 11.3 km/h
3089 05-03-2019 17:20:00 10 C 6.67 g/m*3 7.98 C 14.5 km/h
3090 05-03-2019 17:25:00 9.7 C 6.64 g/m*3 8.06 C 11.3 km/h
3091 05-03-2019 17:30:00 9.3 C 6.65 g/m*3 7.85 C 9.7 km/h
3092 05-03-2019 17:35:00 9.1 C 6.65 g/m*3 7.61 C 9.7 km/h
3093 05-03-2019 17:40:00 8.7 C 6.57 g/m*3 7.87 C 6.4 km/h
3094 05-03-2019 17:45:00 8.4 C 6.53 g/m*3 7.11 C 8.1 km/h
3095 05-03-2019 17:50:00 8.2 C 6.53 g/m*3 8.2 C 4.8 km/h
3096 05-03-2019 17:55:00 8.1 C 6.57 g/m*3 8.1 C 4.8 km/h
3097 05-03-2019 18:00:00 7.8 C 6.45 g/m*3 6.4 C 8.1 km/h
3098 05-03-2019 18:05:00 7.7 C 6.49 g/m*3 7.7 C 4.8 km/h
3099 05-03-2019 18:10:00 7.5 C 6.4 g/m*3 7.5 C 4.8 km/h
3100 05-03-2019 18:15:00 7.3 C 6.4 g/m*3 7.3 C 4.8 km/h
Sensor: Nr:Datum:Temp:Abs-Feuchte:Windchill:Wind:
Aussen-T/F 3101 05-03-2019 18:20:00 7.2 C 6.36 g/m*3 7.2 C 4.8 km/h
3102 05-03-2019 18:25:00 7.1 C 6.32 g/m*3 6.02 C 6.4 km/h
3103 05-03-2019 18:30:00 7 C 6.28 g/m*3 7 C 3.2 km/h
3104 05-03-2019 18:35:00 6.9 C 6.24 g/m*3 4.99 C 9.7 km/h
3105 05-03-2019 18:40:00 6.8 C 6.19 g/m*3 5.67 C 6.4 km/h
3106 05-03-2019 18:45:00 6.8 C 6.19 g/m*3 4.87 C 9.7 km/h
3107 05-03-2019 18:50:00 6.8 C 6.19 g/m*3 6.8 C 3.2 km/h
3108 05-03-2019 18:55:00 6.7 C 6.15 g/m*3 6.7 C 4.8 km/h
3109 05-03-2019 19:00:00 6.7 C 6.23 g/m*3 5.56 C 6.4 km/h
3110 05-03-2019 19:05:00 6.6 C 6.19 g/m*3 5.44 C 6.4 km/h
3111 05-03-2019 19:10:00 6.7 C 6.23 g/m*3 6.7 C 4.8 km/h
3112 05-03-2019 19:15:00 6.7 C 6.23 g/m*3 5.56 C 6.4 km/h
3113 05-03-2019 19:20:00 6.6 C 6.19 g/m*3 6.6 C 4.8 km/h
3114 05-03-2019 19:25:00 6.6 C 6.19 g/m*3 4.63 C 9.7 km/h
3115 05-03-2019 19:30:00 6.6 C 6.27 g/m*3 5.44 C 6.4 km/h
3116 05-03-2019 19:35:00 6.6 C 6.27 g/m*3 6.6 C 3.2 km/h
3117 05-03-2019 19:40:00 6.4 C 6.18 g/m*3 6.4 C 3.2 km/h
3118 05-03-2019 19:45:00 6.4 C 6.18 g/m*3 4.75 C 8.1 km/h
3119 05-03-2019 19:50:00 6.4 C 6.18 g/m*3 6.4 C 4.8 km/h
3120 05-03-2019 19:55:00 6.3 C 6.14 g/m*3 5.1 C 6.4 km/h
3121 05-03-2019 20:00:00 6.3 C 6.14 g/m*3 5.1 C 6.4 km/h
3122 05-03-2019 20:05:00 6.2 C 6.1 g/m*3 6.2 C 1.6 km/h
3123 05-03-2019 20:10:00 6 C 6.1 g/m*3 6 C 4.8 km/h
3124 05-03-2019 20:15:00 5.8 C 6.02 g/m*3 5.8 C 0 km/h
3125 05-03-2019 20:20:00 5.7 C 5.98 g/m*3 5.7 C 0 km/h
Sensor: Nr:Datum:Temp:Abs-Feuchte:Windchill:Wind:
Aussen-T/F 3126 05-03-2019 20:25:00 5.5 C 5.97 g/m*3 5.5 C 1.6 km/h
3127 05-03-2019 20:30:00 5.3 C 5.89 g/m*3 5.3 C 0 km/h
3128 05-03-2019 20:35:00 5.2 C 5.92 g/m*3 5.2 C 1.6 km/h
3129 05-03-2019 20:40:00 5.1 C 5.95 g/m*3 5.1 C 1.6 km/h
3130 05-03-2019 20:45:00 5 C 5.91 g/m*3 5 C 0 km/h
3131 05-03-2019 20:50:00 4.8 C 5.83 g/m*3 4.8 C 0 km/h
3132 05-03-2019 20:55:00 4.7 C 5.8 g/m*3 4.7 C 0 km/h
3133 05-03-2019 21:00:00 4.6 C 5.76 g/m*3 4.6 C 0 km/h
3134 05-03-2019 21:05:00 4.4 C 5.75 g/m*3 4.4 C 0 km/h
3135 05-03-2019 21:10:00 4.3 C 5.71 g/m*3 4.3 C 0 km/h
3136 05-03-2019 21:15:00 4.2 C 5.67 g/m*3 4.2 C 0 km/h
3137 05-03-2019 21:20:00 4.2 C 5.73 g/m*3 4.2 C 0 km/h
3138 05-03-2019 21:25:00 4.2 C 5.8 g/m*3 4.2 C 0 km/h
3139 05-03-2019 21:30:00 4.2 C 5.8 g/m*3 4.2 C 0 km/h
3140 05-03-2019 21:35:00 4.2 C 5.8 g/m*3 4.2 C 0 km/h
3141 05-03-2019 21:40:00 4.2 C 5.86 g/m*3 4.2 C 3.2 km/h
3142 05-03-2019 21:45:00 4.2 C 5.86 g/m*3 4.2 C 3.2 km/h
3143 05-03-2019 21:50:00 4.3 C 5.9 g/m*3 4.3 C 1.6 km/h
3144 05-03-2019 21:55:00 4.3 C 5.9 g/m*3 4.3 C 0 km/h
3145 05-03-2019 22:00:00 4.3 C 5.97 g/m*3 4.3 C 0 km/h
3146 05-03-2019 22:05:00 4.4 C 6.01 g/m*3 4.4 C 0 km/h
3147 05-03-2019 22:10:00 4.6 C 6.09 g/m*3 4.6 C 0 km/h
3148 05-03-2019 22:15:00 4.7 C 6.13 g/m*3 4.7 C 0 km/h
3149 05-03-2019 22:20:00 4.7 C 6.13 g/m*3 4.7 C 0 km/h
3150 05-03-2019 22:25:00 4.8 C 6.17 g/m*3 4.8 C 0 km/h
Sensor: Nr:Datum:Temp:Abs-Feuchte:Windchill:Wind:
Aussen-T/F 3151 05-03-2019 22:30:00 4.8 C 6.17 g/m*3 4.8 C 0 km/h
3152 05-03-2019 22:35:00 4.8 C 6.17 g/m*3 4.8 C 0 km/h
3153 05-03-2019 22:40:00 4.8 C 6.17 g/m*3 4.8 C 0 km/h
3154 05-03-2019 22:45:00 4.8 C 6.17 g/m*3 4.8 C 0 km/h
3155 05-03-2019 22:50:00 4.9 C 6.21 g/m*3 4.9 C 3.2 km/h
3156 05-03-2019 22:55:00 4.9 C 6.21 g/m*3 4.9 C 0 km/h
3157 05-03-2019 23:00:00 4.9 C 6.21 g/m*3 4.9 C 0 km/h
3158 05-03-2019 23:05:00 5 C 6.25 g/m*3 5 C 0 km/h
3159 05-03-2019 23:10:00 5.1 C 6.29 g/m*3 5.1 C 0 km/h
3160 05-03-2019 23:15:00 5.2 C 6.33 g/m*3 5.2 C 0 km/h
3161 05-03-2019 23:20:00 5.2 C 6.33 g/m*3 5.2 C 0 km/h
3162 05-03-2019 23:25:00 5.3 C 6.38 g/m*3 5.3 C 0 km/h
3163 05-03-2019 23:30:00 5.4 C 6.42 g/m*3 5.4 C 0 km/h
3164 05-03-2019 23:35:00 5.4 C 6.42 g/m*3 5.4 C 0 km/h
3165 05-03-2019 23:40:00 5.4 C 6.42 g/m*3 5.4 C 0 km/h
3166 05-03-2019 23:45:00 5.4 C 6.42 g/m*3 5.4 C 0 km/h
3167 05-03-2019 23:50:00 5.4 C 6.42 g/m*3 5.4 C 0 km/h
3168 05-03-2019 23:55:00 5.5 C 6.46 g/m*3 5.5 C 0 km/h
3169 06-03-2019 00:00:00 5.5 C 6.46 g/m*3 5.5 C 0 km/h
3170 06-03-2019 00:05:00 5.5 C 6.46 g/m*3 5.5 C 1.6 km/h
3171 06-03-2019 00:10:00 5.5 C 6.46 g/m*3 5.5 C 0 km/h
3172 06-03-2019 00:15:00 5.6 C 6.5 g/m*3 5.6 C 0 km/h
3173 06-03-2019 00:20:00 5.6 C 6.5 g/m*3 5.6 C 0 km/h
3174 06-03-2019 00:25:00 5.6 C 6.5 g/m*3 5.6 C 0 km/h
3175 06-03-2019 00:30:00 5.7 C 6.48 g/m*3 5.7 C 3.2 km/h
Sensor: Nr:Datum:Temp:Abs-Feuchte:Windchill:Wind:
Aussen-T/F 3176 06-03-2019 00:35:00 5.7 C 6.48 g/m*3 5.7 C 3.2 km/h
3177 06-03-2019 00:40:00 5.7 C 6.48 g/m*3 5.7 C 0 km/h
3178 06-03-2019 00:45:00 5.7 C 6.48 g/m*3 5.7 C 0 km/h
3179 06-03-2019 00:50:00 5.8 C 6.59 g/m*3 5.8 C 0 km/h
3180 06-03-2019 00:55:00 5.9 C 6.63 g/m*3 5.9 C 0 km/h
3181 06-03-2019 01:00:00 5.9 C 6.63 g/m*3 5.9 C 0 km/h
3182 06-03-2019 01:05:00 6.1 C 6.72 g/m*3 6.1 C 0 km/h
3183 06-03-2019 01:10:00 6.1 C 6.72 g/m*3 6.1 C 1.6 km/h
3184 06-03-2019 01:15:00 6.1 C 6.65 g/m*3 6.1 C 0 km/h
3185 06-03-2019 01:20:00 6.1 C 6.65 g/m*3 6.1 C 0 km/h
3186 06-03-2019 01:25:00 6.1 C 6.65 g/m*3 6.1 C 0 km/h
3187 06-03-2019 01:30:00 6.1 C 6.65 g/m*3 6.1 C 0 km/h
3188 06-03-2019 01:35:00 6.1 C 6.65 g/m*3 6.1 C 0 km/h
3189 06-03-2019 01:40:00 6.1 C 6.72 g/m*3 6.1 C 0 km/h
3190 06-03-2019 01:45:00 6.2 C 6.77 g/m*3 6.2 C 0 km/h
3191 06-03-2019 01:50:00 6.4 C 6.85 g/m*3 6.4 C 0 km/h
3192 06-03-2019 01:55:00 6.5 C 6.9 g/m*3 6.5 C 3.2 km/h
3193 06-03-2019 02:00:00 6.7 C 6.91 g/m*3 6.7 C 4.8 km/h
3194 06-03-2019 02:05:00 6.8 C 6.96 g/m*3 6.8 C 1.6 km/h
3195 06-03-2019 02:10:00 6.8 C 6.96 g/m*3 5.67 C 6.4 km/h
3196 06-03-2019 02:15:00 6.9 C 6.93 g/m*3 5.79 C 6.4 km/h
3197 06-03-2019 02:20:00 7 C 6.97 g/m*3 5.9 C 6.4 km/h
3198 06-03-2019 02:25:00 7.1 C 7.02 g/m*3 7.1 C 1.6 km/h
3199 06-03-2019 02:30:00 7.1 C 7.02 g/m*3 7.1 C 1.6 km/h
3200 06-03-2019 02:35:00 7.2 C 6.99 g/m*3 7.2 C 3.2 km/h
Sensor: Nr:Datum:Temp:Abs-Feuchte:Windchill:Wind:
Aussen-T/F 3201 06-03-2019 02:40:00 7.2 C 6.99 g/m*3 7.2 C 3.2 km/h
3202 06-03-2019 02:45:00 7.2 C 6.99 g/m*3 7.2 C 3.2 km/h
3203 06-03-2019 02:50:00 7.2 C 6.99 g/m*3 7.2 C 3.2 km/h
3204 06-03-2019 02:55:00 7.2 C 6.99 g/m*3 7.2 C 0 km/h
3205 06-03-2019 03:00:00 7.2 C 6.99 g/m*3 7.2 C 3.2 km/h
3206 06-03-2019 03:05:00 7.2 C 6.99 g/m*3 7.2 C 0 km/h
3207 06-03-2019 03:10:00 7.2 C 6.99 g/m*3 7.2 C 0 km/h
3208 06-03-2019 03:15:00 7.1 C 6.94 g/m*3 7.1 C 0 km/h
3209 06-03-2019 03:20:00 7.1 C 6.94 g/m*3 7.1 C 0 km/h
3210 06-03-2019 03:25:00 7 C 6.9 g/m*3 7 C 0 km/h
3211 06-03-2019 03:30:00 6.9 C 6.93 g/m*3 6.9 C 0 km/h
3212 06-03-2019 03:35:00 6.9 C 6.93 g/m*3 6.9 C 0 km/h
3213 06-03-2019 03:40:00 6.9 C 6.93 g/m*3 6.9 C 0 km/h
3214 06-03-2019 03:45:00 6.9 C 6.93 g/m*3 6.9 C 0 km/h
3215 06-03-2019 03:50:00 6.8 C 6.88 g/m*3 6.8 C 0 km/h
3216 06-03-2019 03:55:00 6.8 C 6.88 g/m*3 6.8 C 0 km/h
3217 06-03-2019 04:00:00 6.8 C 6.96 g/m*3 6.8 C 0 km/h
3218 06-03-2019 04:05:00 6.8 C 6.96 g/m*3 6.8 C 0 km/h
3219 06-03-2019 04:10:00 6.8 C 6.96 g/m*3 6.8 C 0 km/h
3220 06-03-2019 04:15:00 6.8 C 6.96 g/m*3 6.8 C 0 km/h
3221 06-03-2019 04:20:00 6.7 C 6.91 g/m*3 6.7 C 0 km/h
3222 06-03-2019 04:25:00 6.7 C 6.91 g/m*3 6.7 C 0 km/h
3223 06-03-2019 04:30:00 6.6 C 6.87 g/m*3 6.6 C 3.2 km/h
3224 06-03-2019 04:35:00 6.7 C 6.91 g/m*3 5.11 C 8.1 km/h
3225 06-03-2019 04:40:00 6.8 C 7.04 g/m*3